Time,TemperatureF,DewpointF,PressureIn,WindDirection,WindDirectionDegrees,WindSpeedMPH,WindSpeedGustMPH,Humidity,HourlyPrecipIn,Conditions,Clouds,dailyrainin,SoftwareType,DateUTC
2013-03-07 00:00:00,50.4,21.7,29.96,ESE,112,2.0,2.0,32,0.00,,---,0.00,VWS V14.01,2013-03-07 07:00:00,
2013-03-07 00:01:00,48.6,18.6,29.96,East,90,1.8,1.8,30,0.00,,---,0.00,VWS V14.01,2013-03-07 07:01:00,
2013-03-07 00:02:00,48.4,18.4,29.96,East,90,1.1,1.8,30,0.00,,---,0.00,VWS V14.01,2013-03-07 07:02:00,
2013-03-07 00:03:00,48.4,18.4,29.96,East,90,1.1,1.1,30,0.00,,---,0.00,VWS V14.01,2013-03-07 07:03:00,
2013-03-07 00:04:00,48.2,18.2,29.96,East,90,0.9,1.1,30,0.00,,---,0.00,VWS V14.01,2013-03-07 07:04:00,
2013-03-07 00:05:00,50.0,21.3,29.96,East,90,1.1,1.1,32,0.00,,---,0.00,VWS V14.01,2013-03-07 07:05:00,
2013-03-07 00:06:00,47.9,18.0,29.96,ENE,68,2.5,2.5,30,0.00,,---,0.00,VWS V14.01,2013-03-07 07:06:00,
2013-03-07 00:07:00,47.9,18.0,29.96,ENE,68,2.5,2.5,30,0.00,,---,0.00,VWS V14.01,2013-03-07 07:07:00,
2013-03-07 00:08:00,47.7,17.8,29.96,ENE,68,2.5,2.5,30,0.00,,---,0.00,VWS V14.01,2013-03-07 07:08:00,
2013-03-07 00:09:00,47.7,17.8,29.96,ENE,68,1.8,2.5,30,0.00,,---,0.00,VWS V14.01,2013-03-07 07:09:00,
2013-03-07 00:10:00,49.7,21.1,29.96,East,90,1.3,1.3,32,0.00,,---,0.00,VWS V14.01,2013-03-07 07:10:00,
2013-03-07 00:11:00,47.5,17.6,29.96,ENE,68,1.8,1.8,30,0.00,,---,0.00,VWS V14.01,2013-03-07 07:11:00,
2013-03-07 00:12:00,47.5,17.6,29.96,ENE,68,2.0,2.0,30,0.00,,---,0.00,VWS V14.01,2013-03-07 07:12:00,
2013-03-07 00:13:00,47.3,17.5,29.96,ENE,68,2.2,2.2,30,0.00,,---,0.00,VWS V14.01,2013-03-07 07:13:00,
2013-03-07 00:14:00,47.3,17.5,29.96,ENE,68,2.5,2.5,30,0.00,,---,0.00,VWS V14.01,2013-03-07 07:14:00,
2013-03-07 00:15:00,49.3,20.7,29.96,East,90,2.2,2.2,32,0.00,,---,0.00,VWS V14.01,2013-03-07 07:15:00,
2013-03-07 00:16:00,47.2,17.4,29.96,ENE,68,2.2,2.2,30,0.00,,---,0.00,VWS V14.01,2013-03-07 07:16:00,
2013-03-07 00:17:00,47.2,17.4,29.96,ENE,68,1.8,2.2,30,0.00,,---,0.00,VWS V14.01,2013-03-07 07:17:00,
2013-03-07 00:18:00,47.0,17.2,29.96,ENE,68,1.8,1.8,30,0.00,,---,0.00,VWS V14.01,2013-03-07 07:18:00,
2013-03-07 00:19:00,47.0,17.2,29.96,ENE,68,1.3,1.8,30,0.00,,---,0.00,VWS V14.01,2013-03-07 07:19:00,
2013-03-07 00:20:00,49.3,20.7,29.96,ESE,112,2.9,2.9,32,0.00,,---,0.00,VWS V14.01,2013-03-07 07:20:00,
2013-03-07 00:21:00,46.8,17.0,29.96,ENE,68,1.1,1.1,30,0.00,,---,0.00,VWS V14.01,2013-03-07 07:21:00,
2013-03-07 00:22:00,46.6,16.8,29.96,ENE,68,1.6,1.6,30,0.00,,---,0.00,VWS V14.01,2013-03-07 07:22:00,
2013-03-07 00:23:00,46.6,16.8,29.96,ENE,68,1.6,1.6,30,0.00,,---,0.00,VWS V14.01,2013-03-07 07:23:00,
2013-03-07 00:24:00,46.4,16.7,29.96,ENE,68,1.8,1.8,30,0.00,,---,0.00,VWS V14.01,2013-03-07 07:24:00,
2013-03-07 00:25:00,49.3,20.0,29.96,ESE,112,1.1,1.1,31,0.00,,---,0.00,VWS V14.01,2013-03-07 07:25:00,
2013-03-07 00:26:00,46.4,16.7,29.96,ENE,68,2.0,2.0,30,0.00,,---,0.00,VWS V14.01,2013-03-07 07:26:00,
2013-03-07 00:27:00,46.4,16.7,29.96,ENE,68,2.5,2.5,30,0.00,,---,0.00,VWS V14.01,2013-03-07 07:27:00,
2013-03-07 00:28:00,46.4,16.7,29.96,ENE,68,2.5,2.5,30,0.00,,---,0.00,VWS V14.01,2013-03-07 07:28:00,
2013-03-07 00:29:00,46.4,16.7,29.96,ENE,68,2.0,2.5,30,0.00,,---,0.00,VWS V14.01,2013-03-07 07:29:00,
2013-03-07 00:30:00,49.5,20.1,29.96,ESE,112,1.6,1.6,31,0.00,,---,0.00,VWS V14.01,2013-03-07 07:30:00,
2013-03-07 00:31:00,46.4,16.7,29.96,ENE,68,2.9,2.9,30,0.00,,---,0.00,VWS V14.01,2013-03-07 07:31:00,
2013-03-07 00:32:00,46.4,16.7,29.96,ENE,68,1.8,2.9,30,0.00,,---,0.00,VWS V14.01,2013-03-07 07:32:00,
2013-03-07 00:33:00,46.4,16.7,29.96,ENE,68,0.4,1.8,30,0.00,,---,0.00,VWS V14.01,2013-03-07 07:33:00,
2013-03-07 00:34:00,46.3,16.6,29.96,ENE,68,0.7,0.7,30,0.00,,---,0.00,VWS V14.01,2013-03-07 07:34:00,
2013-03-07 00:35:00,49.5,19.4,29.96,ESE,112,0.9,0.9,30,0.00,,---,0.00,VWS V14.01,2013-03-07 07:35:00,
2013-03-07 00:36:00,46.1,16.4,29.96,ENE,68,1.3,1.3,30,0.00,,---,0.00,VWS V14.01,2013-03-07 07:36:00,
2013-03-07 00:37:00,46.1,16.4,29.96,NE,45,1.8,1.8,30,0.00,,---,0.00,VWS V14.01,2013-03-07 07:37:00,
2013-03-07 00:38:00,46.1,16.4,29.96,ENE,68,1.8,1.8,30,0.00,,---,0.00,VWS V14.01,2013-03-07 07:38:00,
2013-03-07 00:39:00,46.1,16.4,29.96,ENE,68,2.2,2.2,30,0.00,,---,0.00,VWS V14.01,2013-03-07 07:39:00,
2013-03-07 00:40:00,49.5,19.4,29.96,ESE,112,1.3,1.3,30,0.00,,---,0.00,VWS V14.01,2013-03-07 07:40:00,
2013-03-07 00:41:00,46.1,16.4,29.96,ENE,68,3.1,3.1,30,0.00,,---,0.00,VWS V14.01,2013-03-07 07:41:00,
2013-03-07 00:42:00,46.1,16.4,29.96,ENE,68,3.1,3.1,30,0.00,,---,0.00,VWS V14.01,2013-03-07 07:42:00,
2013-03-07 00:43:00,46.3,16.6,29.96,ENE,68,2.5,3.1,30,0.00,,---,0.00,VWS V14.01,2013-03-07 07:43:00,
2013-03-07 00:44:00,46.3,15.8,29.96,ENE,68,3.1,3.1,29,0.00,,---,0.00,VWS V14.01,2013-03-07 07:44:00,
2013-03-07 00:45:00,49.5,19.4,29.96,ESE,112,0.4,0.4,30,0.00,,---,0.00,VWS V14.01,2013-03-07 07:45:00,
2013-03-07 00:46:00,46.3,15.8,29.96,ENE,68,2.7,3.4,29,0.00,,---,0.00,VWS V14.01,2013-03-07 07:46:00,
2013-03-07 00:47:00,46.1,16.4,29.96,ENE,68,2.5,2.7,30,0.00,,---,0.00,VWS V14.01,2013-03-07 07:47:00,
2013-03-07 00:48:00,46.1,16.4,29.96,ENE,68,0.9,2.5,30,0.00,,---,0.00,VWS V14.01,2013-03-07 07:48:00,
2013-03-07 00:49:00,45.9,16.2,29.96,ENE,68,0.7,0.9,30,0.00,,---,0.00,VWS V14.01,2013-03-07 07:49:00,
2013-03-07 00:50:00,49.0,18.9,29.96,ESE,112,0.4,0.4,30,0.00,,---,0.00,VWS V14.01,2013-03-07 07:50:00,
2013-03-07 00:51:00,45.7,16.1,29.96,ENE,68,1.1,1.1,30,0.00,,---,0.00,VWS V14.01,2013-03-07 07:51:00,
2013-03-07 00:52:00,45.5,15.9,29.96,ENE,68,1.8,1.8,30,0.00,,---,0.00,VWS V14.01,2013-03-07 07:52:00,
2013-03-07 00:53:00,45.4,15.8,29.96,ENE,68,1.1,1.8,30,0.00,,---,0.00,VWS V14.01,2013-03-07 07:53:00,
2013-03-07 00:54:00,45.4,15.8,29.96,ENE,68,1.1,1.1,30,0.00,,---,0.00,VWS V14.01,2013-03-07 07:54:00,
2013-03-07 00:55:00,48.6,18.6,29.96,East,90,0.7,0.7,30,0.00,,---,0.00,VWS V14.01,2013-03-07 07:55:00,
2013-03-07 00:56:00,45.0,16.2,29.96,ENE,68,0.4,0.7,31,0.00,,---,0.00,VWS V14.01,2013-03-07 07:56:00,
2013-03-07 00:57:00,44.8,16.0,29.96,NE,45,0.4,0.4,31,0.00,,---,0.00,VWS V14.01,2013-03-07 07:57:00,
2013-03-07 00:58:00,44.6,15.9,29.96,NE,45,0.7,0.7,31,0.00,,---,0.00,VWS V14.01,2013-03-07 07:58:00,
2013-03-07 00:59:00,44.5,15.8,29.96,NE,45,0.9,0.9,31,0.00,,---,0.00,VWS V14.01,2013-03-07 07:59:00,
2013-03-07 01:00:00,48.6,18.6,29.96,East,90,1.3,1.3,30,0.00,,---,0.00,VWS V14.01,2013-03-07 08:00:00,
2013-03-07 01:01:00,44.1,15.4,29.96,NE,45,1.1,1.1,31,0.00,,---,0.00,VWS V14.01,2013-03-07 08:01:00,
2013-03-07 01:02:00,43.9,16.0,29.96,NE,45,1.1,1.1,32,0.00,,---,0.00,VWS V14.01,2013-03-07 08:02:00,
2013-03-07 01:03:00,43.7,15.8,29.96,NE,45,1.8,1.8,32,0.00,,---,0.00,VWS V14.01,2013-03-07 08:03:00,
2013-03-07 01:04:00,43.6,15.7,29.96,NE,45,1.8,1.8,32,0.00,,---,0.00,VWS V14.01,2013-03-07 08:04:00,
2013-03-07 01:05:00,48.1,18.1,29.96,ENE,68,1.8,1.8,30,0.00,,---,0.00,VWS V14.01,2013-03-07 08:05:00,
2013-03-07 01:06:00,43.6,15.7,29.96,NE,45,2.5,2.5,32,0.00,,---,0.00,VWS V14.01,2013-03-07 08:06:00,
2013-03-07 01:07:00,43.7,15.8,29.96,ENE,68,1.8,2.5,32,0.00,,---,0.00,VWS V14.01,2013-03-07 08:07:00,
2013-03-07 01:08:00,43.9,16.0,29.96,ENE,68,1.6,1.8,32,0.00,,---,0.00,VWS V14.01,2013-03-07 08:08:00,
2013-03-07 01:09:00,44.1,16.1,29.96,ENE,68,1.3,1.6,32,0.00,,---,0.00,VWS V14.01,2013-03-07 08:09:00,
2013-03-07 01:10:00,47.7,17.8,29.96,ENE,68,1.1,1.1,30,0.00,,---,0.00,VWS V14.01,2013-03-07 08:10:00,
2013-03-07 01:11:00,44.3,16.3,29.96,ENE,68,0.9,2.0,32,0.00,,---,0.00,VWS V14.01,2013-03-07 08:11:00,
2013-03-07 01:12:00,44.3,16.3,29.96,NE,45,0.7,0.9,32,0.00,,---,0.00,VWS V14.01,2013-03-07 08:12:00,
2013-03-07 01:13:00,44.3,16.3,29.96,NE,45,0.4,0.7,32,0.00,,---,0.00,VWS V14.01,2013-03-07 08:13:00,
2013-03-07 01:14:00,44.3,15.6,29.96,NE,45,0.2,0.4,31,0.00,,---,0.00,VWS V14.01,2013-03-07 08:14:00,
2013-03-07 01:15:00,47.3,17.5,29.96,ENE,68,2.2,2.2,30,0.00,,---,0.00,VWS V14.01,2013-03-07 08:15:00,
2013-03-07 01:16:00,43.9,16.0,29.96,NNE,22,0.0,0.4,32,0.00,,---,0.00,VWS V14.01,2013-03-07 08:16:00,
2013-03-07 01:17:00,43.9,16.0,29.96,NNE,22,0.0,0.0,32,0.00,,---,0.00,VWS V14.01,2013-03-07 08:17:00,
2013-03-07 01:18:00,43.7,15.8,29.96,NNE,22,0.2,0.2,32,0.00,,---,0.00,VWS V14.01,2013-03-07 08:18:00,
2013-03-07 01:19:00,43.6,15.7,29.96,NE,45,1.1,1.1,32,0.00,,---,0.00,VWS V14.01,2013-03-07 08:19:00,
2013-03-07 01:20:00,46.8,17.0,29.96,ENE,68,0.7,0.7,30,0.00,,---,0.00,VWS V14.01,2013-03-07 08:20:00,
2013-03-07 01:21:00,43.6,15.7,29.95,NE,45,0.4,1.1,32,0.00,,---,0.00,VWS V14.01,2013-03-07 08:21:00,
2013-03-07 01:22:00,43.6,15.7,29.95,East,90,2.0,2.0,32,0.00,,---,0.00,VWS V14.01,2013-03-07 08:22:00,
2013-03-07 01:23:00,43.6,15.7,29.95,East,90,1.6,2.0,32,0.00,,---,0.00,VWS V14.01,2013-03-07 08:23:00,
2013-03-07 01:24:00,43.6,15.7,29.96,East,90,0.7,1.6,32,0.00,,---,0.00,VWS V14.01,2013-03-07 08:24:00,
2013-03-07 01:25:00,46.4,16.7,29.96,ENE,68,1.8,1.8,30,0.00,,---,0.00,VWS V14.01,2013-03-07 08:25:00,
2013-03-07 01:26:00,43.4,15.5,29.96,NE,45,2.7,2.7,32,0.00,,---,0.00,VWS V14.01,2013-03-07 08:26:00,
2013-03-07 01:27:00,43.4,15.5,29.95,NE,45,3.1,3.1,32,0.00,,---,0.00,VWS V14.01,2013-03-07 08:27:00,
2013-03-07 01:28:00,43.6,15.7,29.95,NE,45,1.3,3.1,32,0.00,,---,0.00,VWS V14.01,2013-03-07 08:28:00,
2013-03-07 01:29:00,43.6,15.7,29.95,NNE,22,0.4,1.3,32,0.00,,---,0.00,VWS V14.01,2013-03-07 08:29:00,
2013-03-07 01:30:00,46.4,16.7,29.96,ENE,68,2.0,2.0,30,0.00,,---,0.00,VWS V14.01,2013-03-07 08:30:00,
2013-03-07 01:31:00,43.4,16.2,29.95,NE,45,2.2,2.2,33,0.00,,---,0.00,VWS V14.01,2013-03-07 08:31:00,
2013-03-07 01:32:00,43.2,15.4,29.96,NNE,22,1.3,2.2,32,0.00,,---,0.00,VWS V14.01,2013-03-07 08:32:00,
2013-03-07 01:33:00,43.0,15.2,29.95,NNE,22,1.3,1.3,32,0.00,,---,0.00,VWS V14.01,2013-03-07 08:33:00,
2013-03-07 01:34:00,42.8,15.0,29.95,NNE,22,3.1,3.1,32,0.00,,---,0.00,VWS V14.01,2013-03-07 08:34:00,
2013-03-07 01:35:00,46.3,16.6,29.96,ENE,68,0.7,0.7,30,0.00,,---,0.00,VWS V14.01,2013-03-07 08:35:00,
2013-03-07 01:36:00,42.7,14.9,29.95,NE,45,0.4,1.1,32,0.00,,---,0.00,VWS V14.01,2013-03-07 08:36:00,
2013-03-07 01:37:00,42.7,14.9,29.95,NE,45,0.4,0.4,32,0.00,,---,0.00,VWS V14.01,2013-03-07 08:37:00,
2013-03-07 01:38:00,42.7,14.9,29.95,NE,45,1.1,1.1,32,0.00,,---,0.00,VWS V14.01,2013-03-07 08:38:00,
2013-03-07 01:39:00,42.7,14.9,29.95,NE,45,1.1,1.1,32,0.00,,---,0.00,VWS V14.01,2013-03-07 08:39:00,
2013-03-07 01:40:00,46.1,16.4,29.96,ENE,68,2.2,2.2,30,0.00,,---,0.00,VWS V14.01,2013-03-07 08:40:00,
2013-03-07 01:41:00,42.8,15.0,29.95,NE,45,1.3,1.8,32,0.00,,---,0.00,VWS V14.01,2013-03-07 08:41:00,
2013-03-07 01:42:00,43.0,15.2,29.95,NE,45,1.8,1.8,32,0.00,,---,0.00,VWS V14.01,2013-03-07 08:42:00,
2013-03-07 01:43:00,42.8,15.0,29.95,NE,45,1.8,1.8,32,0.00,,---,0.00,VWS V14.01,2013-03-07 08:43:00,
2013-03-07 01:44:00,42.8,15.0,29.95,NE,45,1.3,1.8,32,0.00,,---,0.00,VWS V14.01,2013-03-07 08:44:00,
2013-03-07 01:45:00,46.3,15.8,29.96,ENE,68,3.1,3.1,29,0.00,,---,0.00,VWS V14.01,2013-03-07 08:45:00,
2013-03-07 01:46:00,42.7,14.9,29.95,NNE,22,0.0,0.7,32,0.00,,---,0.00,VWS V14.01,2013-03-07 08:46:00,
2013-03-07 01:47:00,42.5,14.7,29.95,NNE,22,0.4,0.4,32,0.00,,---,0.00,VWS V14.01,2013-03-07 08:47:00,
2013-03-07 01:48:00,42.5,14.7,29.95,NNW,338,1.1,1.1,32,0.00,,---,0.00,VWS V14.01,2013-03-07 08:48:00,
2013-03-07 01:49:00,42.5,14.7,29.95,North,0,0.4,1.1,32,0.00,,---,0.00,VWS V14.01,2013-03-07 08:49:00,
2013-03-07 01:50:00,45.9,16.2,29.96,ENE,68,0.7,0.7,30,0.00,,---,0.00,VWS V14.01,2013-03-07 08:50:00,
2013-03-07 01:51:00,42.5,14.7,29.95,NNE,22,2.5,2.5,32,0.00,,---,0.00,VWS V14.01,2013-03-07 08:51:00,
2013-03-07 01:52:00,42.7,14.9,29.94,NNE,22,1.1,2.5,32,0.00,,---,0.00,VWS V14.01,2013-03-07 08:52:00,
2013-03-07 01:53:00,42.8,14.3,29.95,NE,45,1.6,1.6,31,0.00,,---,0.00,VWS V14.01,2013-03-07 08:53:00,
2013-03-07 01:54:00,42.8,14.3,29.95,NNE,22,1.3,1.6,31,0.00,,---,0.00,VWS V14.01,2013-03-07 08:54:00,
2013-03-07 01:55:00,45.4,15.8,29.96,ENE,68,1.1,1.1,30,0.00,,---,0.00,VWS V14.01,2013-03-07 08:55:00,
2013-03-07 01:56:00,43.0,14.4,29.95,NNE,22,0.7,0.9,31,0.00,,---,0.00,VWS V14.01,2013-03-07 08:56:00,
2013-03-07 01:57:00,43.2,14.6,29.95,NE,45,0.7,0.7,31,0.00,,---,0.00,VWS V14.01,2013-03-07 08:57:00,
2013-03-07 01:58:00,43.2,14.6,29.95,NE,45,0.0,0.7,31,0.00,,---,0.00,VWS V14.01,2013-03-07 08:58:00,
2013-03-07 01:59:00,43.2,15.4,29.94,ENE,68,0.4,0.4,32,0.00,,---,0.00,VWS V14.01,2013-03-07 08:59:00,
2013-03-07 02:00:00,44.3,15.6,29.96,NE,45,0.9,0.9,31,0.00,,---,0.00,VWS V14.01,2013-03-07 09:00:00,
2013-03-07 02:01:00,43.2,14.6,29.95,ENE,68,0.9,0.9,31,0.00,,---,0.00,VWS V14.01,2013-03-07 09:01:00,
2013-03-07 02:02:00,43.2,14.6,29.94,NE,45,3.1,3.1,31,0.00,,---,0.00,VWS V14.01,2013-03-07 09:02:00,
2013-03-07 02:03:00,43.4,14.8,29.94,NE,45,1.6,3.1,31,0.00,,---,0.00,VWS V14.01,2013-03-07 09:03:00,
2013-03-07 02:04:00,43.7,15.1,29.94,NE,45,1.1,1.6,31,0.00,,---,0.00,VWS V14.01,2013-03-07 09:04:00,
2013-03-07 02:05:00,43.6,15.7,29.96,NE,45,1.8,1.8,32,0.00,,---,0.00,VWS V14.01,2013-03-07 09:05:00,
2013-03-07 02:06:00,44.3,15.6,29.95,SSE,158,0.4,0.4,31,0.00,,---,0.00,VWS V14.01,2013-03-07 09:06:00,
2013-03-07 02:07:00,44.1,15.4,29.95,South,180,0.4,0.4,31,0.00,,---,0.00,VWS V14.01,2013-03-07 09:07:00,
2013-03-07 02:08:00,43.9,15.2,29.95,South,180,0.2,0.4,31,0.00,,---,0.00,VWS V14.01,2013-03-07 09:08:00,
2013-03-07 02:09:00,43.9,15.2,29.95,SSE,158,0.7,0.7,31,0.00,,---,0.00,VWS V14.01,2013-03-07 09:09:00,
2013-03-07 02:10:00,44.3,16.3,29.96,ENE,68,2.0,2.0,32,0.00,,---,0.00,VWS V14.01,2013-03-07 09:10:00,
2013-03-07 02:11:00,43.6,15.7,29.95,SSW,202,1.8,2.5,32,0.00,,---,0.00,VWS V14.01,2013-03-07 09:11:00,
2013-03-07 02:12:00,43.6,15.7,29.95,SSW,202,0.9,1.8,32,0.00,,---,0.00,VWS V14.01,2013-03-07 09:12:00,
2013-03-07 02:13:00,43.4,15.5,29.95,SW,225,0.4,0.9,32,0.00,,---,0.00,VWS V14.01,2013-03-07 09:13:00,
2013-03-07 02:14:00,43.2,14.6,29.95,SSW,202,0.4,0.4,31,0.00,,---,0.00,VWS V14.01,2013-03-07 09:14:00,
2013-03-07 02:15:00,44.1,16.1,29.96,NNE,22,0.4,0.4,32,0.00,,---,0.00,VWS V14.01,2013-03-07 09:15:00,
2013-03-07 02:16:00,42.8,14.3,29.95,SSE,158,0.2,0.2,31,0.00,,---,0.00,VWS V14.01,2013-03-07 09:16:00,
2013-03-07 02:17:00,42.8,14.3,29.95,SSE,158,0.2,0.2,31,0.00,,---,0.00,VWS V14.01,2013-03-07 09:17:00,
2013-03-07 02:18:00,42.8,14.3,29.95,SSE,158,0.0,0.2,31,0.00,,---,0.00,VWS V14.01,2013-03-07 09:18:00,
2013-03-07 02:19:00,42.7,14.2,29.95,SSE,158,0.0,0.0,31,0.00,,---,0.00,VWS V14.01,2013-03-07 09:19:00,
2013-03-07 02:20:00,43.6,15.7,29.95,NE,45,1.1,1.1,32,0.00,,---,0.00,VWS V14.01,2013-03-07 09:20:00,
2013-03-07 02:21:00,42.5,14.0,29.95,SSE,158,0.0,0.0,31,0.00,,---,0.00,VWS V14.01,2013-03-07 09:21:00,
2013-03-07 02:22:00,42.5,14.7,29.95,SSE,158,0.0,0.0,32,0.00,,---,0.00,VWS V14.01,2013-03-07 09:22:00,
2013-03-07 02:23:00,42.5,14.0,29.95,SSE,158,0.0,0.0,31,0.00,,---,0.00,VWS V14.01,2013-03-07 09:23:00,
2013-03-07 02:24:00,42.3,13.8,29.95,SE,135,0.2,0.2,31,0.00,,---,0.00,VWS V14.01,2013-03-07 09:24:00,
2013-03-07 02:25:00,43.6,15.7,29.96,NW,315,2.2,2.2,32,0.00,,---,0.00,VWS V14.01,2013-03-07 09:25:00,
2013-03-07 02:26:00,42.3,14.6,29.95,SE,135,0.4,0.4,32,0.00,,---,0.00,VWS V14.01,2013-03-07 09:26:00,
2013-03-07 02:27:00,42.3,14.6,29.95,SE,135,0.4,0.4,32,0.00,,---,0.00,VWS V14.01,2013-03-07 09:27:00,
2013-03-07 02:28:00,42.3,14.6,29.95,SE,135,0.4,0.4,32,0.00,,---,0.00,VWS V14.01,2013-03-07 09:28:00,
2013-03-07 02:29:00,42.3,14.6,29.95,SE,135,0.0,0.4,32,0.00,,---,0.00,VWS V14.01,2013-03-07 09:29:00,
2013-03-07 02:30:00,43.6,15.7,29.95,NNE,22,1.6,1.6,32,0.00,,---,0.00,VWS V14.01,2013-03-07 09:30:00,
2013-03-07 02:31:00,42.1,14.4,29.95,SE,135,0.0,0.2,32,0.00,,---,0.00,VWS V14.01,2013-03-07 09:31:00,
2013-03-07 02:32:00,42.1,14.4,29.95,SE,135,0.0,0.0,32,0.00,,---,0.00,VWS V14.01,2013-03-07 09:32:00,
2013-03-07 02:33:00,41.9,14.2,29.95,SE,135,0.0,0.0,32,0.00,,---,0.00,VWS V14.01,2013-03-07 09:33:00,
2013-03-07 02:34:00,41.9,14.2,29.95,SE,135,0.0,0.0,32,0.00,,---,0.00,VWS V14.01,2013-03-07 09:34:00,
2013-03-07 02:35:00,42.8,15.0,29.95,NNE,22,3.1,3.1,32,0.00,,---,0.00,VWS V14.01,2013-03-07 09:35:00,
2013-03-07 02:36:00,41.6,14.6,29.95,SE,135,0.4,0.4,33,0.00,,---,0.00,VWS V14.01,2013-03-07 09:36:00,
2013-03-07 02:37:00,41.6,14.6,29.95,SE,135,0.4,0.4,33,0.00,,---,0.00,VWS V14.01,2013-03-07 09:37:00,
2013-03-07 02:38:00,41.4,14.5,29.95,SE,135,0.2,0.4,33,0.00,,---,0.00,VWS V14.01,2013-03-07 09:38:00,
2013-03-07 02:39:00,41.4,14.5,29.95,SE,135,0.4,0.4,33,0.00,,---,0.00,VWS V14.01,2013-03-07 09:39:00,
2013-03-07 02:40:00,42.7,14.9,29.95,NE,45,1.1,1.1,32,0.00,,---,0.00,VWS V14.01,2013-03-07 09:40:00,
2013-03-07 02:41:00,41.6,13.9,29.95,SE,135,0.4,0.4,32,0.00,,---,0.00,VWS V14.01,2013-03-07 09:41:00,
2013-03-07 02:42:00,41.8,14.1,29.95,SE,135,0.4,0.4,32,0.00,,---,0.00,VWS V14.01,2013-03-07 09:42:00,
2013-03-07 02:43:00,41.8,14.1,29.96,SE,135,0.7,0.7,32,0.00,,---,0.00,VWS V14.01,2013-03-07 09:43:00,
2013-03-07 02:44:00,41.9,14.2,29.96,SE,135,0.7,0.7,32,0.00,,---,0.00,VWS V14.01,2013-03-07 09:44:00,
2013-03-07 02:45:00,42.8,15.0,29.95,NE,45,1.3,1.3,32,0.00,,---,0.00,VWS V14.01,2013-03-07 09:45:00,
2013-03-07 02:46:00,42.1,14.4,29.96,ENE,68,1.3,1.3,32,0.00,,---,0.00,VWS V14.01,2013-03-07 09:46:00,
2013-03-07 02:47:00,42.1,14.4,29.96,ENE,68,1.6,1.6,32,0.00,,---,0.00,VWS V14.01,2013-03-07 09:47:00,
2013-03-07 02:48:00,42.1,14.4,29.96,ENE,68,1.6,1.6,32,0.00,,---,0.00,VWS V14.01,2013-03-07 09:48:00,
2013-03-07 02:49:00,42.1,14.4,29.96,ENE,68,1.6,1.6,32,0.00,,---,0.00,VWS V14.01,2013-03-07 09:49:00,
2013-03-07 02:50:00,42.5,14.7,29.95,North,0,0.4,0.4,32,0.00,,---,0.00,VWS V14.01,2013-03-07 09:50:00,
2013-03-07 02:51:00,41.9,14.2,29.96,ENE,68,1.6,2.2,32,0.00,,---,0.00,VWS V14.01,2013-03-07 09:51:00,
2013-03-07 02:52:00,42.1,14.4,29.96,NE,45,1.1,1.6,32,0.00,,---,0.00,VWS V14.01,2013-03-07 09:52:00,
2013-03-07 02:53:00,42.1,14.4,29.96,NE,45,0.0,1.1,32,0.00,,---,0.00,VWS V14.01,2013-03-07 09:53:00,
2013-03-07 02:54:00,42.1,14.4,29.96,NE,45,0.2,0.2,32,0.00,,---,0.00,VWS V14.01,2013-03-07 09:54:00,
2013-03-07 02:55:00,42.8,14.3,29.95,NNE,22,1.3,1.3,31,0.00,,---,0.00,VWS V14.01,2013-03-07 09:55:00,
2013-03-07 02:56:00,42.3,13.8,29.96,NE,45,1.1,1.1,31,0.00,,---,0.00,VWS V14.01,2013-03-07 09:56:00,
2013-03-07 02:57:00,42.3,13.8,29.96,NE,45,0.7,1.1,31,0.00,,---,0.00,VWS V14.01,2013-03-07 09:57:00,
2013-03-07 02:58:00,42.5,14.0,29.96,NE,45,1.1,1.1,31,0.00,,---,0.00,VWS V14.01,2013-03-07 09:58:00,
2013-03-07 02:59:00,42.5,14.0,29.96,NE,45,0.9,1.1,31,0.00,,---,0.00,VWS V14.01,2013-03-07 09:59:00,
2013-03-07 03:00:00,43.2,14.6,29.94,ENE,68,0.2,0.2,31,0.00,,---,0.00,VWS V14.01,2013-03-07 10:00:00,
2013-03-07 03:01:00,42.5,14.0,29.96,NE,45,0.7,0.9,31,0.00,,---,0.00,VWS V14.01,2013-03-07 10:01:00,
2013-03-07 03:02:00,42.5,14.0,29.96,NE,45,0.4,0.7,31,0.00,,---,0.00,VWS V14.01,2013-03-07 10:02:00,
2013-03-07 03:03:00,42.5,14.0,29.96,NE,45,0.7,0.7,31,0.00,,---,0.00,VWS V14.01,2013-03-07 10:03:00,
2013-03-07 03:04:00,42.7,14.2,29.96,NE,45,0.9,0.9,31,0.00,,---,0.00,VWS V14.01,2013-03-07 10:04:00,
2013-03-07 03:05:00,43.9,15.2,29.95,NE,45,0.2,0.2,31,0.00,,---,0.00,VWS V14.01,2013-03-07 10:05:00,
2013-03-07 03:06:00,42.7,14.2,29.96,NE,45,0.9,1.1,31,0.00,,---,0.00,VWS V14.01,2013-03-07 10:06:00,
2013-03-07 03:07:00,42.5,14.0,29.96,NE,45,0.4,0.9,31,0.00,,---,0.00,VWS V14.01,2013-03-07 10:07:00,
2013-03-07 03:08:00,42.3,13.8,29.96,NE,45,0.9,0.9,31,0.00,,---,0.00,VWS V14.01,2013-03-07 10:08:00,
2013-03-07 03:09:00,42.3,14.6,29.96,NE,45,0.9,0.9,32,0.00,,---,0.00,VWS V14.01,2013-03-07 10:09:00,
2013-03-07 03:10:00,43.7,15.1,29.95,SSW,202,2.5,2.5,31,0.00,,---,0.00,VWS V14.01,2013-03-07 10:10:00,
2013-03-07 03:11:00,42.1,14.4,29.96,ENE,68,1.1,1.1,32,0.00,,---,0.00,VWS V14.01,2013-03-07 10:11:00,
2013-03-07 03:12:00,42.1,14.4,29.96,ENE,68,1.1,1.1,32,0.00,,---,0.00,VWS V14.01,2013-03-07 10:12:00,
2013-03-07 03:13:00,42.1,14.4,29.96,ENE,68,0.9,1.1,32,0.00,,---,0.00,VWS V14.01,2013-03-07 10:13:00,
2013-03-07 03:14:00,42.1,14.4,29.96,ENE,68,0.9,0.9,32,0.00,,---,0.00,VWS V14.01,2013-03-07 10:14:00,
2013-03-07 03:15:00,43.0,14.4,29.95,SSW,202,0.0,0.0,31,0.00,,---,0.00,VWS V14.01,2013-03-07 10:15:00,
2013-03-07 03:16:00,42.1,14.4,29.96,ENE,68,1.1,1.1,32,0.00,,---,0.00,VWS V14.01,2013-03-07 10:16:00,
2013-03-07 03:17:00,42.1,14.4,29.96,ENE,68,0.4,1.1,32,0.00,,---,0.00,VWS V14.01,2013-03-07 10:17:00,
2013-03-07 03:18:00,41.9,14.2,29.96,ENE,68,0.4,0.4,32,0.00,,---,0.00,VWS V14.01,2013-03-07 10:18:00,
2013-03-07 03:19:00,41.8,14.1,29.96,ENE,68,0.2,0.4,32,0.00,,---,0.00,VWS V14.01,2013-03-07 10:19:00,
2013-03-07 03:20:00,42.7,14.2,29.95,SSE,158,0.0,0.0,31,0.00,,---,0.00,VWS V14.01,2013-03-07 10:20:00,
2013-03-07 03:21:00,41.4,14.5,29.96,SW,225,0.4,1.8,33,0.00,,---,0.00,VWS V14.01,2013-03-07 10:21:00,
2013-03-07 03:22:00,41.0,15.5,29.96,WSW,248,0.9,0.9,35,0.00,,---,0.00,VWS V14.01,2013-03-07 10:22:00,
2013-03-07 03:23:00,40.9,14.7,29.96,WSW,248,0.4,0.9,34,0.00,,---,0.00,VWS V14.01,2013-03-07 10:23:00,
2013-03-07 03:24:00,40.9,14.0,29.96,SW,225,0.2,0.4,33,0.00,,---,0.00,VWS V14.01,2013-03-07 10:24:00,
2013-03-07 03:25:00,42.3,14.6,29.95,SE,135,0.4,0.4,32,0.00,,---,0.00,VWS V14.01,2013-03-07 10:25:00,
2013-03-07 03:26:00,40.7,13.9,29.96,WSW,248,0.0,0.0,33,0.00,,---,0.00,VWS V14.01,2013-03-07 10:26:00,
2013-03-07 03:27:00,40.5,13.7,29.96,WSW,248,0.4,0.4,33,0.00,,---,0.00,VWS V14.01,2013-03-07 10:27:00,
2013-03-07 03:28:00,40.5,13.7,29.96,NE,45,0.2,0.4,33,0.00,,---,0.00,VWS V14.01,2013-03-07 10:28:00,
2013-03-07 03:29:00,40.3,14.8,29.96,NE,45,0.2,0.2,35,0.00,,---,0.00,VWS V14.01,2013-03-07 10:29:00,
2013-03-07 03:30:00,42.3,14.6,29.95,SE,135,0.2,0.2,32,0.00,,---,0.00,VWS V14.01,2013-03-07 10:30:00,
2013-03-07 03:31:00,40.3,13.5,29.96,NE,45,0.0,0.0,33,0.00,,---,0.00,VWS V14.01,2013-03-07 10:31:00,
2013-03-07 03:32:00,40.1,13.3,29.96,NE,45,0.0,0.0,33,0.00,,---,0.00,VWS V14.01,2013-03-07 10:32:00,
2013-03-07 03:33:00,40.0,13.2,29.96,NE,45,0.0,0.0,33,0.00,,---,0.00,VWS V14.01,2013-03-07 10:33:00,
2013-03-07 03:34:00,40.0,13.2,29.96,NE,45,0.0,0.0,33,0.00,,---,0.00,VWS V14.01,2013-03-07 10:34:00,
2013-03-07 03:35:00,41.8,14.1,29.95,SE,135,0.0,0.0,32,0.00,,---,0.00,VWS V14.01,2013-03-07 10:35:00,
2013-03-07 03:36:00,39.6,14.2,29.96,NE,45,0.0,0.0,35,0.00,,---,0.00,VWS V14.01,2013-03-07 10:36:00,
2013-03-07 03:37:00,39.4,14.0,29.96,NE,45,0.7,0.7,35,0.00,,---,0.00,VWS V14.01,2013-03-07 10:37:00,
2013-03-07 03:38:00,39.4,14.0,29.96,NE,45,0.7,0.7,35,0.00,,---,0.00,VWS V14.01,2013-03-07 10:38:00,
2013-03-07 03:39:00,39.2,14.5,29.96,NE,45,0.2,0.7,36,0.00,,---,0.00,VWS V14.01,2013-03-07 10:39:00,
2013-03-07 03:40:00,41.4,14.5,29.95,SE,135,0.4,0.4,33,0.00,,---,0.00,VWS V14.01,2013-03-07 10:40:00,
2013-03-07 03:41:00,39.2,13.9,29.96,NNE,22,0.4,0.4,35,0.00,,---,0.00,VWS V14.01,2013-03-07 10:41:00,
2013-03-07 03:42:00,39.2,14.5,29.96,NNE,22,0.7,0.7,36,0.00,,---,0.00,VWS V14.01,2013-03-07 10:42:00,
2013-03-07 03:43:00,39.2,14.5,29.96,NNE,22,0.0,0.7,36,0.00,,---,0.00,VWS V14.01,2013-03-07 10:43:00,
2013-03-07 03:44:00,39.1,14.4,29.96,NNE,22,0.0,0.0,36,0.00,,---,0.00,VWS V14.01,2013-03-07 10:44:00,
2013-03-07 03:45:00,41.9,14.2,29.96,SE,135,0.4,0.4,32,0.00,,---,0.00,VWS V14.01,2013-03-07 10:45:00,
2013-03-07 03:46:00,38.9,14.2,29.96,NNE,22,0.0,0.0,36,0.00,,---,0.00,VWS V14.01,2013-03-07 10:46:00,
2013-03-07 03:47:00,38.9,14.2,29.96,NNE,22,0.0,0.0,36,0.00,,---,0.00,VWS V14.01,2013-03-07 10:47:00,
2013-03-07 03:48:00,38.7,14.1,29.96,NNE,22,0.0,0.0,36,0.00,,---,0.00,VWS V14.01,2013-03-07 10:48:00,
2013-03-07 03:49:00,38.5,13.9,29.96,NNE,22,0.0,0.0,36,0.00,,---,0.00,VWS V14.01,2013-03-07 10:49:00,
2013-03-07 03:50:00,41.9,14.2,29.96,ENE,68,2.2,2.2,32,0.00,,---,0.00,VWS V14.01,2013-03-07 10:50:00,
2013-03-07 03:51:00,38.3,13.1,29.96,NNE,22,0.0,0.0,35,0.00,,---,0.00,VWS V14.01,2013-03-07 10:51:00,
2013-03-07 03:52:00,38.2,13.6,29.96,NNE,22,0.7,0.7,36,0.00,,---,0.00,VWS V14.01,2013-03-07 10:52:00,
2013-03-07 03:53:00,38.2,14.2,29.96,NNE,22,0.4,0.7,37,0.00,,---,0.00,VWS V14.01,2013-03-07 10:53:00,
2013-03-07 03:54:00,38.2,14.9,29.96,NNE,22,0.2,0.4,38,0.00,,---,0.00,VWS V14.01,2013-03-07 10:54:00,
2013-03-07 03:55:00,38.2,14.2,29.96,NNE,22,0.0,0.2,37,0.00,,---,0.00,VWS V14.01,2013-03-07 10:55:00,
2013-03-07 03:56:00,42.3,14.6,29.96,NE,45,1.1,1.1,32,0.00,,---,0.00,VWS V14.01,2013-03-07 10:56:00,
2013-03-07 03:57:00,38.2,15.4,29.97,NE,45,0.7,0.7,39,0.00,,---,0.00,VWS V14.01,2013-03-07 10:57:00,
2013-03-07 03:58:00,38.2,14.9,29.96,NE,45,0.2,0.7,38,0.00,,---,0.00,VWS V14.01,2013-03-07 10:58:00,
2013-03-07 03:59:00,38.2,14.9,29.96,NE,45,0.0,0.2,38,0.00,,---,0.00,VWS V14.01,2013-03-07 10:59:00,
2013-03-07 04:00:00,38.0,14.7,29.96,NE,45,0.2,0.2,38,0.00,,---,0.00,VWS V14.01,2013-03-07 11:00:00,
2013-03-07 04:01:00,42.5,14.0,29.96,NE,45,0.7,0.9,31,0.00,,---,0.00,VWS V14.01,2013-03-07 11:01:00,
2013-03-07 04:02:00,38.0,14.7,29.97,NE,45,0.0,0.2,38,0.00,,---,0.00,VWS V14.01,2013-03-07 11:02:00,
2013-03-07 04:03:00,38.0,14.7,29.97,NE,45,0.0,0.0,38,0.00,,---,0.00,VWS V14.01,2013-03-07 11:03:00,
2013-03-07 04:04:00,38.0,14.7,29.97,NE,45,0.0,0.0,38,0.00,,---,0.00,VWS V14.01,2013-03-07 11:04:00,
2013-03-07 04:05:00,38.0,14.7,29.97,NE,45,0.4,0.4,38,0.00,,---,0.00,VWS V14.01,2013-03-07 11:05:00,
2013-03-07 04:06:00,42.7,14.2,29.96,NE,45,1.1,1.1,31,0.00,,---,0.00,VWS V14.01,2013-03-07 11:06:00,
2013-03-07 04:07:00,38.0,14.7,29.97,NE,45,0.4,0.9,38,0.00,,---,0.00,VWS V14.01,2013-03-07 11:07:00,
2013-03-07 04:08:00,38.0,14.7,29.97,NE,45,0.4,0.4,38,0.00,,---,0.00,VWS V14.01,2013-03-07 11:08:00,
2013-03-07 04:09:00,38.0,14.7,29.96,NE,45,0.7,0.7,38,0.00,,---,0.00,VWS V14.01,2013-03-07 11:09:00,
2013-03-07 04:10:00,38.0,14.7,29.97,NE,45,0.9,0.9,38,0.00,,---,0.00,VWS V14.01,2013-03-07 11:10:00,
2013-03-07 04:11:00,42.1,14.4,29.96,ENE,68,0.9,0.9,32,0.00,,---,0.00,VWS V14.01,2013-03-07 11:11:00,
2013-03-07 04:12:00,38.2,14.9,29.96,NE,45,0.9,0.9,38,0.00,,---,0.00,VWS V14.01,2013-03-07 11:12:00,
2013-03-07 04:13:00,38.3,14.9,29.97,NE,45,1.1,1.1,38,0.00,,---,0.00,VWS V14.01,2013-03-07 11:13:00,
2013-03-07 04:14:00,38.5,15.1,29.97,NE,45,0.4,1.1,38,0.00,,---,0.00,VWS V14.01,2013-03-07 11:14:00,
2013-03-07 04:15:00,38.7,15.3,29.97,NE,45,0.4,0.4,38,0.00,,---,0.00,VWS V14.01,2013-03-07 11:15:00,
2013-03-07 04:16:00,42.1,14.4,29.96,ENE,68,1.1,1.1,32,0.00,,---,0.00,VWS V14.01,2013-03-07 11:16:00,
2013-03-07 04:17:00,39.1,15.6,29.97,NE,45,1.1,1.1,38,0.00,,---,0.00,VWS V14.01,2013-03-07 11:17:00,
2013-03-07 04:18:00,39.2,15.7,29.97,NE,45,0.9,1.1,38,0.00,,---,0.00,VWS V14.01,2013-03-07 11:18:00,
2013-03-07 04:19:00,39.2,15.7,29.97,NE,45,0.9,0.9,38,0.00,,---,0.00,VWS V14.01,2013-03-07 11:19:00,
2013-03-07 04:20:00,39.4,15.9,29.97,NE,45,1.1,1.1,38,0.00,,---,0.00,VWS V14.01,2013-03-07 11:20:00,
2013-03-07 04:21:00,41.6,14.6,29.96,SW,225,1.8,1.8,33,0.00,,---,0.00,VWS V14.01,2013-03-07 11:21:00,
2013-03-07 04:22:00,39.6,15.5,29.97,East,90,0.0,0.9,37,0.00,,---,0.00,VWS V14.01,2013-03-07 11:22:00,
2013-03-07 04:23:00,39.4,15.3,29.97,East,90,0.0,0.0,37,0.00,,---,0.00,VWS V14.01,2013-03-07 11:23:00,
2013-03-07 04:24:00,39.4,15.3,29.97,East,90,0.2,0.2,37,0.00,,---,0.00,VWS V14.01,2013-03-07 11:24:00,
2013-03-07 04:25:00,39.2,15.7,29.97,East,90,0.7,0.7,38,0.00,,---,0.00,VWS V14.01,2013-03-07 11:25:00,
2013-03-07 04:26:00,40.7,13.9,29.96,WSW,248,0.0,0.0,33,0.00,,---,0.00,VWS V14.01,2013-03-07 11:26:00,
2013-03-07 04:27:00,39.2,15.1,29.97,East,90,0.0,0.4,37,0.00,,---,0.00,VWS V14.01,2013-03-07 11:27:00,
2013-03-07 04:28:00,38.9,14.9,29.97,East,90,0.0,0.0,37,0.00,,---,0.00,VWS V14.01,2013-03-07 11:28:00,
2013-03-07 04:29:00,38.9,14.9,29.97,East,90,0.0,0.0,37,0.00,,---,0.00,VWS V14.01,2013-03-07 11:29:00,
2013-03-07 04:30:00,38.7,14.7,29.97,East,90,0.0,0.0,37,0.00,,---,0.00,VWS V14.01,2013-03-07 11:30:00,
2013-03-07 04:31:00,40.3,13.5,29.96,NE,45,0.0,0.0,33,0.00,,---,0.00,VWS V14.01,2013-03-07 11:31:00,
2013-03-07 04:32:00,38.3,14.9,29.97,East,90,0.4,0.4,38,0.00,,---,0.00,VWS V14.01,2013-03-07 11:32:00,
2013-03-07 04:33:00,38.3,14.9,29.97,East,90,0.0,0.4,38,0.00,,---,0.00,VWS V14.01,2013-03-07 11:33:00,
2013-03-07 04:34:00,38.2,14.9,29.97,East,90,0.0,0.0,38,0.00,,---,0.00,VWS V14.01,2013-03-07 11:34:00,
2013-03-07 04:35:00,38.2,14.9,29.97,East,90,0.0,0.0,38,0.00,,---,0.00,VWS V14.01,2013-03-07 11:35:00,
2013-03-07 04:36:00,39.8,14.4,29.96,NE,45,0.0,0.0,35,0.00,,---,0.00,VWS V14.01,2013-03-07 11:36:00,
2013-03-07 04:37:00,38.0,15.3,29.97,ENE,68,1.1,1.1,39,0.00,,---,0.00,VWS V14.01,2013-03-07 11:37:00,
2013-03-07 04:38:00,38.0,15.3,29.97,ENE,68,0.2,1.1,39,0.00,,---,0.00,VWS V14.01,2013-03-07 11:38:00,
2013-03-07 04:39:00,38.0,14.7,29.97,ENE,68,0.0,0.2,38,0.00,,---,0.00,VWS V14.01,2013-03-07 11:39:00,
2013-03-07 04:40:00,38.0,15.3,29.97,South,180,0.4,0.4,39,0.00,,---,0.00,VWS V14.01,2013-03-07 11:40:00,
2013-03-07 04:41:00,39.2,14.5,29.96,NE,45,0.2,0.2,36,0.00,,---,0.00,VWS V14.01,2013-03-07 11:41:00,
2013-03-07 04:42:00,37.8,15.1,29.97,SE,135,0.4,0.7,39,0.00,,---,0.00,VWS V14.01,2013-03-07 11:42:00,
2013-03-07 04:43:00,37.8,15.7,29.97,East,90,2.5,2.5,40,0.00,,---,0.00,VWS V14.01,2013-03-07 11:43:00,
2013-03-07 04:44:00,38.2,16.0,29.97,ENE,68,3.1,3.1,40,0.00,,---,0.00,VWS V14.01,2013-03-07 11:44:00,
2013-03-07 04:45:00,38.3,15.5,29.97,ENE,68,1.1,3.1,39,0.00,,---,0.00,VWS V14.01,2013-03-07 11:45:00,
2013-03-07 04:46:00,39.1,14.4,29.96,NNE,22,0.0,0.0,36,0.00,,---,0.00,VWS V14.01,2013-03-07 11:46:00,
2013-03-07 04:47:00,38.7,15.9,29.97,ENE,68,0.4,0.4,39,0.00,,---,0.00,VWS V14.01,2013-03-07 11:47:00,
2013-03-07 04:48:00,38.7,15.3,29.97,ENE,68,1.3,1.3,38,0.00,,---,0.00,VWS V14.01,2013-03-07 11:48:00,
2013-03-07 04:49:00,38.5,15.1,29.97,ENE,68,0.7,1.3,38,0.00,,---,0.00,VWS V14.01,2013-03-07 11:49:00,
2013-03-07 04:50:00,38.5,15.1,29.97,ENE,68,0.2,0.7,38,0.00,,---,0.00,VWS V14.01,2013-03-07 11:50:00,
2013-03-07 04:51:00,38.5,13.2,29.96,NNE,22,0.0,0.0,35,0.00,,---,0.00,VWS V14.01,2013-03-07 11:51:00,
2013-03-07 04:52:00,38.3,14.9,29.97,ENE,68,0.0,0.0,38,0.00,,---,0.00,VWS V14.01,2013-03-07 11:52:00,
2013-03-07 04:53:00,38.2,14.9,29.97,ENE,68,0.0,0.0,38,0.00,,---,0.00,VWS V14.01,2013-03-07 11:53:00,
2013-03-07 04:54:00,37.8,15.1,29.97,ENE,68,0.0,0.0,39,0.00,,---,0.00,VWS V14.01,2013-03-07 11:54:00,
2013-03-07 04:55:00,37.8,14.5,29.97,ENE,68,0.0,0.0,38,0.00,,---,0.00,VWS V14.01,2013-03-07 11:55:00,
2013-03-07 04:56:00,38.2,14.2,29.96,NNE,22,0.0,0.0,37,0.00,,---,0.00,VWS V14.01,2013-03-07 11:56:00,
2013-03-07 04:57:00,37.3,14.6,29.97,ENE,68,0.0,0.0,39,0.00,,---,0.00,VWS V14.01,2013-03-07 11:57:00,
2013-03-07 04:58:00,37.1,14.4,29.97,ENE,68,0.0,0.0,39,0.00,,---,0.00,VWS V14.01,2013-03-07 11:58:00,
2013-03-07 04:59:00,37.1,14.4,29.97,ENE,68,0.0,0.0,39,0.00,,---,0.00,VWS V14.01,2013-03-07 11:59:00,
2013-03-07 05:00:00,36.9,14.3,29.97,ENE,68,0.0,0.0,39,0.00,,---,0.00,VWS V14.01,2013-03-07 12:00:00,
2013-03-07 05:01:00,38.0,14.7,29.96,NE,45,0.2,0.2,38,0.00,,---,0.00,VWS V14.01,2013-03-07 12:01:00,
2013-03-07 05:02:00,36.7,16.3,29.97,ENE,68,1.8,1.8,43,0.00,,---,0.00,VWS V14.01,2013-03-07 12:02:00,
2013-03-07 05:03:00,36.7,16.3,29.97,ENE,68,1.3,1.8,43,0.00,,---,0.00,VWS V14.01,2013-03-07 12:03:00,
2013-03-07 05:04:00,36.9,16.5,29.97,ENE,68,0.9,1.3,43,0.00,,---,0.00,VWS V14.01,2013-03-07 12:04:00,
2013-03-07 05:05:00,36.9,16.0,29.97,ENE,68,0.0,0.9,42,0.00,,---,0.00,VWS V14.01,2013-03-07 12:05:00,
2013-03-07 05:06:00,38.0,14.7,29.97,NE,45,0.4,0.4,38,0.00,,---,0.00,VWS V14.01,2013-03-07 12:06:00,
2013-03-07 05:07:00,36.9,16.0,29.97,East,90,0.4,0.4,42,0.00,,---,0.00,VWS V14.01,2013-03-07 12:07:00,
2013-03-07 05:08:00,36.9,16.5,29.97,East,90,0.4,0.4,43,0.00,,---,0.00,VWS V14.01,2013-03-07 12:08:00,
2013-03-07 05:09:00,37.1,16.1,29.97,ESE,112,0.4,0.4,42,0.00,,---,0.00,VWS V14.01,2013-03-07 12:09:00,
2013-03-07 05:10:00,37.1,16.1,29.97,ESE,112,0.0,0.4,42,0.00,,---,0.00,VWS V14.01,2013-03-07 12:10:00,
2013-03-07 05:11:00,38.0,14.7,29.97,NE,45,0.9,0.9,38,0.00,,---,0.00,VWS V14.01,2013-03-07 12:11:00,
2013-03-07 05:12:00,36.9,15.4,29.97,ESE,112,0.0,0.0,41,0.00,,---,0.00,VWS V14.01,2013-03-07 12:12:00,
2013-03-07 05:13:00,36.9,15.4,29.97,East,90,1.1,1.1,41,0.00,,---,0.00,VWS V14.01,2013-03-07 12:13:00,
2013-03-07 05:14:00,36.9,15.4,29.97,NE,45,2.2,2.2,41,0.00,,---,0.00,VWS V14.01,2013-03-07 12:14:00,
2013-03-07 05:15:00,37.1,15.6,29.97,NE,45,0.9,2.2,41,0.00,,---,0.00,VWS V14.01,2013-03-07 12:15:00,
2013-03-07 05:16:00,38.7,15.3,29.97,NE,45,0.4,0.4,38,0.00,,---,0.00,VWS V14.01,2013-03-07 12:16:00,
2013-03-07 05:17:00,37.1,16.1,29.97,WNW,292,0.2,0.2,42,0.00,,---,0.00,VWS V14.01,2013-03-07 12:17:00,
2013-03-07 05:18:00,37.1,15.6,29.97,WNW,292,0.0,0.2,41,0.00,,---,0.00,VWS V14.01,2013-03-07 12:18:00,
2013-03-07 05:19:00,37.1,16.1,29.97,NNE,22,0.2,0.2,42,0.00,,---,0.00,VWS V14.01,2013-03-07 12:19:00,
2013-03-07 05:20:00,36.9,15.4,29.97,NNE,22,0.0,0.2,41,0.00,,---,0.00,VWS V14.01,2013-03-07 12:20:00,
2013-03-07 05:21:00,39.6,16.1,29.97,ENE,68,0.9,1.1,38,0.00,,---,0.00,VWS V14.01,2013-03-07 12:21:00,
2013-03-07 05:22:00,36.7,15.2,29.98,NNE,22,0.0,0.0,41,0.00,,---,0.00,VWS V14.01,2013-03-07 12:22:00,
2013-03-07 05:23:00,36.5,15.6,29.97,NNE,22,0.0,0.0,42,0.00,,---,0.00,VWS V14.01,2013-03-07 12:23:00,
2013-03-07 05:24:00,36.4,15.5,29.98,NNE,22,0.0,0.0,42,0.00,,---,0.00,VWS V14.01,2013-03-07 12:24:00,
2013-03-07 05:25:00,36.4,15.5,29.98,NNE,22,0.0,0.0,42,0.00,,---,0.00,VWS V14.01,2013-03-07 12:25:00,
2013-03-07 05:26:00,39.2,15.7,29.97,East,90,0.7,0.7,38,0.00,,---,0.00,VWS V14.01,2013-03-07 12:26:00,
2013-03-07 05:27:00,36.0,14.6,29.98,NNE,22,0.0,0.0,41,0.00,,---,0.00,VWS V14.01,2013-03-07 12:27:00,
2013-03-07 05:28:00,36.0,14.6,29.98,NNE,22,0.0,0.0,41,0.00,,---,0.00,VWS V14.01,2013-03-07 12:28:00,
2013-03-07 05:29:00,35.8,15.0,29.98,NNE,22,0.0,0.0,42,0.00,,---,0.00,VWS V14.01,2013-03-07 12:29:00,
2013-03-07 05:30:00,35.6,14.2,29.98,NNE,22,0.0,0.0,41,0.00,,---,0.00,VWS V14.01,2013-03-07 12:30:00,
2013-03-07 05:31:00,38.7,14.7,29.97,East,90,0.0,0.0,37,0.00,,---,0.00,VWS V14.01,2013-03-07 12:31:00,
2013-03-07 05:32:00,35.5,14.1,29.98,NNW,338,0.0,0.0,41,0.00,,---,0.00,VWS V14.01,2013-03-07 12:32:00,
2013-03-07 05:33:00,35.5,14.1,29.98,NNW,338,0.0,0.0,41,0.00,,---,0.00,VWS V14.01,2013-03-07 12:33:00,
2013-03-07 05:34:00,35.5,14.7,29.98,NNW,338,0.0,0.0,42,0.00,,---,0.00,VWS V14.01,2013-03-07 12:34:00,
2013-03-07 05:35:00,35.6,14.8,29.98,NNW,338,0.0,0.0,42,0.00,,---,0.00,VWS V14.01,2013-03-07 12:35:00,
2013-03-07 05:36:00,38.2,14.8,29.97,East,90,0.0,0.0,38,0.00,,---,0.00,VWS V14.01,2013-03-07 12:36:00,
2013-03-07 05:37:00,35.6,15.9,29.98,ESE,112,0.7,0.7,44,0.00,,---,0.00,VWS V14.01,2013-03-07 12:37:00,
2013-03-07 05:38:00,36.0,16.2,29.98,ESE,112,0.7,0.7,44,0.00,,---,0.00,VWS V14.01,2013-03-07 12:38:00,
2013-03-07 05:39:00,36.2,16.9,29.98,ESE,112,0.4,0.7,45,0.00,,---,0.00,VWS V14.01,2013-03-07 12:39:00,
2013-03-07 05:40:00,36.4,16.6,29.98,ESE,112,0.9,0.9,44,0.00,,---,0.00,VWS V14.01,2013-03-07 12:40:00,
2013-03-07 05:41:00,38.0,15.3,29.97,South,180,0.4,0.4,39,0.00,,---,0.00,VWS V14.01,2013-03-07 12:41:00,
2013-03-07 05:42:00,36.5,16.7,29.98,SW,225,0.2,0.9,44,0.00,,---,0.00,VWS V14.01,2013-03-07 12:42:00,
2013-03-07 05:43:00,36.7,16.9,29.98,SW,225,1.6,1.6,44,0.00,,---,0.00,VWS V14.01,2013-03-07 12:43:00,
2013-03-07 05:44:00,36.5,16.7,29.98,SSW,202,0.2,1.6,44,0.00,,---,0.00,VWS V14.01,2013-03-07 12:44:00,
2013-03-07 05:45:00,36.5,16.7,29.98,East,90,1.1,1.1,44,0.00,,---,0.00,VWS V14.01,2013-03-07 12:45:00,
2013-03-07 05:46:00,38.3,15.5,29.97,ENE,68,1.1,1.1,39,0.00,,---,0.00,VWS V14.01,2013-03-07 12:46:00,
2013-03-07 05:47:00,36.5,16.7,29.98,East,90,0.4,0.4,44,0.00,,---,0.00,VWS V14.01,2013-03-07 12:47:00,
2013-03-07 05:48:00,36.5,16.7,29.98,East,90,0.9,0.9,44,0.00,,---,0.00,VWS V14.01,2013-03-07 12:48:00,
2013-03-07 05:49:00,36.5,16.7,29.98,East,90,0.7,0.9,44,0.00,,---,0.00,VWS V14.01,2013-03-07 12:49:00,
2013-03-07 05:50:00,36.5,16.7,29.98,East,90,0.0,0.7,44,0.00,,---,0.00,VWS V14.01,2013-03-07 12:50:00,
2013-03-07 05:51:00,38.5,15.1,29.97,ENE,68,0.2,0.2,38,0.00,,---,0.00,VWS V14.01,2013-03-07 12:51:00,
2013-03-07 05:52:00,36.5,16.1,29.98,East,90,0.0,0.0,43,0.00,,---,0.00,VWS V14.01,2013-03-07 12:52:00,
2013-03-07 05:53:00,36.4,16.0,29.98,East,90,0.0,0.0,43,0.00,,---,0.00,VWS V14.01,2013-03-07 12:53:00,
2013-03-07 05:54:00,36.4,16.0,29.98,East,90,0.0,0.0,43,0.00,,---,0.00,VWS V14.01,2013-03-07 12:54:00,
2013-03-07 05:55:00,36.4,16.0,29.98,East,90,0.0,0.0,43,0.00,,---,0.00,VWS V14.01,2013-03-07 12:55:00,
2013-03-07 05:56:00,37.8,14.5,29.97,ENE,68,0.0,0.0,38,0.00,,---,0.00,VWS V14.01,2013-03-07 12:56:00,
2013-03-07 05:57:00,36.5,16.1,29.98,NNE,22,0.7,0.7,43,0.00,,---,0.00,VWS V14.01,2013-03-07 12:57:00,
2013-03-07 05:58:00,36.5,16.1,29.98,NNE,22,0.7,0.7,43,0.00,,---,0.00,VWS V14.01,2013-03-07 12:58:00,
2013-03-07 05:59:00,36.7,16.3,29.98,NNE,22,0.4,0.7,43,0.00,,---,0.00,VWS V14.01,2013-03-07 12:59:00,
2013-03-07 06:00:00,36.7,16.3,29.98,NNE,22,0.2,0.4,43,0.00,,---,0.00,VWS V14.01,2013-03-07 13:00:00,
2013-03-07 06:01:00,36.7,14.7,29.97,ENE,68,0.0,0.0,40,0.00,,---,0.00,VWS V14.01,2013-03-07 13:01:00,
2013-03-07 06:02:00,36.9,16.5,29.98,NNE,22,0.2,0.2,43,0.00,,---,0.00,VWS V14.01,2013-03-07 13:02:00,
2013-03-07 06:03:00,37.1,16.7,29.98,NNE,22,0.9,0.9,43,0.00,,---,0.00,VWS V14.01,2013-03-07 13:03:00,
2013-03-07 06:04:00,37.3,16.9,29.98,NE,45,2.0,2.0,43,0.00,,---,0.00,VWS V14.01,2013-03-07 13:04:00,
2013-03-07 06:05:00,37.4,17.0,29.98,NE,45,0.7,2.0,43,0.00,,---,0.00,VWS V14.01,2013-03-07 13:05:00,
2013-03-07 06:06:00,36.9,16.0,29.97,East,90,0.0,0.0,42,0.00,,---,0.00,VWS V14.01,2013-03-07 13:06:00,
2013-03-07 06:07:00,38.0,17.5,29.98,NE,45,0.2,0.7,43,0.00,,---,0.00,VWS V14.01,2013-03-07 13:07:00,
2013-03-07 06:08:00,38.2,17.1,29.98,NE,45,0.0,0.2,42,0.00,,---,0.00,VWS V14.01,2013-03-07 13:08:00,
2013-03-07 06:09:00,38.2,17.1,29.98,NE,45,0.0,0.0,42,0.00,,---,0.00,VWS V14.01,2013-03-07 13:09:00,
2013-03-07 06:10:00,38.3,17.2,29.98,NE,45,0.2,0.2,42,0.00,,---,0.00,VWS V14.01,2013-03-07 13:10:00,
2013-03-07 06:11:00,37.1,15.6,29.97,ESE,112,0.0,0.0,41,0.00,,---,0.00,VWS V14.01,2013-03-07 13:11:00,
2013-03-07 06:12:00,38.5,16.9,29.98,NE,45,0.4,0.4,41,0.00,,---,0.00,VWS V14.01,2013-03-07 13:12:00,
2013-03-07 06:13:00,38.7,17.0,29.98,NE,45,0.7,0.7,41,0.00,,---,0.00,VWS V14.01,2013-03-07 13:13:00,
2013-03-07 06:14:00,38.7,17.0,29.98,NNE,22,0.9,0.9,41,0.00,,---,0.00,VWS V14.01,2013-03-07 13:14:00,
2013-03-07 06:15:00,38.9,17.2,29.98,NNE,22,0.9,0.9,41,0.00,,---,0.00,VWS V14.01,2013-03-07 13:15:00,
2013-03-07 06:16:00,37.1,15.6,29.97,North,0,0.2,0.2,41,0.00,,---,0.00,VWS V14.01,2013-03-07 13:16:00,
2013-03-07 06:17:00,39.4,17.7,29.98,NNE,22,0.4,0.4,41,0.00,,---,0.00,VWS V14.01,2013-03-07 13:17:00,
2013-03-07 06:18:00,40.0,18.2,29.99,NNE,22,0.2,0.4,41,0.00,,---,0.00,VWS V14.01,2013-03-07 13:18:00,
2013-03-07 06:19:00,40.3,18.5,29.99,NNE,22,0.0,0.2,41,0.00,,---,0.00,VWS V14.01,2013-03-07 13:19:00,
2013-03-07 06:20:00,40.9,19.0,29.99,NNE,22,0.0,0.0,41,0.00,,---,0.00,VWS V14.01,2013-03-07 13:20:00,
2013-03-07 06:21:00,36.9,15.4,29.97,NNE,22,0.0,0.0,41,0.00,,---,0.00,VWS V14.01,2013-03-07 13:21:00,
2013-03-07 06:22:00,41.6,18.5,29.99,NE,45,0.4,0.4,39,0.00,,---,0.00,VWS V14.01,2013-03-07 13:22:00,
2013-03-07 06:23:00,42.1,18.3,29.99,NE,45,0.4,0.4,38,0.00,,---,0.00,VWS V14.01,2013-03-07 13:23:00,
2013-03-07 06:24:00,42.3,18.5,29.99,NE,45,0.7,0.7,38,0.00,,---,0.00,VWS V14.01,2013-03-07 13:24:00,
2013-03-07 06:25:00,42.7,18.3,29.99,NE,45,0.7,0.7,37,0.00,,---,0.00,VWS V14.01,2013-03-07 13:25:00,
2013-03-07 06:26:00,36.2,15.3,29.98,NNE,22,0.0,0.0,42,0.00,,---,0.00,VWS V14.01,2013-03-07 13:26:00,
2013-03-07 06:27:00,43.2,18.1,29.99,ENE,68,0.4,1.1,36,0.00,,---,0.00,VWS V14.01,2013-03-07 13:27:00,
2013-03-07 06:28:00,43.2,18.1,29.99,ENE,68,0.7,0.7,36,0.00,,---,0.00,VWS V14.01,2013-03-07 13:28:00,
2013-03-07 06:29:00,43.4,18.2,29.99,ENE,68,0.0,0.7,36,0.00,,---,0.00,VWS V14.01,2013-03-07 13:29:00,
2013-03-07 06:30:00,43.7,19.1,29.99,ENE,68,0.0,0.0,37,0.00,,---,0.00,VWS V14.01,2013-03-07 13:30:00,
2013-03-07 06:31:00,35.6,14.8,29.98,NNW,338,0.0,0.0,42,0.00,,---,0.00,VWS V14.01,2013-03-07 13:31:00,
2013-03-07 06:32:00,44.3,19.7,29.99,ENE,68,0.4,0.4,37,0.00,,---,0.00,VWS V14.01,2013-03-07 13:32:00,
2013-03-07 06:33:00,44.6,19.3,29.99,ENE,68,1.6,1.6,36,0.00,,---,0.00,VWS V14.01,2013-03-07 13:33:00,
2013-03-07 06:34:00,45.0,19.7,29.99,NE,45,1.8,1.8,36,0.00,,---,0.00,VWS V14.01,2013-03-07 13:34:00,
2013-03-07 06:35:00,45.4,19.4,29.99,NE,45,1.1,1.8,35,0.00,,---,0.00,VWS V14.01,2013-03-07 13:35:00,
2013-03-07 06:36:00,35.6,15.3,29.98,NNE,22,0.2,0.2,43,0.00,,---,0.00,VWS V14.01,2013-03-07 13:36:00,
2013-03-07 06:37:00,45.9,18.4,29.99,ENE,68,0.0,0.9,33,0.00,,---,0.00,VWS V14.01,2013-03-07 13:37:00,
2013-03-07 06:38:00,45.9,18.4,29.99,ENE,68,0.0,0.0,33,0.00,,---,0.00,VWS V14.01,2013-03-07 13:38:00,
2013-03-07 06:39:00,46.1,18.6,29.99,ENE,68,0.4,0.4,33,0.00,,---,0.00,VWS V14.01,2013-03-07 13:39:00,
2013-03-07 06:40:00,46.1,19.3,29.99,ESE,112,0.0,0.4,34,0.00,,---,0.00,VWS V14.01,2013-03-07 13:40:00,
2013-03-07 06:41:00,36.4,16.6,29.98,ESE,112,0.9,0.9,44,0.00,,---,0.00,VWS V14.01,2013-03-07 13:41:00,
2013-03-07 06:42:00,46.4,18.9,30.00,ESE,112,0.0,0.0,33,0.00,,---,0.00,VWS V14.01,2013-03-07 13:42:00,
2013-03-07 06:43:00,46.8,19.9,30.00,ESE,112,0.0,0.0,34,0.00,,---,0.00,VWS V14.01,2013-03-07 13:43:00,
2013-03-07 06:44:00,47.2,21.6,30.00,ESE,112,0.2,0.2,36,0.00,,---,0.00,VWS V14.01,2013-03-07 13:44:00,
2013-03-07 06:45:00,48.1,22.4,29.99,ESE,112,0.0,0.2,36,0.00,,---,0.00,VWS V14.01,2013-03-07 13:45:00,
2013-03-07 06:46:00,36.5,16.7,29.98,East,90,0.4,1.1,44,0.00,,---,0.00,VWS V14.01,2013-03-07 13:46:00,
2013-03-07 06:47:00,49.5,22.3,29.99,ESE,112,0.0,0.0,34,0.00,,---,0.00,VWS V14.01,2013-03-07 13:47:00,
2013-03-07 06:48:00,50.0,22.8,30.00,ESE,112,0.0,0.0,34,0.00,,---,0.00,VWS V14.01,2013-03-07 13:48:00,
2013-03-07 06:49:00,50.6,23.3,30.00,ESE,112,0.0,0.0,34,0.00,,---,0.00,VWS V14.01,2013-03-07 13:49:00,
2013-03-07 06:50:00,50.9,22.8,30.00,ESE,112,0.0,0.0,33,0.00,,---,0.00,VWS V14.01,2013-03-07 13:50:00,
2013-03-07 06:51:00,36.5,16.7,29.98,East,90,0.0,0.0,44,0.00,,---,0.00,VWS V14.01,2013-03-07 13:51:00,
2013-03-07 06:52:00,52.2,24.0,30.00,ESE,112,0.0,0.0,33,0.00,,---,0.00,VWS V14.01,2013-03-07 13:52:00,
2013-03-07 06:53:00,52.4,24.2,30.00,ESE,112,0.0,0.0,33,0.00,,---,0.00,VWS V14.01,2013-03-07 13:53:00,
2013-03-07 06:54:00,52.9,23.9,30.00,ESE,112,0.0,0.0,32,0.00,,---,0.00,VWS V14.01,2013-03-07 13:54:00,
2013-03-07 06:55:00,53.5,23.6,30.00,ESE,112,0.0,0.0,31,0.00,,---,0.00,VWS V14.01,2013-03-07 13:55:00,
2013-03-07 06:56:00,36.4,16.0,29.98,East,90,0.0,0.0,43,0.00,,---,0.00,VWS V14.01,2013-03-07 13:56:00,
2013-03-07 06:57:00,54.9,24.9,30.00,ESE,112,0.0,0.0,31,0.00,,---,0.00,VWS V14.01,2013-03-07 13:57:00,
2013-03-07 06:58:00,55.6,24.7,30.00,ESE,112,0.0,0.0,30,0.00,,---,0.00,VWS V14.01,2013-03-07 13:58:00,
2013-03-07 06:59:00,56.0,21.6,30.00,SSW,202,1.1,1.1,26,0.00,,---,0.00,VWS V14.01,2013-03-07 13:59:00,
2013-03-07 07:00:00,56.0,19.7,30.00,SW,225,2.0,2.0,24,0.00,,---,0.00,VWS V14.01,2013-03-07 14:00:00,
2013-03-07 07:01:00,36.7,16.3,29.98,NNE,22,0.0,0.0,43,0.00,,---,0.00,VWS V14.01,2013-03-07 14:01:00,
2013-03-07 07:02:00,54.4,19.3,30.00,SW,225,1.3,2.0,25,0.00,,---,0.00,VWS V14.01,2013-03-07 14:02:00,
2013-03-07 07:03:00,53.6,20.5,30.00,WNW,292,1.3,1.3,27,0.00,,---,0.00,VWS V14.01,2013-03-07 14:03:00,
2013-03-07 07:04:00,53.3,20.2,30.00,WNW,292,1.1,1.3,27,0.00,,---,0.00,VWS V14.01,2013-03-07 14:04:00,
2013-03-07 07:05:00,52.9,19.9,30.00,NW,315,2.5,2.5,27,0.00,,---,0.00,VWS V14.01,2013-03-07 14:05:00,
2013-03-07 07:06:00,37.8,17.3,29.98,NE,45,0.7,0.7,43,0.00,,---,0.00,VWS V14.01,2013-03-07 14:06:00,
2013-03-07 07:07:00,52.2,20.1,30.00,West,270,0.9,2.7,28,0.00,,---,0.00,VWS V14.01,2013-03-07 14:07:00,
2013-03-07 07:08:00,52.2,20.1,30.00,West,270,1.8,1.8,28,0.00,,---,0.00,VWS V14.01,2013-03-07 14:08:00,
2013-03-07 07:09:00,51.8,19.8,30.00,West,270,2.5,2.5,28,0.00,,---,0.00,VWS V14.01,2013-03-07 14:09:00,
2013-03-07 07:10:00,51.5,20.3,30.00,WNW,292,2.5,2.5,29,0.00,,---,0.00,VWS V14.01,2013-03-07 14:10:00,
2013-03-07 07:11:00,38.5,16.9,29.98,NE,45,0.4,0.4,41,0.00,,---,0.00,VWS V14.01,2013-03-07 14:11:00,
2013-03-07 07:12:00,50.9,19.8,30.00,West,270,2.0,2.7,29,0.00,,---,0.00,VWS V14.01,2013-03-07 14:12:00,
2013-03-07 07:13:00,50.8,19.7,30.00,WSW,248,2.2,2.2,29,0.00,,---,0.00,VWS V14.01,2013-03-07 14:13:00,
2013-03-07 07:14:00,50.6,20.3,30.00,WNW,292,1.8,2.2,30,0.00,,---,0.00,VWS V14.01,2013-03-07 14:14:00,
2013-03-07 07:15:00,50.4,20.1,30.00,NNW,338,1.1,1.8,30,0.00,,---,0.00,VWS V14.01,2013-03-07 14:15:00,
2013-03-07 07:16:00,39.1,17.4,29.98,NNE,22,0.4,0.4,41,0.00,,---,0.00,VWS V14.01,2013-03-07 14:16:00,
2013-03-07 07:17:00,50.9,20.6,30.00,WSW,248,0.9,0.9,30,0.00,,---,0.00,VWS V14.01,2013-03-07 14:17:00,
2013-03-07 07:18:00,50.9,20.6,30.00,WSW,248,0.9,0.9,30,0.00,,---,0.00,VWS V14.01,2013-03-07 14:18:00,
2013-03-07 07:19:00,50.9,19.8,30.00,SW,225,1.3,1.3,29,0.00,,---,0.00,VWS V14.01,2013-03-07 14:19:00,
2013-03-07 07:20:00,50.9,19.8,30.00,SW,225,1.1,1.3,29,0.00,,---,0.00,VWS V14.01,2013-03-07 14:20:00,
2013-03-07 07:21:00,41.2,18.7,29.99,NNE,22,0.4,0.4,40,0.00,,---,0.00,VWS V14.01,2013-03-07 14:21:00,
2013-03-07 07:22:00,51.1,20.8,30.01,SSW,202,0.4,0.4,30,0.00,,---,0.00,VWS V14.01,2013-03-07 14:22:00,
2013-03-07 07:23:00,51.3,20.9,30.01,SSW,202,0.0,0.4,30,0.00,,---,0.00,VWS V14.01,2013-03-07 14:23:00,
2013-03-07 07:24:00,51.7,22.1,30.00,SSW,202,0.0,0.0,31,0.00,,---,0.00,VWS V14.01,2013-03-07 14:24:00,
2013-03-07 07:25:00,52.2,22.5,30.00,SSW,202,0.0,0.0,31,0.00,,---,0.00,VWS V14.01,2013-03-07 14:25:00,
2013-03-07 07:26:00,42.8,18.4,29.99,ENE,68,1.1,1.1,37,0.00,,---,0.00,VWS V14.01,2013-03-07 14:26:00,
2013-03-07 07:27:00,53.1,22.5,30.00,West,270,0.9,0.9,30,0.00,,---,0.00,VWS V14.01,2013-03-07 14:27:00,
2013-03-07 07:28:00,53.6,22.1,30.00,West,270,0.4,0.9,29,0.00,,---,0.00,VWS V14.01,2013-03-07 14:28:00,
2013-03-07 07:29:00,53.6,22.1,30.01,West,270,0.0,0.4,29,0.00,,---,0.00,VWS V14.01,2013-03-07 14:29:00,
2013-03-07 07:30:00,54.0,21.6,30.01,West,270,0.2,0.2,28,0.00,,---,0.00,VWS V14.01,2013-03-07 14:30:00,
2013-03-07 07:31:00,43.9,19.3,29.99,ENE,68,0.0,0.0,37,0.00,,---,0.00,VWS V14.01,2013-03-07 14:31:00,
2013-03-07 07:32:00,54.4,22.0,30.01,West,270,2.2,2.2,28,0.00,,---,0.00,VWS V14.01,2013-03-07 14:32:00,
2013-03-07 07:33:00,54.0,20.8,30.01,WSW,248,2.5,2.5,27,0.00,,---,0.00,VWS V14.01,2013-03-07 14:33:00,
2013-03-07 07:34:00,53.6,20.5,30.01,WSW,248,1.6,2.5,27,0.00,,---,0.00,VWS V14.01,2013-03-07 14:34:00,
2013-03-07 07:35:00,53.3,21.0,30.01,WSW,248,0.9,1.6,28,0.00,,---,0.00,VWS V14.01,2013-03-07 14:35:00,
2013-03-07 07:36:00,45.7,18.3,29.99,ENE,68,0.9,0.9,33,0.00,,---,0.00,VWS V14.01,2013-03-07 14:36:00,
2013-03-07 07:37:00,53.3,21.0,30.01,NW,315,2.0,2.0,28,0.00,,---,0.00,VWS V14.01,2013-03-07 14:37:00,
2013-03-07 07:38:00,53.3,21.0,30.01,WNW,292,2.5,2.5,28,0.00,,---,0.00,VWS V14.01,2013-03-07 14:38:00,
2013-03-07 07:39:00,53.5,21.2,30.01,West,270,1.8,2.5,28,0.00,,---,0.00,VWS V14.01,2013-03-07 14:39:00,
2013-03-07 07:40:00,53.5,20.4,30.01,SW,225,2.0,2.0,27,0.00,,---,0.00,VWS V14.01,2013-03-07 14:40:00,
2013-03-07 07:41:00,46.3,18.8,29.99,ESE,112,0.0,0.0,33,0.00,,---,0.00,VWS V14.01,2013-03-07 14:41:00,
2013-03-07 07:42:00,53.3,20.2,30.01,West,270,1.1,1.1,27,0.00,,---,0.00,VWS V14.01,2013-03-07 14:42:00,
2013-03-07 07:43:00,53.5,20.4,30.01,SW,225,0.7,1.1,27,0.00,,---,0.00,VWS V14.01,2013-03-07 14:43:00,
2013-03-07 07:44:00,53.5,20.4,30.01,SW,225,2.0,2.0,27,0.00,,---,0.00,VWS V14.01,2013-03-07 14:44:00,
2013-03-07 07:45:00,53.5,21.2,30.01,West,270,1.3,2.0,28,0.00,,---,0.00,VWS V14.01,2013-03-07 14:45:00,
2013-03-07 07:46:00,48.8,21.7,30.00,ESE,112,0.0,0.0,34,0.00,,---,0.00,VWS V14.01,2013-03-07 14:46:00,
2013-03-07 07:47:00,53.5,20.4,30.00,WSW,248,0.9,0.9,27,0.00,,---,0.00,VWS V14.01,2013-03-07 14:47:00,
2013-03-07 07:48:00,53.5,20.4,30.01,West,270,2.5,2.5,27,0.00,,---,0.00,VWS V14.01,2013-03-07 14:48:00,
2013-03-07 07:49:00,53.6,20.5,30.01,WSW,248,0.7,2.5,27,0.00,,---,0.00,VWS V14.01,2013-03-07 14:49:00,
2013-03-07 07:50:00,53.6,20.5,30.01,West,270,1.6,1.6,27,0.00,,---,0.00,VWS V14.01,2013-03-07 14:50:00,
2013-03-07 07:51:00,50.9,22.8,30.00,ESE,112,0.0,0.0,33,0.00,,---,0.00,VWS V14.01,2013-03-07 14:51:00,
2013-03-07 07:52:00,54.0,21.6,30.01,West,270,0.9,0.9,28,0.00,,---,0.00,VWS V14.01,2013-03-07 14:52:00,
2013-03-07 07:53:00,54.4,21.1,30.01,West,270,1.1,1.1,27,0.00,,---,0.00,VWS V14.01,2013-03-07 14:53:00,
2013-03-07 07:54:00,54.7,22.2,30.01,West,270,0.0,1.1,28,0.00,,---,0.00,VWS V14.01,2013-03-07 14:54:00,
2013-03-07 07:55:00,55.1,20.9,30.01,SW,225,0.9,0.9,26,0.00,,---,0.00,VWS V14.01,2013-03-07 14:55:00,
2013-03-07 07:56:00,53.5,23.6,30.00,ESE,112,0.0,0.0,31,0.00,,---,0.00,VWS V14.01,2013-03-07 14:56:00,
2013-03-07 07:59:00,56.7,23.1,30.01,West,270,0.4,0.7,27,0.00,,---,0.00,VWS V14.01,2013-03-07 14:59:00,
2013-03-07 08:00:00,56.7,23.1,30.01,West,270,0.4,0.4,27,0.00,,---,0.00,VWS V14.01,2013-03-07 15:00:00,
2013-03-07 08:01:00,55.1,19.0,30.00,SW,225,2.0,2.0,24,0.00,,---,0.00,VWS V14.01,2013-03-07 15:01:00,
2013-03-07 08:02:00,58.1,24.3,30.01,West,270,0.2,0.2,27,0.00,,---,0.00,VWS V14.01,2013-03-07 15:02:00,
2013-03-07 08:04:00,59.4,22.6,30.01,West,270,0.4,1.1,24,0.00,,---,0.00,VWS V14.01,2013-03-07 15:04:00,
2013-03-07 08:05:00,59.4,22.6,30.01,West,270,1.1,1.1,24,0.00,,---,0.00,VWS V14.01,2013-03-07 15:05:00,
2013-03-07 08:06:00,52.7,19.7,30.00,WNW,292,2.7,2.7,27,0.00,,---,0.00,VWS V14.01,2013-03-07 15:06:00,
2013-03-07 08:07:00,59.4,20.6,30.01,SW,225,0.7,0.7,22,0.00,,---,0.00,VWS V14.01,2013-03-07 15:07:00,
2013-03-07 08:08:00,59.0,20.2,30.01,SW,225,0.4,0.7,22,0.00,,---,0.00,VWS V14.01,2013-03-07 15:08:00,
2013-03-07 08:09:00,58.7,20.0,30.01,WSW,248,1.8,1.8,22,0.00,,---,0.00,VWS V14.01,2013-03-07 15:09:00,
2013-03-07 08:10:00,58.7,21.0,30.01,West,270,1.6,1.8,23,0.00,,---,0.00,VWS V14.01,2013-03-07 15:10:00,
2013-03-07 08:11:00,51.1,20.0,30.00,NW,315,2.7,2.7,29,0.00,,---,0.00,VWS V14.01,2013-03-07 15:11:00,
2013-03-07 08:12:00,58.3,20.7,30.01,West,270,0.2,0.7,23,0.00,,---,0.00,VWS V14.01,2013-03-07 15:12:00,
2013-03-07 08:13:00,58.5,19.8,30.01,SW,225,1.3,1.3,22,0.00,,---,0.00,VWS V14.01,2013-03-07 15:13:00,
2013-03-07 08:14:00,58.3,19.6,30.01,SSW,202,1.3,1.3,22,0.00,,---,0.00,VWS V14.01,2013-03-07 15:14:00,
2013-03-07 08:15:00,58.0,19.4,30.01,SSW,202,0.9,1.3,22,0.00,,---,0.00,VWS V14.01,2013-03-07 15:15:00,
2013-03-07 08:16:00,50.6,20.3,30.00,NW,315,0.2,0.2,30,0.00,,---,0.00,VWS V14.01,2013-03-07 15:16:00,
2013-03-07 08:17:00,57.6,20.1,30.01,West,270,1.1,1.1,23,0.00,,---,0.00,VWS V14.01,2013-03-07 15:17:00,
2013-03-07 08:18:00,57.6,20.1,30.01,WSW,248,0.0,1.1,23,0.00,,---,0.00,VWS V14.01,2013-03-07 15:18:00,
2013-03-07 08:19:00,58.0,19.4,30.01,SW,225,0.4,0.4,22,0.00,,---,0.00,VWS V14.01,2013-03-07 15:19:00,
2013-03-07 08:20:00,58.0,19.4,30.01,SSW,202,0.4,0.4,22,0.00,,---,0.00,VWS V14.01,2013-03-07 15:20:00,
2013-03-07 08:21:00,50.9,20.6,30.00,SW,225,0.0,0.0,30,0.00,,---,0.00,VWS V14.01,2013-03-07 15:21:00,
2013-03-07 08:22:00,58.3,20.7,30.01,West,270,1.8,2.5,23,0.00,,---,0.00,VWS V14.01,2013-03-07 15:22:00,
2013-03-07 08:23:00,58.5,19.8,30.01,WSW,248,1.8,1.8,22,0.00,,---,0.00,VWS V14.01,2013-03-07 15:23:00,
2013-03-07 08:24:00,58.5,19.8,30.01,West,270,2.2,2.2,22,0.00,,---,0.00,VWS V14.01,2013-03-07 15:24:00,
2013-03-07 08:25:00,58.3,19.6,30.01,SW,225,2.2,2.2,22,0.00,,---,0.00,VWS V14.01,2013-03-07 15:25:00,
2013-03-07 08:26:00,52.7,22.9,30.01,SW,225,0.4,0.4,31,0.00,,---,0.00,VWS V14.01,2013-03-07 15:26:00,
2013-03-07 08:27:00,58.0,19.4,30.01,SW,225,0.7,2.2,22,0.00,,---,0.00,VWS V14.01,2013-03-07 15:27:00,
2013-03-07 08:28:00,58.0,19.4,30.01,SSW,202,0.9,0.9,22,0.00,,---,0.00,VWS V14.01,2013-03-07 15:28:00,
2013-03-07 08:29:00,58.0,19.4,30.01,SSW,202,0.0,0.9,22,0.00,,---,0.00,VWS V14.01,2013-03-07 15:29:00,
2013-03-07 08:30:00,58.1,19.5,30.01,SW,225,0.7,0.7,22,0.00,,---,0.00,VWS V14.01,2013-03-07 15:30:00,
2013-03-07 08:31:00,54.2,21.8,30.01,SW,225,1.3,1.3,28,0.00,,---,0.00,VWS V14.01,2013-03-07 15:31:00,
2013-03-07 08:32:00,59.0,21.3,30.01,West,270,1.6,1.6,23,0.00,,---,0.00,VWS V14.01,2013-03-07 15:32:00,
2013-03-07 08:33:00,59.6,20.7,30.00,West,270,0.4,1.6,22,0.00,,---,0.00,VWS V14.01,2013-03-07 15:33:00,
2013-03-07 08:34:00,59.8,19.8,30.00,WSW,248,0.9,0.9,21,0.00,,---,0.00,VWS V14.01,2013-03-07 15:34:00,
2013-03-07 08:35:00,59.9,19.9,30.00,SSW,202,1.1,1.1,21,0.00,,---,0.00,VWS V14.01,2013-03-07 15:35:00,
2013-03-07 08:36:00,53.1,20.9,30.01,WSW,248,0.4,0.4,28,0.00,,---,0.00,VWS V14.01,2013-03-07 15:36:00,
2013-03-07 08:37:00,59.9,19.9,30.00,SSW,202,2.0,2.0,21,0.00,,---,0.00,VWS V14.01,2013-03-07 15:37:00,
2013-03-07 08:38:00,59.8,19.8,30.00,SW,225,1.8,2.0,21,0.00,,---,0.00,VWS V14.01,2013-03-07 15:38:00,
2013-03-07 08:39:00,59.8,19.8,30.00,SSW,202,0.4,1.8,21,0.00,,---,0.00,VWS V14.01,2013-03-07 15:39:00,
2013-03-07 08:40:00,59.8,19.8,30.00,SW,225,0.2,0.4,21,0.00,,---,0.00,VWS V14.01,2013-03-07 15:40:00,
2013-03-07 08:41:00,53.5,20.4,30.01,WSW,248,1.1,1.1,27,0.00,,---,0.00,VWS V14.01,2013-03-07 15:41:00,
2013-03-07 08:42:00,59.9,19.9,30.00,South,180,0.9,1.3,21,0.00,,---,0.00,VWS V14.01,2013-03-07 15:42:00,
2013-03-07 08:43:00,59.9,19.9,30.00,SSW,202,1.3,1.3,21,0.00,,---,0.00,VWS V14.01,2013-03-07 15:43:00,
2013-03-07 08:44:00,60.1,20.1,30.00,SSE,158,0.4,1.3,21,0.00,,---,0.00,VWS V14.01,2013-03-07 15:44:00,
2013-03-07 08:45:00,60.7,20.6,30.00,SW,225,1.1,1.1,21,0.00,,---,0.00,VWS V14.01,2013-03-07 15:45:00,
2013-03-07 08:46:00,53.5,20.4,30.01,WSW,248,0.9,0.9,27,0.00,,---,0.00,VWS V14.01,2013-03-07 15:46:00,
2013-03-07 08:47:00,60.5,20.4,30.00,SSW,202,0.4,2.2,21,0.00,,---,0.00,VWS V14.01,2013-03-07 15:47:00,
2013-03-07 08:48:00,60.5,18.1,30.00,SSW,202,1.1,1.1,19,0.00,,---,0.00,VWS V14.01,2013-03-07 15:48:00,
2013-03-07 08:49:00,60.5,20.4,30.00,SSW,202,0.4,1.1,21,0.00,,---,0.00,VWS V14.01,2013-03-07 15:49:00,
2013-03-07 08:50:00,60.8,20.6,30.00,SW,225,0.4,0.4,21,0.00,,---,0.00,VWS V14.01,2013-03-07 15:50:00,
2013-03-07 08:51:00,53.6,20.5,30.01,West,270,0.2,0.2,27,0.00,,---,0.00,VWS V14.01,2013-03-07 15:51:00,
2013-03-07 08:52:00,61.4,21.1,30.00,SW,225,0.0,0.7,21,0.00,,---,0.00,VWS V14.01,2013-03-07 15:52:00,
2013-03-07 08:53:00,61.6,19.0,30.00,East,90,0.9,0.9,19,0.00,,---,0.00,VWS V14.01,2013-03-07 15:53:00,
2013-03-07 08:54:00,62.3,19.5,30.00,SSE,158,0.4,0.9,19,0.00,,---,0.00,VWS V14.01,2013-03-07 15:54:00,
2013-03-07 08:55:00,62.5,19.7,30.00,WSW,248,0.7,0.7,19,0.00,,---,0.00,VWS V14.01,2013-03-07 15:55:00,
2013-03-07 08:56:00,55.3,20.1,30.01,SW,225,1.1,1.1,25,0.00,,---,0.00,VWS V14.01,2013-03-07 15:56:00,
2013-03-07 08:57:00,62.8,20.0,30.00,West,270,0.9,2.5,19,0.00,,---,0.00,VWS V14.01,2013-03-07 15:57:00,
2013-03-07 08:58:00,62.6,18.5,30.00,SSW,202,2.9,2.9,18,0.00,,---,0.00,VWS V14.01,2013-03-07 15:58:00,
2013-03-07 08:59:00,62.1,19.4,30.00,South,180,2.2,2.9,19,0.00,,---,0.00,VWS V14.01,2013-03-07 15:59:00,
2013-03-07 09:00:00,62.1,19.4,30.00,South,180,2.2,2.2,19,0.00,,---,0.00,VWS V14.01,2013-03-07 16:00:00,
2013-03-07 09:01:00,57.6,23.9,30.01,West,270,0.2,0.2,27,0.00,,---,0.00,VWS V14.01,2013-03-07 16:01:00,
2013-03-07 09:02:00,61.6,19.0,30.00,SSE,158,1.3,1.3,19,0.00,,---,0.00,VWS V14.01,2013-03-07 16:02:00,
2013-03-07 09:03:00,61.6,19.0,29.99,SSW,202,2.2,2.2,19,0.00,,---,0.00,VWS V14.01,2013-03-07 16:03:00,
2013-03-07 09:04:00,61.6,17.7,29.99,SW,225,2.9,2.9,18,0.00,,---,0.00,VWS V14.01,2013-03-07 16:04:00,
2013-03-07 09:05:00,61.0,18.5,29.99,SSW,202,1.8,2.9,19,0.00,,---,0.00,VWS V14.01,2013-03-07 16:05:00,
2013-03-07 09:06:00,59.6,21.8,30.01,West,270,0.4,0.4,23,0.00,,---,0.00,VWS V14.01,2013-03-07 16:06:00,
2013-03-07 09:07:00,60.8,20.6,30.00,WSW,248,0.4,0.4,21,0.00,,---,0.00,VWS V14.01,2013-03-07 16:07:00,
2013-03-07 09:08:00,61.2,18.6,29.99,ENE,68,0.4,0.4,19,0.00,,---,0.00,VWS V14.01,2013-03-07 16:08:00,
2013-03-07 09:09:00,62.1,21.7,30.00,South,180,1.1,1.1,21,0.00,,---,0.00,VWS V14.01,2013-03-07 16:09:00,
2013-03-07 09:10:00,62.6,19.8,30.00,WSW,248,1.1,1.1,19,0.00,,---,0.00,VWS V14.01,2013-03-07 16:10:00,
2013-03-07 09:11:00,58.5,20.9,30.01,West,270,0.7,0.7,23,0.00,,---,0.00,VWS V14.01,2013-03-07 16:11:00,
2013-03-07 09:12:00,63.2,19.0,29.99,SSW,202,1.1,1.1,18,0.00,,---,0.00,VWS V14.01,2013-03-07 16:12:00,
2013-03-07 09:13:00,63.0,18.9,29.99,SW,225,2.5,2.5,18,0.00,,---,0.00,VWS V14.01,2013-03-07 16:13:00,
2013-03-07 09:14:00,62.5,18.5,30.00,WSW,248,0.7,2.5,18,0.00,,---,0.00,VWS V14.01,2013-03-07 16:14:00,
2013-03-07 09:15:00,62.3,18.3,30.00,West,270,2.0,2.0,18,0.00,,---,0.00,VWS V14.01,2013-03-07 16:15:00,
2013-03-07 09:16:00,57.6,19.1,30.01,West,270,1.1,1.1,22,0.00,,---,0.00,VWS V14.01,2013-03-07 16:16:00,
2013-03-07 09:17:00,61.7,17.8,30.00,SSW,202,1.8,1.8,18,0.00,,---,0.00,VWS V14.01,2013-03-07 16:17:00,
2013-03-07 09:18:00,61.6,19.0,29.99,SSW,202,4.3,4.3,19,0.00,,---,0.00,VWS V14.01,2013-03-07 16:18:00,
2013-03-07 09:19:00,61.0,18.5,30.00,SSW,202,1.8,4.3,19,0.00,,---,0.00,VWS V14.01,2013-03-07 16:19:00,
2013-03-07 09:20:00,60.8,18.3,29.99,SSW,202,3.6,3.6,19,0.00,,---,0.00,VWS V14.01,2013-03-07 16:20:00,
2013-03-07 09:21:00,58.1,19.5,30.01,West,270,2.5,2.5,22,0.00,,---,0.00,VWS V14.01,2013-03-07 16:21:00,
2013-03-07 09:22:00,60.5,18.1,30.00,SSW,202,3.6,3.6,19,0.00,,---,0.00,VWS V14.01,2013-03-07 16:22:00,
2013-03-07 09:23:00,60.1,17.7,29.99,SSW,202,0.2,3.6,19,0.00,,---,0.00,VWS V14.01,2013-03-07 16:23:00,
2013-03-07 09:24:00,60.3,19.1,29.99,East,90,0.4,0.4,20,0.00,,---,0.00,VWS V14.01,2013-03-07 16:24:00,
2013-03-07 09:25:00,60.7,20.6,29.99,West,270,0.7,0.7,21,0.00,,---,0.00,VWS V14.01,2013-03-07 16:25:00,
2013-03-07 09:26:00,61.0,18.5,29.99,WSW,248,0.7,0.7,19,0.00,,---,0.00,VWS V14.01,2013-03-07 16:26:00,
2013-03-07 09:27:00,58.3,19.6,30.01,SW,225,2.2,2.2,22,0.00,,---,0.00,VWS V14.01,2013-03-07 16:27:00,
2013-03-07 09:28:00,60.8,18.3,29.99,WNW,292,1.8,4.3,19,0.00,,---,0.00,VWS V14.01,2013-03-07 16:28:00,
2013-03-07 09:29:00,60.8,18.3,29.99,West,270,2.9,2.9,19,0.00,,---,0.00,VWS V14.01,2013-03-07 16:29:00,
2013-03-07 09:30:00,60.7,18.2,29.99,WSW,248,2.5,2.9,19,0.00,,---,0.00,VWS V14.01,2013-03-07 16:30:00,
2013-03-07 09:31:00,60.7,18.2,29.99,SSW,202,2.9,2.9,19,0.00,,---,0.00,VWS V14.01,2013-03-07 16:31:00,
2013-03-07 09:32:00,58.3,20.7,30.01,SW,225,0.0,0.0,23,0.00,,---,0.00,VWS V14.01,2013-03-07 16:32:00,
2013-03-07 09:33:00,60.7,18.2,29.99,South,180,1.6,1.6,19,0.00,,---,0.00,VWS V14.01,2013-03-07 16:33:00,
2013-03-07 09:34:00,60.7,18.2,29.99,SW,225,1.8,1.8,19,0.00,,---,0.00,VWS V14.01,2013-03-07 16:34:00,
2013-03-07 09:35:00,60.5,18.1,29.99,SSW,202,1.6,1.8,19,0.00,,---,0.00,VWS V14.01,2013-03-07 16:35:00,
2013-03-07 09:36:00,60.5,18.1,30.00,SSW,202,0.7,1.6,19,0.00,,---,0.00,VWS V14.01,2013-03-07 16:36:00,
2013-03-07 09:37:00,59.9,19.9,30.00,WSW,248,0.4,0.4,21,0.00,,---,0.00,VWS V14.01,2013-03-07 16:37:00,
2013-03-07 09:38:00,60.8,18.3,30.00,SSW,202,1.3,1.6,19,0.00,,---,0.00,VWS V14.01,2013-03-07 16:38:00,
2013-03-07 09:39:00,60.8,18.3,30.00,SSW,202,2.7,2.7,19,0.00,,---,0.00,VWS V14.01,2013-03-07 16:39:00,
2013-03-07 09:40:00,60.8,18.3,30.00,South,180,1.8,2.7,19,0.00,,---,0.00,VWS V14.01,2013-03-07 16:40:00,
2013-03-07 09:41:00,60.8,19.5,30.00,SSW,202,2.7,2.7,20,0.00,,---,0.00,VWS V14.01,2013-03-07 16:41:00,
2013-03-07 09:42:00,59.8,19.8,30.00,WSW,248,1.3,1.3,21,0.00,,---,0.00,VWS V14.01,2013-03-07 16:42:00,
2013-03-07 09:43:00,60.8,20.6,30.00,WNW,292,1.8,2.5,21,0.00,,---,0.00,VWS V14.01,2013-03-07 16:43:00,
2013-03-07 09:44:00,60.8,20.6,29.99,WNW,292,0.4,1.8,21,0.00,,---,0.00,VWS V14.01,2013-03-07 16:44:00,
2013-03-07 09:45:00,60.8,20.6,30.00,WSW,248,1.1,1.1,21,0.00,,---,0.00,VWS V14.01,2013-03-07 16:45:00,
2013-03-07 09:46:00,60.8,20.6,29.99,SW,225,0.9,1.1,21,0.00,,---,0.00,VWS V14.01,2013-03-07 16:46:00,
2013-03-07 09:47:00,60.7,18.2,30.00,SSW,202,2.2,2.2,19,0.00,,---,0.00,VWS V14.01,2013-03-07 16:47:00,
2013-03-07 09:48:00,61.2,18.6,29.99,West,270,3.4,3.4,19,0.00,,---,0.00,VWS V14.01,2013-03-07 16:48:00,
2013-03-07 09:49:00,61.0,18.5,29.99,SW,225,4.0,4.0,19,0.00,,---,0.00,VWS V14.01,2013-03-07 16:49:00,
2013-03-07 09:50:00,61.0,18.5,29.99,SW,225,4.7,4.7,19,0.00,,---,0.00,VWS V14.01,2013-03-07 16:50:00,
2013-03-07 09:51:00,60.8,18.3,29.99,SW,225,4.3,4.7,19,0.00,,---,0.00,VWS V14.01,2013-03-07 16:51:00,
2013-03-07 09:52:00,61.0,18.5,30.00,SW,225,0.7,0.7,19,0.00,,---,0.00,VWS V14.01,2013-03-07 16:52:00,
2013-03-07 09:53:00,61.0,19.7,29.99,SSE,158,0.9,1.1,20,0.00,,---,0.00,VWS V14.01,2013-03-07 16:53:00,
2013-03-07 09:54:00,61.2,19.8,29.99,South,180,0.9,0.9,20,0.00,,---,0.00,VWS V14.01,2013-03-07 16:54:00,
2013-03-07 09:55:00,61.6,19.0,29.99,ESE,112,2.5,2.5,19,0.00,,---,0.00,VWS V14.01,2013-03-07 16:55:00,
2013-03-07 09:56:00,61.7,19.0,29.99,ESE,112,3.4,3.4,19,0.00,,---,0.00,VWS V14.01,2013-03-07 16:56:00,
2013-03-07 09:57:00,62.8,21.2,30.00,West,270,2.5,2.5,20,0.00,,---,0.00,VWS V14.01,2013-03-07 16:57:00,
2013-03-07 09:58:00,62.1,20.6,29.99,ESE,112,1.1,1.8,20,0.00,,---,0.00,VWS V14.01,2013-03-07 16:58:00,
2013-03-07 10:00:00,62.3,19.5,29.99,SE,135,1.3,1.3,19,0.00,,---,0.00,VWS V14.01,2013-03-07 17:00:00,
2013-03-07 10:01:00,62.3,19.5,29.99,South,180,1.1,1.3,19,0.00,,---,0.00,VWS V14.01,2013-03-07 17:01:00,
2013-03-07 10:02:00,61.7,19.0,29.99,SSE,158,0.9,0.9,19,0.00,,---,0.00,VWS V14.01,2013-03-07 17:02:00,
2013-03-07 10:03:00,62.3,20.8,29.99,South,180,1.3,1.3,20,0.00,,---,0.00,VWS V14.01,2013-03-07 17:03:00,
2013-03-07 10:04:00,62.3,20.8,29.99,SSW,202,0.2,1.3,20,0.00,,---,0.00,VWS V14.01,2013-03-07 17:04:00,
2013-03-07 10:05:00,62.3,21.9,29.99,SE,135,0.0,0.2,21,0.00,,---,0.00,VWS V14.01,2013-03-07 17:05:00,
2013-03-07 10:06:00,62.6,22.1,29.99,SSW,202,1.6,1.6,21,0.00,,---,0.00,VWS V14.01,2013-03-07 17:06:00,
2013-03-07 10:07:00,60.8,18.3,29.99,SW,225,0.0,0.0,19,0.00,,---,0.00,VWS V14.01,2013-03-07 17:07:00,
2013-03-07 10:08:00,62.6,21.0,29.99,NNW,338,1.1,3.1,20,0.00,,---,0.00,VWS V14.01,2013-03-07 17:08:00,
2013-03-07 10:09:00,62.6,19.8,29.99,South,180,4.0,4.0,19,0.00,,---,0.00,VWS V14.01,2013-03-07 17:09:00,
2013-03-07 10:10:00,62.5,19.7,29.99,SW,225,1.8,4.0,19,0.00,,---,0.00,VWS V14.01,2013-03-07 17:10:00,
2013-03-07 10:11:00,62.3,20.8,29.99,WSW,248,0.9,1.8,20,0.00,,---,0.00,VWS V14.01,2013-03-07 17:11:00,
2013-03-07 10:12:00,63.0,20.1,29.99,WSW,248,0.7,0.7,19,0.00,,---,0.00,VWS V14.01,2013-03-07 17:12:00,
2013-03-07 10:13:00,62.1,21.7,29.99,West,270,1.1,1.1,21,0.00,,---,0.00,VWS V14.01,2013-03-07 17:13:00,
2013-03-07 10:14:00,62.1,21.7,29.99,WNW,292,0.9,1.1,21,0.00,,---,0.00,VWS V14.01,2013-03-07 17:14:00,
2013-03-07 10:15:00,62.3,21.9,29.99,WNW,292,0.4,0.9,21,0.00,,---,0.00,VWS V14.01,2013-03-07 17:15:00,
2013-03-07 10:16:00,62.6,22.1,29.98,NE,45,0.9,0.9,21,0.00,,---,0.00,VWS V14.01,2013-03-07 17:16:00,
2013-03-07 10:17:00,61.7,17.8,30.00,SSW,202,1.8,1.8,18,0.00,,---,0.00,VWS V14.01,2013-03-07 17:17:00,
2013-03-07 10:18:00,63.5,22.9,29.99,NW,315,0.7,0.7,21,0.00,,---,0.00,VWS V14.01,2013-03-07 17:18:00,
2013-03-07 10:19:00,63.7,20.7,29.99,SW,225,1.3,1.3,19,0.00,,---,0.00,VWS V14.01,2013-03-07 17:19:00,
2013-03-07 10:20:00,63.7,20.7,29.99,West,270,0.7,1.3,19,0.00,,---,0.00,VWS V14.01,2013-03-07 17:20:00,
2013-03-07 10:21:00,63.7,20.7,29.99,West,270,0.9,0.9,19,0.00,,---,0.00,VWS V14.01,2013-03-07 17:21:00,
2013-03-07 10:22:00,60.5,18.1,29.99,SW,225,1.3,1.3,19,0.00,,---,0.00,VWS V14.01,2013-03-07 17:22:00,
2013-03-07 10:23:00,63.5,20.5,29.98,SW,225,1.8,3.4,19,0.00,,---,0.00,VWS V14.01,2013-03-07 17:23:00,
2013-03-07 10:24:00,63.4,20.5,29.98,SW,225,2.0,2.0,19,0.00,,---,0.00,VWS V14.01,2013-03-07 17:24:00,
2013-03-07 10:25:00,63.4,20.5,29.98,West,270,1.1,2.0,19,0.00,,---,0.00,VWS V14.01,2013-03-07 17:25:00,
2013-03-07 10:26:00,63.0,20.1,29.98,South,180,2.5,2.5,19,0.00,,---,0.00,VWS V14.01,2013-03-07 17:26:00,
2013-03-07 10:27:00,61.0,18.5,29.99,WSW,248,0.7,0.7,19,0.00,,---,0.00,VWS V14.01,2013-03-07 17:27:00,
2013-03-07 10:28:00,63.0,20.1,29.98,South,180,5.6,5.6,19,0.00,,---,0.00,VWS V14.01,2013-03-07 17:28:00,
2013-03-07 10:29:00,63.0,20.1,29.98,South,180,1.1,5.6,19,0.00,,---,0.00,VWS V14.01,2013-03-07 17:29:00,
2013-03-07 10:30:00,63.0,20.1,29.98,SE,135,1.3,1.3,19,0.00,,---,0.00,VWS V14.01,2013-03-07 17:30:00,
2013-03-07 10:31:00,63.0,20.1,29.98,SE,135,0.2,1.3,19,0.00,,---,0.00,VWS V14.01,2013-03-07 17:31:00,
2013-03-07 10:32:00,60.7,18.2,29.99,SSW,202,2.9,2.9,19,0.00,,---,0.00,VWS V14.01,2013-03-07 17:32:00,
2013-03-07 10:33:00,63.0,20.1,29.98,SSW,202,0.4,4.0,19,0.00,,---,0.00,VWS V14.01,2013-03-07 17:33:00,
2013-03-07 10:34:00,63.0,20.1,29.98,SW,225,1.8,1.8,19,0.00,,---,0.00,VWS V14.01,2013-03-07 17:34:00,
2013-03-07 10:35:00,63.0,20.1,29.98,SSE,158,1.1,1.8,19,0.00,,---,0.00,VWS V14.01,2013-03-07 17:35:00,
2013-03-07 10:36:00,63.2,20.3,29.98,SE,135,0.2,1.1,19,0.00,,---,0.00,VWS V14.01,2013-03-07 17:36:00,
2013-03-07 10:37:00,60.5,18.1,30.00,SSW,202,0.7,0.7,19,0.00,,---,0.00,VWS V14.01,2013-03-07 17:37:00,
2013-03-07 10:38:00,63.7,20.7,29.98,WSW,248,0.7,0.7,19,0.00,,---,0.00,VWS V14.01,2013-03-07 17:38:00,
2013-03-07 10:39:00,63.7,19.4,29.98,SSW,202,2.0,2.0,18,0.00,,---,0.00,VWS V14.01,2013-03-07 17:39:00,
2013-03-07 10:40:00,63.7,20.7,29.98,NW,315,2.0,2.0,19,0.00,,---,0.00,VWS V14.01,2013-03-07 17:40:00,
2013-03-07 10:41:00,63.7,19.4,29.98,WNW,292,3.4,3.4,18,0.00,,---,0.00,VWS V14.01,2013-03-07 17:41:00,
2013-03-07 10:42:00,60.8,19.5,30.00,SSW,202,2.7,2.7,20,0.00,,---,0.00,VWS V14.01,2013-03-07 17:42:00,
2013-03-07 10:43:00,63.2,20.3,29.98,SSW,202,6.5,6.5,19,0.00,,---,0.00,VWS V14.01,2013-03-07 17:43:00,
2013-03-07 10:44:00,62.8,20.0,29.98,SW,225,1.8,6.5,19,0.00,,---,0.00,VWS V14.01,2013-03-07 17:44:00,
2013-03-07 10:45:00,62.6,19.8,29.98,WSW,248,0.9,1.8,19,0.00,,---,0.00,VWS V14.01,2013-03-07 17:45:00,
2013-03-07 10:46:00,62.5,19.7,29.98,SSW,202,9.2,9.2,19,0.00,,---,0.00,VWS V14.01,2013-03-07 17:46:00,
2013-03-07 10:47:00,60.8,20.6,29.99,SW,225,0.9,0.9,21,0.00,,---,0.00,VWS V14.01,2013-03-07 17:47:00,
2013-03-07 10:48:00,62.3,19.5,29.98,WSW,248,0.9,4.5,19,0.00,,---,0.00,VWS V14.01,2013-03-07 17:48:00,
2013-03-07 10:49:00,62.3,19.5,29.98,SSW,202,3.6,3.6,19,0.00,,---,0.00,VWS V14.01,2013-03-07 17:49:00,
2013-03-07 10:50:00,62.3,19.5,29.98,WSW,248,3.8,3.8,19,0.00,,---,0.00,VWS V14.01,2013-03-07 17:50:00,
2013-03-07 10:51:00,62.5,19.7,29.98,SW,225,1.1,3.8,19,0.00,,---,0.00,VWS V14.01,2013-03-07 17:51:00,
2013-03-07 10:52:00,60.8,18.3,29.99,SW,225,4.3,4.3,19,0.00,,---,0.00,VWS V14.01,2013-03-07 17:52:00,
2013-03-07 10:53:00,62.5,19.7,29.98,WSW,248,7.8,7.8,19,0.00,,---,0.00,VWS V14.01,2013-03-07 17:53:00,
2013-03-07 10:54:00,62.3,19.5,29.98,West,270,6.3,7.8,19,0.00,,---,0.00,VWS V14.01,2013-03-07 17:54:00,
2013-03-07 10:55:00,62.3,19.5,29.98,SW,225,3.1,6.3,19,0.00,,---,0.00,VWS V14.01,2013-03-07 17:55:00,
2013-03-07 10:56:00,62.5,19.7,29.97,South,180,1.6,3.1,19,0.00,,---,0.00,VWS V14.01,2013-03-07 17:56:00,
2013-03-07 10:57:00,61.7,19.0,29.99,ESE,112,3.4,3.4,19,0.00,,---,0.00,VWS V14.01,2013-03-07 17:57:00,
2013-03-07 10:58:00,63.0,20.1,29.97,SSE,158,2.0,2.0,19,0.00,,---,0.00,VWS V14.01,2013-03-07 17:58:00,
2013-03-07 10:59:00,63.2,20.3,29.97,SW,225,2.0,2.0,19,0.00,,---,0.00,VWS V14.01,2013-03-07 17:59:00,
2013-03-07 11:00:00,63.2,20.3,29.98,SW,225,2.0,2.0,19,0.00,,---,0.00,VWS V14.01,2013-03-07 18:00:00,
2013-03-07 11:01:00,63.4,20.5,29.97,WSW,248,0.4,2.0,19,0.00,,---,0.00,VWS V14.01,2013-03-07 18:01:00,
2013-03-07 11:02:00,62.3,20.8,29.99,SSE,158,1.1,1.1,20,0.00,,---,0.00,VWS V14.01,2013-03-07 18:02:00,
2013-03-07 11:03:00,63.7,19.4,29.97,SSE,158,2.5,3.8,18,0.00,,---,0.00,VWS V14.01,2013-03-07 18:03:00,
2013-03-07 11:04:00,63.9,19.6,29.97,SSW,202,4.3,4.3,18,0.00,,---,0.00,VWS V14.01,2013-03-07 18:04:00,
2013-03-07 11:05:00,63.9,19.6,29.97,SW,225,3.8,4.3,18,0.00,,---,0.00,VWS V14.01,2013-03-07 18:05:00,
2013-03-07 11:06:00,63.9,19.6,29.97,SW,225,3.4,3.8,18,0.00,,---,0.00,VWS V14.01,2013-03-07 18:06:00,
2013-03-07 11:07:00,62.6,19.8,29.99,WNW,292,3.1,3.1,19,0.00,,---,0.00,VWS V14.01,2013-03-07 18:07:00,
2013-03-07 11:08:00,63.7,19.4,29.97,SSE,158,2.5,2.5,18,0.00,,---,0.00,VWS V14.01,2013-03-07 18:08:00,
2013-03-07 11:09:00,63.9,19.6,29.97,NNE,22,0.4,2.5,18,0.00,,---,0.00,VWS V14.01,2013-03-07 18:09:00,
2013-03-07 11:10:00,64.1,19.8,29.97,ESE,112,1.8,1.8,18,0.00,,---,0.00,VWS V14.01,2013-03-07 18:10:00,
2013-03-07 11:11:00,64.4,20.0,29.97,West,270,1.6,1.8,18,0.00,,---,0.00,VWS V14.01,2013-03-07 18:11:00,
2013-03-07 11:12:00,62.1,21.7,29.99,West,270,0.9,0.9,21,0.00,,---,0.00,VWS V14.01,2013-03-07 18:12:00,
2013-03-07 11:13:00,64.8,20.3,29.97,SW,225,1.6,1.8,18,0.00,,---,0.00,VWS V14.01,2013-03-07 18:13:00,
2013-03-07 11:14:00,65.0,20.5,29.97,NNE,22,0.2,1.6,18,0.00,,---,0.00,VWS V14.01,2013-03-07 18:14:00,
2013-03-07 11:15:00,65.2,20.7,29.97,ENE,68,3.4,3.4,18,0.00,,---,0.00,VWS V14.01,2013-03-07 18:15:00,
2013-03-07 11:16:00,65.3,20.7,29.97,SSW,202,4.0,4.0,18,0.00,,---,0.00,VWS V14.01,2013-03-07 18:16:00,
2013-03-07 11:17:00,63.0,22.5,29.99,NNE,22,0.4,0.4,21,0.00,,---,0.00,VWS V14.01,2013-03-07 18:17:00,
2013-03-07 11:18:00,65.5,19.6,29.97,SSE,158,2.7,2.9,17,0.00,,---,0.00,VWS V14.01,2013-03-07 18:18:00,
2013-03-07 11:19:00,65.5,19.6,29.96,SSE,158,0.7,2.7,17,0.00,,---,0.00,VWS V14.01,2013-03-07 18:19:00,
2013-03-07 11:20:00,65.5,19.6,29.96,SSW,202,2.0,2.0,17,0.00,,---,0.00,VWS V14.01,2013-03-07 18:20:00,
2013-03-07 11:21:00,65.5,20.9,29.96,SW,225,3.1,3.1,18,0.00,,---,0.00,VWS V14.01,2013-03-07 18:21:00,
2013-03-07 11:22:00,63.7,20.7,29.98,WSW,248,3.4,3.4,19,0.00,,---,0.00,VWS V14.01,2013-03-07 18:22:00,
2013-03-07 11:23:00,64.6,20.2,29.96,South,180,3.4,5.8,18,0.00,,---,0.00,VWS V14.01,2013-03-07 18:23:00,
2013-03-07 11:24:00,64.3,19.9,29.96,SW,225,5.1,5.1,18,0.00,,---,0.00,VWS V14.01,2013-03-07 18:24:00,
2013-03-07 11:25:00,63.9,19.6,29.96,SSW,202,4.9,5.1,18,0.00,,---,0.00,VWS V14.01,2013-03-07 18:25:00,
2013-03-07 11:26:00,63.9,19.6,29.96,SSE,158,2.7,4.9,18,0.00,,---,0.00,VWS V14.01,2013-03-07 18:26:00,
2013-03-07 11:27:00,63.2,20.3,29.98,SSW,202,5.1,5.1,19,0.00,,---,0.00,VWS V14.01,2013-03-07 18:27:00,
2013-03-07 11:28:00,63.7,19.4,29.96,SW,225,2.9,4.0,18,0.00,,---,0.00,VWS V14.01,2013-03-07 18:28:00,
2013-03-07 11:29:00,63.5,19.3,29.96,SSW,202,2.2,2.9,18,0.00,,---,0.00,VWS V14.01,2013-03-07 18:29:00,
2013-03-07 11:30:00,63.5,19.3,29.96,SE,135,2.7,2.7,18,0.00,,---,0.00,VWS V14.01,2013-03-07 18:30:00,
2013-03-07 11:31:00,63.7,19.4,29.96,ESE,112,1.1,2.7,18,0.00,,---,0.00,VWS V14.01,2013-03-07 18:31:00,
2013-03-07 11:32:00,63.2,20.3,29.98,SSW,202,4.0,4.0,19,0.00,,---,0.00,VWS V14.01,2013-03-07 18:32:00,
2013-03-07 11:33:00,64.3,19.9,29.96,SSW,202,2.2,2.2,18,0.00,,---,0.00,VWS V14.01,2013-03-07 18:33:00,
2013-03-07 11:34:00,64.4,20.0,29.96,SE,135,2.5,2.5,18,0.00,,---,0.00,VWS V14.01,2013-03-07 18:34:00,
2013-03-07 11:35:00,64.6,20.2,29.96,SSE,158,1.6,2.5,18,0.00,,---,0.00,VWS V14.01,2013-03-07 18:35:00,
2013-03-07 11:36:00,64.6,20.2,29.96,WSW,248,2.2,2.2,18,0.00,,---,0.00,VWS V14.01,2013-03-07 18:36:00,
2013-03-07 11:37:00,63.2,20.3,29.98,SE,135,0.2,0.2,19,0.00,,---,0.00,VWS V14.01,2013-03-07 18:37:00,
2013-03-07 11:38:00,64.6,18.8,29.96,SW,225,6.9,6.9,17,0.00,,---,0.00,VWS V14.01,2013-03-07 18:38:00,
2013-03-07 11:39:00,64.4,20.0,29.96,SSW,202,5.4,6.9,18,0.00,,---,0.00,VWS V14.01,2013-03-07 18:39:00,
2013-03-07 11:40:00,64.6,20.2,29.96,SW,225,4.0,5.4,18,0.00,,---,0.00,VWS V14.01,2013-03-07 18:40:00,
2013-03-07 11:41:00,64.8,20.3,29.96,SW,225,5.4,5.4,18,0.00,,---,0.00,VWS V14.01,2013-03-07 18:41:00,
2013-03-07 11:42:00,63.7,19.4,29.98,WNW,292,3.4,3.4,18,0.00,,---,0.00,VWS V14.01,2013-03-07 18:42:00,
2013-03-07 11:43:00,64.8,20.3,29.95,SSE,158,4.9,4.9,18,0.00,,---,0.00,VWS V14.01,2013-03-07 18:43:00,
2013-03-07 11:44:00,64.8,19.0,29.95,South,180,4.9,4.9,17,0.00,,---,0.00,VWS V14.01,2013-03-07 18:44:00,
2013-03-07 11:45:00,64.8,19.0,29.95,South,180,2.5,4.9,17,0.00,,---,0.00,VWS V14.01,2013-03-07 18:45:00,
2013-03-07 11:46:00,64.8,20.3,29.95,SSE,158,2.5,2.5,18,0.00,,---,0.00,VWS V14.01,2013-03-07 18:46:00,
2013-03-07 11:47:00,62.5,19.7,29.98,SSW,202,9.2,9.2,19,0.00,,---,0.00,VWS V14.01,2013-03-07 18:47:00,
2013-03-07 11:48:00,64.6,18.8,29.95,WSW,248,2.7,2.9,17,0.00,,---,0.00,VWS V14.01,2013-03-07 18:48:00,
2013-03-07 11:49:00,64.8,19.0,29.95,SW,225,4.0,4.0,17,0.00,,---,0.00,VWS V14.01,2013-03-07 18:49:00,
2013-03-07 11:50:00,64.8,19.0,29.95,SW,225,3.4,4.0,17,0.00,,---,0.00,VWS V14.01,2013-03-07 18:50:00,
2013-03-07 11:51:00,65.0,19.2,29.95,SSW,202,7.6,7.6,17,0.00,,---,0.00,VWS V14.01,2013-03-07 18:51:00,
2013-03-07 11:52:00,62.5,19.7,29.98,SW,225,1.1,1.1,19,0.00,,---,0.00,VWS V14.01,2013-03-07 18:52:00,
2013-03-07 11:53:00,65.2,16.4,29.95,SSW,202,6.7,6.7,15,0.00,,---,0.00,VWS V14.01,2013-03-07 18:53:00,
2013-03-07 11:54:00,65.2,17.9,29.95,South,180,7.6,7.6,16,0.00,,---,0.00,VWS V14.01,2013-03-07 18:54:00,
2013-03-07 11:55:00,65.0,16.3,29.95,SSW,202,7.8,7.8,15,0.00,,---,0.00,VWS V14.01,2013-03-07 18:55:00,
2013-03-07 11:56:00,64.8,16.1,29.95,South,180,2.7,7.8,15,0.00,,---,0.00,VWS V14.01,2013-03-07 18:56:00,
2013-03-07 11:57:00,62.5,19.7,29.97,South,180,1.6,1.6,19,0.00,,---,0.00,VWS V14.01,2013-03-07 18:57:00,
2013-03-07 11:58:00,65.2,17.9,29.95,SSW,202,1.6,1.6,16,0.00,,---,0.00,VWS V14.01,2013-03-07 18:58:00,
2013-03-07 11:59:00,65.2,17.9,29.95,SW,225,2.2,2.2,16,0.00,,---,0.00,VWS V14.01,2013-03-07 18:59:00,
2013-03-07 12:00:00,65.0,17.8,29.95,WSW,248,2.9,2.9,16,0.00,,---,0.00,VWS V14.01,2013-03-07 19:00:00,
2013-03-07 12:01:00,65.0,17.8,29.94,NNW,338,1.3,2.9,16,0.00,,---,0.00,VWS V14.01,2013-03-07 19:01:00,
2013-03-07 12:02:00,63.5,20.5,29.97,SSE,158,3.8,3.8,19,0.00,,---,0.00,VWS V14.01,2013-03-07 19:02:00,
2013-03-07 12:03:00,64.6,18.8,29.94,NNE,22,0.9,1.3,17,0.00,,---,0.00,VWS V14.01,2013-03-07 19:03:00,
2013-03-07 12:04:00,64.8,19.0,29.94,SSW,202,1.1,1.1,17,0.00,,---,0.00,VWS V14.01,2013-03-07 19:04:00,
2013-03-07 12:05:00,65.2,19.3,29.94,SW,225,2.5,2.5,17,0.00,,---,0.00,VWS V14.01,2013-03-07 19:05:00,
2013-03-07 12:06:00,65.2,19.3,29.94,SW,225,4.0,4.0,17,0.00,,---,0.00,VWS V14.01,2013-03-07 19:06:00,
2013-03-07 12:07:00,63.7,19.4,29.97,SSW,202,2.5,2.5,18,0.00,,---,0.00,VWS V14.01,2013-03-07 19:07:00,
2013-03-07 12:08:00,65.2,16.4,29.94,South,180,4.7,7.8,15,0.00,,---,0.00,VWS V14.01,2013-03-07 19:08:00,
2013-03-07 12:09:00,64.8,16.1,29.94,South,180,5.4,5.4,15,0.00,,---,0.00,VWS V14.01,2013-03-07 19:09:00,
2013-03-07 12:10:00,64.6,15.9,29.94,SW,225,2.2,5.4,15,0.00,,---,0.00,VWS V14.01,2013-03-07 19:10:00,
2013-03-07 12:11:00,64.6,15.9,29.94,SSE,158,2.7,2.7,15,0.00,,---,0.00,VWS V14.01,2013-03-07 19:11:00,
2013-03-07 12:12:00,64.6,20.2,29.97,WSW,248,1.8,1.8,18,0.00,,---,0.00,VWS V14.01,2013-03-07 19:12:00,
2013-03-07 12:13:00,64.8,17.6,29.94,SSW,202,2.9,3.6,16,0.00,,---,0.00,VWS V14.01,2013-03-07 19:13:00,
2013-03-07 12:14:00,64.8,17.6,29.94,SSW,202,4.9,4.9,16,0.00,,---,0.00,VWS V14.01,2013-03-07 19:14:00,
2013-03-07 12:15:00,64.8,17.6,29.93,SSW,202,3.6,4.9,16,0.00,,---,0.00,VWS V14.01,2013-03-07 19:15:00,
2013-03-07 12:16:00,64.8,17.6,29.94,SSW,202,6.3,6.3,16,0.00,,---,0.00,VWS V14.01,2013-03-07 19:16:00,
2013-03-07 12:17:00,65.5,20.9,29.97,South,180,2.9,2.9,18,0.00,,---,0.00,VWS V14.01,2013-03-07 19:17:00,
2013-03-07 12:18:00,64.8,17.6,29.93,SSE,158,3.1,3.1,16,0.00,,---,0.00,VWS V14.01,2013-03-07 19:18:00,
2013-03-07 12:19:00,65.0,17.8,29.93,SSW,202,1.8,3.1,16,0.00,,---,0.00,VWS V14.01,2013-03-07 19:19:00,
2013-03-07 12:20:00,65.2,17.9,29.93,South,180,4.0,4.0,16,0.00,,---,0.00,VWS V14.01,2013-03-07 19:20:00,
2013-03-07 12:21:00,65.2,17.9,29.93,South,180,4.5,4.5,16,0.00,,---,0.00,VWS V14.01,2013-03-07 19:21:00,
2013-03-07 12:22:00,65.0,19.2,29.96,SSW,202,5.8,5.8,17,0.00,,---,0.00,VWS V14.01,2013-03-07 19:22:00,
2013-03-07 12:23:00,65.9,18.5,29.93,SSW,202,4.5,4.5,16,0.00,,---,0.00,VWS V14.01,2013-03-07 19:23:00,
2013-03-07 12:24:00,65.9,17.0,29.93,SSW,202,4.7,4.7,15,0.00,,---,0.00,VWS V14.01,2013-03-07 19:24:00,
2013-03-07 12:25:00,66.1,18.6,29.93,SSE,158,4.0,4.7,16,0.00,,---,0.00,VWS V14.01,2013-03-07 19:25:00,
2013-03-07 12:26:00,66.1,18.6,29.93,SE,135,2.7,4.0,16,0.00,,---,0.00,VWS V14.01,2013-03-07 19:26:00,
2013-03-07 12:27:00,63.9,19.6,29.96,SW,225,4.0,4.0,18,0.00,,---,0.00,VWS V14.01,2013-03-07 19:27:00,
2013-03-07 12:28:00,65.9,18.5,29.93,SW,225,6.3,8.5,16,0.00,,---,0.00,VWS V14.01,2013-03-07 19:28:00,
2013-03-07 12:29:00,65.7,18.3,29.93,South,180,1.8,6.3,16,0.00,,---,0.00,VWS V14.01,2013-03-07 19:29:00,
2013-03-07 12:30:00,65.5,18.1,29.93,SE,135,1.1,1.8,16,0.00,,---,0.00,VWS V14.01,2013-03-07 19:30:00,
2013-03-07 12:31:00,65.7,18.3,29.93,SSE,158,2.5,2.5,16,0.00,,---,0.00,VWS V14.01,2013-03-07 19:31:00,
2013-03-07 12:32:00,63.7,19.4,29.96,WSW,248,0.7,0.7,18,0.00,,---,0.00,VWS V14.01,2013-03-07 19:32:00,
2013-03-07 12:33:00,65.9,18.5,29.93,WSW,248,1.6,6.3,16,0.00,,---,0.00,VWS V14.01,2013-03-07 19:33:00,
2013-03-07 12:34:00,65.9,19.9,29.93,SSW,202,1.6,1.6,17,0.00,,---,0.00,VWS V14.01,2013-03-07 19:34:00,
2013-03-07 12:35:00,65.9,19.9,29.92,SSE,158,1.1,1.6,17,0.00,,---,0.00,VWS V14.01,2013-03-07 19:35:00,
2013-03-07 12:36:00,65.9,18.5,29.92,SSW,202,4.3,4.3,16,0.00,,---,0.00,VWS V14.01,2013-03-07 19:36:00,
2013-03-07 12:37:00,64.8,19.0,29.96,WSW,248,2.5,2.5,17,0.00,,---,0.00,VWS V14.01,2013-03-07 19:37:00,
2013-03-07 12:38:00,65.9,18.5,29.92,WNW,292,5.4,5.4,16,0.00,,---,0.00,VWS V14.01,2013-03-07 19:38:00,
2013-03-07 12:39:00,65.5,18.1,29.92,West,270,6.3,6.3,16,0.00,,---,0.00,VWS V14.01,2013-03-07 19:39:00,
2013-03-07 12:40:00,65.2,17.9,29.92,SSW,202,2.5,6.3,16,0.00,,---,0.00,VWS V14.01,2013-03-07 19:40:00,
2013-03-07 12:41:00,65.3,19.4,29.92,SSE,158,2.5,2.5,17,0.00,,---,0.00,VWS V14.01,2013-03-07 19:41:00,
2013-03-07 12:42:00,64.8,20.3,29.96,SSE,158,4.7,4.7,18,0.00,,---,0.00,VWS V14.01,2013-03-07 19:42:00,
2013-03-07 12:43:00,65.7,18.3,29.92,SW,225,1.8,1.8,16,0.00,,---,0.00,VWS V14.01,2013-03-07 19:43:00,
2013-03-07 12:44:00,65.9,18.5,29.92,South,180,3.4,3.4,16,0.00,,---,0.00,VWS V14.01,2013-03-07 19:44:00,
2013-03-07 12:45:00,66.2,18.7,29.92,South,180,3.6,3.6,16,0.00,,---,0.00,VWS V14.01,2013-03-07 19:45:00,
2013-03-07 12:46:00,66.2,18.7,29.92,South,180,1.8,3.6,16,0.00,,---,0.00,VWS V14.01,2013-03-07 19:46:00,
2013-03-07 12:47:00,64.6,18.8,29.95,SSW,202,2.9,2.9,17,0.00,,---,0.00,VWS V14.01,2013-03-07 19:47:00,
2013-03-07 12:48:00,66.2,18.7,29.92,SSW,202,5.4,5.4,16,0.00,,---,0.00,VWS V14.01,2013-03-07 19:48:00,
2013-03-07 12:49:00,66.4,18.9,29.92,SSW,202,2.5,5.4,16,0.00,,---,0.00,VWS V14.01,2013-03-07 19:49:00,
2013-03-07 12:50:00,66.4,18.9,29.92,SSW,202,4.0,4.0,16,0.00,,---,0.00,VWS V14.01,2013-03-07 19:50:00,
2013-03-07 12:51:00,66.6,19.0,29.92,West,270,2.9,4.0,16,0.00,,---,0.00,VWS V14.01,2013-03-07 19:51:00,
2013-03-07 12:52:00,65.2,17.9,29.95,SW,225,4.5,4.5,16,0.00,,---,0.00,VWS V14.01,2013-03-07 19:52:00,
2013-03-07 12:53:00,67.0,19.4,29.91,South,180,0.9,2.7,16,0.00,,---,0.00,VWS V14.01,2013-03-07 19:53:00,
2013-03-07 12:54:00,67.1,19.4,29.91,South,180,4.0,4.0,16,0.00,,---,0.00,VWS V14.01,2013-03-07 19:54:00,
2013-03-07 12:55:00,67.3,19.6,29.91,SE,135,3.4,4.0,16,0.00,,---,0.00,VWS V14.01,2013-03-07 19:55:00,
2013-03-07 12:56:00,67.3,19.6,29.91,ESE,112,5.1,5.1,16,0.00,,---,0.00,VWS V14.01,2013-03-07 19:56:00,
2013-03-07 12:57:00,64.8,16.1,29.95,SSW,202,1.3,1.3,15,0.00,,---,0.00,VWS V14.01,2013-03-07 19:57:00,
2013-03-07 12:58:00,67.7,19.9,29.91,SSW,202,2.5,2.5,16,0.00,,---,0.00,VWS V14.01,2013-03-07 19:58:00,
2013-03-07 12:59:00,68.2,18.8,29.91,SSE,158,3.4,3.4,15,0.00,,---,0.00,VWS V14.01,2013-03-07 19:59:00,
2013-03-07 13:00:00,68.2,18.8,29.91,South,180,5.6,5.6,15,0.00,,---,0.00,VWS V14.01,2013-03-07 20:00:00,
2013-03-07 13:01:00,68.6,19.1,29.91,SSE,158,5.8,5.8,15,0.00,,---,0.00,VWS V14.01,2013-03-07 20:01:00,
2013-03-07 13:02:00,64.8,19.0,29.94,North,0,1.3,1.3,17,0.00,,---,0.00,VWS V14.01,2013-03-07 20:02:00,
2013-03-07 13:03:00,68.4,19.0,29.91,SSE,158,3.8,5.4,15,0.00,,---,0.00,VWS V14.01,2013-03-07 20:03:00,
2013-03-07 13:04:00,68.6,19.1,29.91,SSE,158,5.4,5.4,15,0.00,,---,0.00,VWS V14.01,2013-03-07 20:04:00,
2013-03-07 13:05:00,68.4,19.0,29.91,South,180,2.0,5.4,15,0.00,,---,0.00,VWS V14.01,2013-03-07 20:05:00,
2013-03-07 13:06:00,68.6,19.1,29.91,SSE,158,2.2,2.2,15,0.00,,---,0.00,VWS V14.01,2013-03-07 20:06:00,
2013-03-07 13:07:00,65.2,17.9,29.94,SW,225,7.8,7.8,16,0.00,,---,0.00,VWS V14.01,2013-03-07 20:07:00,
2013-03-07 13:08:00,68.4,19.0,29.91,South,180,4.0,5.8,15,0.00,,---,0.00,VWS V14.01,2013-03-07 20:08:00,
2013-03-07 13:09:00,68.4,19.0,29.91,SSW,202,2.2,4.0,15,0.00,,---,0.00,VWS V14.01,2013-03-07 20:09:00,
2013-03-07 13:10:00,68.6,19.1,29.91,SSE,158,2.0,2.2,15,0.00,,---,0.00,VWS V14.01,2013-03-07 20:10:00,
2013-03-07 13:11:00,68.8,19.3,29.91,SSW,202,1.6,2.0,15,0.00,,---,0.00,VWS V14.01,2013-03-07 20:11:00,
2013-03-07 13:12:00,64.6,15.9,29.94,South,180,3.6,3.6,15,0.00,,---,0.00,VWS V14.01,2013-03-07 20:12:00,
2013-03-07 13:13:00,68.9,19.4,29.91,SSE,158,4.7,4.7,15,0.00,,---,0.00,VWS V14.01,2013-03-07 20:13:00,
2013-03-07 13:14:00,68.8,19.3,29.91,SSE,158,3.6,4.7,15,0.00,,---,0.00,VWS V14.01,2013-03-07 20:14:00,
2013-03-07 13:15:00,68.4,19.0,29.91,SSW,202,1.8,3.6,15,0.00,,---,0.00,VWS V14.01,2013-03-07 20:15:00,
2013-03-07 13:16:00,68.0,18.7,29.90,SW,225,5.4,5.4,15,0.00,,---,0.00,VWS V14.01,2013-03-07 20:16:00,
2013-03-07 13:17:00,64.8,17.6,29.94,SSE,158,2.7,2.7,16,0.00,,---,0.00,VWS V14.01,2013-03-07 20:17:00,
2013-03-07 13:18:00,67.7,18.4,29.91,WSW,248,3.8,3.8,15,0.00,,---,0.00,VWS V14.01,2013-03-07 20:18:00,
2013-03-07 13:19:00,67.7,18.4,29.90,SSW,202,4.0,4.0,15,0.00,,---,0.00,VWS V14.01,2013-03-07 20:19:00,
2013-03-07 13:20:00,67.7,18.4,29.90,SW,225,2.7,4.0,15,0.00,,---,0.00,VWS V14.01,2013-03-07 20:20:00,
2013-03-07 13:21:00,67.7,18.4,29.90,SSW,202,4.9,4.9,15,0.00,,---,0.00,VWS V14.01,2013-03-07 20:21:00,
2013-03-07 13:22:00,65.3,18.0,29.93,SSW,202,2.7,2.7,16,0.00,,---,0.00,VWS V14.01,2013-03-07 20:22:00,
2013-03-07 13:23:00,67.9,18.6,29.91,SE,135,2.0,4.0,15,0.00,,---,0.00,VWS V14.01,2013-03-07 20:23:00,
2013-03-07 13:24:00,68.0,18.7,29.90,SSE,158,2.0,2.0,15,0.00,,---,0.00,VWS V14.01,2013-03-07 20:24:00,
2013-03-07 13:25:00,68.2,18.8,29.90,South,180,4.7,4.7,15,0.00,,---,0.00,VWS V14.01,2013-03-07 20:25:00,
2013-03-07 13:26:00,68.4,19.0,29.90,SSW,202,5.4,5.4,15,0.00,,---,0.00,VWS V14.01,2013-03-07 20:26:00,
2013-03-07 13:27:00,66.1,18.6,29.93,SSW,202,8.5,8.5,16,0.00,,---,0.00,VWS V14.01,2013-03-07 20:27:00,
2013-03-07 13:28:00,68.6,19.1,29.91,South,180,7.8,7.8,15,0.00,,---,0.00,VWS V14.01,2013-03-07 20:28:00,
2013-03-07 13:29:00,68.4,19.0,29.91,South,180,5.4,7.8,15,0.00,,---,0.00,VWS V14.01,2013-03-07 20:29:00,
2013-03-07 13:30:00,68.0,18.7,29.90,SSW,202,4.9,5.4,15,0.00,,---,0.00,VWS V14.01,2013-03-07 20:30:00,
2013-03-07 13:31:00,67.7,18.4,29.90,SE,135,3.6,4.9,15,0.00,,---,0.00,VWS V14.01,2013-03-07 20:31:00,
2013-03-07 13:32:00,65.9,18.5,29.93,SW,225,6.3,6.3,16,0.00,,---,0.00,VWS V14.01,2013-03-07 20:32:00,
2013-03-07 13:33:00,67.7,19.9,29.90,South,180,3.6,4.0,16,0.00,,---,0.00,VWS V14.01,2013-03-07 20:33:00,
2013-03-07 13:34:00,67.7,19.9,29.90,South,180,6.5,6.5,16,0.00,,---,0.00,VWS V14.01,2013-03-07 20:34:00,
2013-03-07 13:35:00,67.9,20.1,29.90,South,180,3.4,6.5,16,0.00,,---,0.00,VWS V14.01,2013-03-07 20:35:00,
2013-03-07 13:36:00,67.7,19.9,29.90,South,180,4.7,4.7,16,0.00,,---,0.00,VWS V14.01,2013-03-07 20:36:00,
2013-03-07 13:37:00,65.9,18.5,29.92,SW,225,3.4,3.4,16,0.00,,---,0.00,VWS V14.01,2013-03-07 20:37:00,
2013-03-07 13:38:00,68.0,18.7,29.90,WSW,248,4.0,4.0,15,0.00,,---,0.00,VWS V14.01,2013-03-07 20:38:00,
2013-03-07 13:39:00,67.9,18.6,29.90,SW,225,9.2,9.2,15,0.00,,---,0.00,VWS V14.01,2013-03-07 20:39:00,
2013-03-07 13:40:00,67.7,18.4,29.90,WSW,248,5.1,9.2,15,0.00,,---,0.00,VWS V14.01,2013-03-07 20:40:00,
2013-03-07 13:41:00,67.5,18.3,29.90,SSW,202,3.4,5.1,15,0.00,,---,0.00,VWS V14.01,2013-03-07 20:41:00,
2013-03-07 13:42:00,65.5,19.6,29.92,WSW,248,1.1,1.1,17,0.00,,---,0.00,VWS V14.01,2013-03-07 20:42:00,
2013-03-07 13:43:00,67.5,18.3,29.90,South,180,5.1,5.1,15,0.00,,---,0.00,VWS V14.01,2013-03-07 20:43:00,
2013-03-07 13:44:00,67.5,18.3,29.90,SW,225,1.8,5.1,15,0.00,,---,0.00,VWS V14.01,2013-03-07 20:44:00,
2013-03-07 13:45:00,67.5,18.3,29.90,SSE,158,3.4,3.4,15,0.00,,---,0.00,VWS V14.01,2013-03-07 20:45:00,
2013-03-07 13:46:00,67.7,18.4,29.90,SSE,158,2.0,3.4,15,0.00,,---,0.00,VWS V14.01,2013-03-07 20:46:00,
2013-03-07 13:47:00,66.2,18.7,29.92,SW,225,2.9,2.9,16,0.00,,---,0.00,VWS V14.01,2013-03-07 20:47:00,
2013-03-07 13:48:00,68.0,18.7,29.90,West,270,7.4,7.4,15,0.00,,---,0.00,VWS V14.01,2013-03-07 20:48:00,
2013-03-07 13:49:00,68.0,18.7,29.90,SW,225,5.4,7.4,15,0.00,,---,0.00,VWS V14.01,2013-03-07 20:49:00,
2013-03-07 13:50:00,68.0,18.7,29.89,SSE,158,2.9,5.4,15,0.00,,---,0.00,VWS V14.01,2013-03-07 20:50:00,
2013-03-07 13:51:00,68.0,18.7,29.89,SSE,158,5.1,5.1,15,0.00,,---,0.00,VWS V14.01,2013-03-07 20:51:00,
2013-03-07 13:52:00,66.8,19.2,29.91,SSW,202,2.7,2.7,16,0.00,,---,0.00,VWS V14.01,2013-03-07 20:52:00,
2013-03-07 13:53:00,68.2,20.3,29.89,SSE,158,2.5,3.8,16,0.00,,---,0.00,VWS V14.01,2013-03-07 20:53:00,
2013-03-07 13:54:00,68.4,19.0,29.89,SSE,158,3.1,3.1,15,0.00,,---,0.00,VWS V14.01,2013-03-07 20:54:00,
2013-03-07 13:55:00,68.6,19.1,29.89,South,180,4.3,4.3,15,0.00,,---,0.00,VWS V14.01,2013-03-07 20:55:00,
2013-03-07 13:56:00,68.6,19.1,29.89,SSW,202,5.8,5.8,15,0.00,,---,0.00,VWS V14.01,2013-03-07 20:56:00,
2013-03-07 13:57:00,67.3,19.6,29.91,SE,135,2.5,2.5,16,0.00,,---,0.00,VWS V14.01,2013-03-07 20:57:00,
2013-03-07 13:58:00,68.0,18.7,29.89,SW,225,5.1,5.1,15,0.00,,---,0.00,VWS V14.01,2013-03-07 20:58:00,
2013-03-07 13:59:00,67.9,20.1,29.89,SSW,202,3.8,5.1,16,0.00,,---,0.00,VWS V14.01,2013-03-07 20:59:00,
2013-03-07 14:00:00,67.9,20.1,29.89,SSW,202,3.8,3.8,16,0.00,,---,0.00,VWS V14.01,2013-03-07 21:00:00,
2013-03-07 14:01:00,68.0,18.7,29.89,SW,225,3.1,3.8,15,0.00,,---,0.00,VWS V14.01,2013-03-07 21:01:00,
2013-03-07 14:02:00,68.6,19.1,29.91,South,180,5.4,5.4,15,0.00,,---,0.00,VWS V14.01,2013-03-07 21:02:00,
2013-03-07 14:03:00,68.0,18.7,29.89,SW,225,7.4,7.4,15,0.00,,---,0.00,VWS V14.01,2013-03-07 21:03:00,
2013-03-07 14:04:00,68.0,18.7,29.89,South,180,9.8,9.8,15,0.00,,---,0.00,VWS V14.01,2013-03-07 21:04:00,
2013-03-07 14:05:00,68.0,18.7,29.89,SW,225,7.4,9.8,15,0.00,,---,0.00,VWS V14.01,2013-03-07 21:05:00,
2013-03-07 14:06:00,68.0,20.2,29.89,South,180,5.8,7.4,16,0.00,,---,0.00,VWS V14.01,2013-03-07 21:06:00,
2013-03-07 14:07:00,68.6,19.1,29.91,SW,225,5.8,5.8,15,0.00,,---,0.00,VWS V14.01,2013-03-07 21:07:00,
2013-03-07 14:08:00,68.2,18.8,29.89,SW,225,4.5,4.5,15,0.00,,---,0.00,VWS V14.01,2013-03-07 21:08:00,
2013-03-07 14:09:00,68.4,19.0,29.89,South,180,7.2,7.2,15,0.00,,---,0.00,VWS V14.01,2013-03-07 21:09:00,
2013-03-07 14:10:00,68.4,19.0,29.89,SSW,202,6.7,7.2,15,0.00,,---,0.00,VWS V14.01,2013-03-07 21:10:00,
2013-03-07 14:11:00,68.6,19.1,29.89,SSW,202,6.7,6.7,15,0.00,,---,0.00,VWS V14.01,2013-03-07 21:11:00,
2013-03-07 14:12:00,68.9,19.4,29.91,South,180,1.6,1.6,15,0.00,,---,0.00,VWS V14.01,2013-03-07 21:12:00,
2013-03-07 14:14:00,68.8,19.3,29.89,SSW,202,4.9,5.4,15,0.00,,---,0.00,VWS V14.01,2013-03-07 21:14:00,
2013-03-07 14:15:00,68.6,19.1,29.89,SSW,202,2.0,4.9,15,0.00,,---,0.00,VWS V14.01,2013-03-07 21:15:00,
2013-03-07 14:16:00,68.8,19.3,29.89,SSW,202,4.5,4.5,15,0.00,,---,0.00,VWS V14.01,2013-03-07 21:16:00,
2013-03-07 14:17:00,67.7,18.4,29.90,WSW,248,2.9,2.9,15,0.00,,---,0.00,VWS V14.01,2013-03-07 21:17:00,
2013-03-07 14:18:00,68.8,19.3,29.89,SSE,158,4.5,5.6,15,0.00,,---,0.00,VWS V14.01,2013-03-07 21:18:00,
2013-03-07 14:19:00,69.3,19.7,29.89,SSE,158,2.0,4.5,15,0.00,,---,0.00,VWS V14.01,2013-03-07 21:19:00,
2013-03-07 14:20:00,69.5,19.9,29.89,SSW,202,2.0,2.0,15,0.00,,---,0.00,VWS V14.01,2013-03-07 21:20:00,
2013-03-07 14:21:00,69.7,20.0,29.89,South,180,2.0,2.0,15,0.00,,---,0.00,VWS V14.01,2013-03-07 21:21:00,
2013-03-07 14:22:00,67.9,18.6,29.91,SSW,202,4.0,4.0,15,0.00,,---,0.00,VWS V14.01,2013-03-07 21:22:00,
2013-03-07 14:23:00,69.7,20.0,29.89,SSW,202,4.7,4.7,15,0.00,,---,0.00,VWS V14.01,2013-03-07 21:23:00,
2013-03-07 14:24:00,69.7,20.0,29.89,SSW,202,5.1,5.1,15,0.00,,---,0.00,VWS V14.01,2013-03-07 21:24:00,
2013-03-07 14:25:00,69.5,19.9,29.89,South,180,0.9,5.1,15,0.00,,---,0.00,VWS V14.01,2013-03-07 21:25:00,
2013-03-07 14:26:00,69.5,19.9,29.89,WSW,248,6.0,6.0,15,0.00,,---,0.00,VWS V14.01,2013-03-07 21:26:00,
2013-03-07 14:27:00,68.6,19.1,29.90,SSE,158,6.9,6.9,15,0.00,,---,0.00,VWS V14.01,2013-03-07 21:27:00,
2013-03-07 14:28:00,69.3,19.7,29.89,SSW,202,3.4,11.2,15,0.00,,---,0.00,VWS V14.01,2013-03-07 21:28:00,
2013-03-07 14:29:00,69.3,19.7,29.89,SW,225,4.7,4.7,15,0.00,,---,0.00,VWS V14.01,2013-03-07 21:29:00,
2013-03-07 14:30:00,69.1,19.5,29.89,South,180,2.5,4.7,15,0.00,,---,0.00,VWS V14.01,2013-03-07 21:30:00,
2013-03-07 14:31:00,69.1,19.5,29.89,SSW,202,4.5,4.5,15,0.00,,---,0.00,VWS V14.01,2013-03-07 21:31:00,
2013-03-07 14:32:00,67.7,19.9,29.90,SSW,202,4.0,4.0,16,0.00,,---,0.00,VWS V14.01,2013-03-07 21:32:00,
2013-03-07 14:33:00,69.1,19.5,29.89,SSE,158,6.0,6.0,15,0.00,,---,0.00,VWS V14.01,2013-03-07 21:33:00,
2013-03-07 14:34:00,69.1,19.5,29.89,ESE,112,3.8,6.0,15,0.00,,---,0.00,VWS V14.01,2013-03-07 21:34:00,
2013-03-07 14:35:00,69.3,19.7,29.89,South,180,4.3,4.3,15,0.00,,---,0.00,VWS V14.01,2013-03-07 21:35:00,
2013-03-07 14:36:00,69.5,19.9,29.89,South,180,5.4,5.4,15,0.00,,---,0.00,VWS V14.01,2013-03-07 21:36:00,
2013-03-07 14:37:00,67.9,18.6,29.90,SSW,202,4.0,4.0,15,0.00,,---,0.00,VWS V14.01,2013-03-07 21:37:00,
2013-03-07 14:38:00,69.8,20.1,29.89,SSE,158,4.0,5.1,15,0.00,,---,0.00,VWS V14.01,2013-03-07 21:38:00,
2013-03-07 14:39:00,69.8,20.1,29.88,SW,225,2.7,4.0,15,0.00,,---,0.00,VWS V14.01,2013-03-07 21:39:00,
2013-03-07 14:40:00,69.7,20.0,29.88,SW,225,5.4,5.4,15,0.00,,---,0.00,VWS V14.01,2013-03-07 21:40:00,
2013-03-07 14:41:00,69.5,19.9,29.89,South,180,7.2,7.2,15,0.00,,---,0.00,VWS V14.01,2013-03-07 21:41:00,
2013-03-07 14:42:00,69.3,21.2,29.89,SSE,158,2.5,7.2,16,0.00,,---,0.00,VWS V14.01,2013-03-07 21:42:00,
2013-03-07 14:43:00,67.5,18.3,29.90,SW,225,4.0,4.0,15,0.00,,---,0.00,VWS V14.01,2013-03-07 21:43:00,
2013-03-07 14:44:00,69.5,19.9,29.88,SSE,158,4.5,4.5,15,0.00,,---,0.00,VWS V14.01,2013-03-07 21:44:00,
2013-03-07 14:45:00,69.5,19.9,29.88,SE,135,5.8,5.8,15,0.00,,---,0.00,VWS V14.01,2013-03-07 21:45:00,
2013-03-07 14:46:00,69.3,19.7,29.88,SSE,158,4.0,5.8,15,0.00,,---,0.00,VWS V14.01,2013-03-07 21:46:00,
2013-03-07 14:47:00,69.3,19.7,29.88,SSE,158,2.5,4.0,15,0.00,,---,0.00,VWS V14.01,2013-03-07 21:47:00,
2013-03-07 14:48:00,67.9,18.6,29.90,SW,225,2.5,2.5,15,0.00,,---,0.00,VWS V14.01,2013-03-07 21:48:00,
2013-03-07 14:49:00,69.7,20.0,29.88,South,180,4.7,4.7,15,0.00,,---,0.00,VWS V14.01,2013-03-07 21:49:00,
2013-03-07 14:50:00,69.7,20.0,29.88,South,180,3.8,4.7,15,0.00,,---,0.00,VWS V14.01,2013-03-07 21:50:00,
2013-03-07 14:51:00,69.7,20.0,29.88,South,180,2.5,3.8,15,0.00,,---,0.00,VWS V14.01,2013-03-07 21:51:00,
2013-03-07 14:52:00,69.8,20.1,29.88,SSE,158,4.0,4.0,15,0.00,,---,0.00,VWS V14.01,2013-03-07 21:52:00,
2013-03-07 14:53:00,68.0,18.7,29.89,SSE,158,3.8,3.8,15,0.00,,---,0.00,VWS V14.01,2013-03-07 21:53:00,
2013-03-07 14:54:00,69.8,20.1,29.88,SSW,202,3.4,5.4,15,0.00,,---,0.00,VWS V14.01,2013-03-07 21:54:00,
2013-03-07 14:55:00,69.8,20.1,29.88,SW,225,6.9,6.9,15,0.00,,---,0.00,VWS V14.01,2013-03-07 21:55:00,
2013-03-07 14:56:00,69.7,20.0,29.88,South,180,1.8,6.9,15,0.00,,---,0.00,VWS V14.01,2013-03-07 21:56:00,
2013-03-07 14:57:00,69.8,20.1,29.88,South,180,1.8,1.8,15,0.00,,---,0.00,VWS V14.01,2013-03-07 21:57:00,
2013-03-07 14:58:00,68.2,18.8,29.89,SW,225,3.8,3.8,15,0.00,,---,0.00,VWS V14.01,2013-03-07 21:58:00,
2013-03-07 14:59:00,69.8,20.1,29.88,SE,135,4.7,4.7,15,0.00,,---,0.00,VWS V14.01,2013-03-07 21:59:00,
2013-03-07 15:01:00,69.8,20.1,29.88,South,180,2.0,4.5,15,0.00,,---,0.00,VWS V14.01,2013-03-07 22:01:00,
2013-03-07 15:02:00,69.8,20.1,29.88,ESE,112,1.8,2.0,15,0.00,,---,0.00,VWS V14.01,2013-03-07 22:02:00,
2013-03-07 15:03:00,68.2,18.8,29.89,SW,225,5.6,5.6,15,0.00,,---,0.00,VWS V14.01,2013-03-07 22:03:00,
2013-03-07 15:04:00,70.2,20.4,29.88,South,180,3.1,3.1,15,0.00,,---,0.00,VWS V14.01,2013-03-07 22:04:00,
2013-03-07 15:05:00,70.2,20.4,29.88,SSE,158,1.8,3.1,15,0.00,,---,0.00,VWS V14.01,2013-03-07 22:05:00,
2013-03-07 15:06:00,70.2,20.4,29.88,SSW,202,1.1,1.8,15,0.00,,---,0.00,VWS V14.01,2013-03-07 22:06:00,
2013-03-07 15:07:00,70.2,20.4,29.88,West,270,1.8,1.8,15,0.00,,---,0.00,VWS V14.01,2013-03-07 22:07:00,
2013-03-07 15:08:00,68.0,20.2,29.89,SSE,158,4.0,4.0,16,0.00,,---,0.00,VWS V14.01,2013-03-07 22:08:00,
2013-03-07 15:09:00,70.4,20.6,29.88,SSE,158,2.2,2.2,15,0.00,,---,0.00,VWS V14.01,2013-03-07 22:09:00,
2013-03-07 15:10:00,70.6,20.7,29.88,South,180,3.6,3.6,15,0.00,,---,0.00,VWS V14.01,2013-03-07 22:10:00,
2013-03-07 15:11:00,70.7,20.8,29.88,South,180,0.9,3.6,15,0.00,,---,0.00,VWS V14.01,2013-03-07 22:11:00,
2013-03-07 15:12:00,70.7,20.8,29.88,SW,225,3.4,3.4,15,0.00,,---,0.00,VWS V14.01,2013-03-07 22:12:00,
2013-03-07 15:13:00,68.8,19.3,29.89,SSW,202,9.8,9.8,15,0.00,,---,0.00,VWS V14.01,2013-03-07 22:13:00,
2013-03-07 15:14:00,70.6,19.1,29.88,South,180,5.8,5.8,14,0.00,,---,0.00,VWS V14.01,2013-03-07 22:14:00,
2013-03-07 15:15:00,70.6,19.1,29.88,South,180,3.1,5.8,14,0.00,,---,0.00,VWS V14.01,2013-03-07 22:15:00,
2013-03-07 15:16:00,70.2,20.4,29.88,SE,135,2.2,3.1,15,0.00,,---,0.00,VWS V14.01,2013-03-07 22:16:00,
2013-03-07 15:17:00,70.2,20.4,29.88,SSE,158,3.4,3.4,15,0.00,,---,0.00,VWS V14.01,2013-03-07 22:17:00,
2013-03-07 15:18:00,68.8,19.3,29.89,South,180,5.6,5.6,15,0.00,,---,0.00,VWS V14.01,2013-03-07 22:18:00,
2013-03-07 15:19:00,70.2,20.4,29.88,SSE,158,3.4,3.4,15,0.00,,---,0.00,VWS V14.01,2013-03-07 22:19:00,
2013-03-07 15:20:00,70.2,20.4,29.88,SSW,202,5.8,5.8,15,0.00,,---,0.00,VWS V14.01,2013-03-07 22:20:00,
2013-03-07 15:21:00,69.8,20.1,29.88,SW,225,2.5,5.8,15,0.00,,---,0.00,VWS V14.01,2013-03-07 22:21:00,
2013-03-07 15:22:00,69.8,20.1,29.88,SW,225,4.0,4.0,15,0.00,,---,0.00,VWS V14.01,2013-03-07 22:22:00,
2013-03-07 15:23:00,69.8,20.1,29.89,SW,225,3.8,3.8,15,0.00,,---,0.00,VWS V14.01,2013-03-07 22:23:00,
2013-03-07 15:24:00,69.8,20.1,29.87,SSW,202,2.7,2.7,15,0.00,,---,0.00,VWS V14.01,2013-03-07 22:24:00,
2013-03-07 15:25:00,70.0,20.3,29.88,SSE,158,2.0,2.7,15,0.00,,---,0.00,VWS V14.01,2013-03-07 22:25:00,
2013-03-07 15:26:00,70.2,20.4,29.88,SSW,202,1.1,2.0,15,0.00,,---,0.00,VWS V14.01,2013-03-07 22:26:00,
2013-03-07 15:27:00,70.4,20.6,29.88,SSW,202,4.9,4.9,15,0.00,,---,0.00,VWS V14.01,2013-03-07 22:27:00,
2013-03-07 15:28:00,69.5,19.9,29.89,SSW,202,11.2,11.2,15,0.00,,---,0.00,VWS V14.01,2013-03-07 22:28:00,
2013-03-07 15:29:00,69.8,20.1,29.87,WSW,248,2.9,4.7,15,0.00,,---,0.00,VWS V14.01,2013-03-07 22:29:00,
2013-03-07 15:30:00,69.8,20.1,29.87,WSW,248,1.8,2.9,15,0.00,,---,0.00,VWS V14.01,2013-03-07 22:30:00,
2013-03-07 15:31:00,70.2,20.4,29.87,SW,225,1.8,1.8,15,0.00,,---,0.00,VWS V14.01,2013-03-07 22:31:00,
2013-03-07 15:32:00,70.6,20.7,29.87,SSW,202,3.4,3.4,15,0.00,,---,0.00,VWS V14.01,2013-03-07 22:32:00,
2013-03-07 15:33:00,69.1,19.5,29.89,SSE,158,2.7,2.7,15,0.00,,---,0.00,VWS V14.01,2013-03-07 22:33:00,
2013-03-07 15:34:00,70.7,20.8,29.87,South,180,1.8,4.0,15,0.00,,---,0.00,VWS V14.01,2013-03-07 22:34:00,
2013-03-07 15:35:00,70.9,21.0,29.87,SSE,158,5.4,5.4,15,0.00,,---,0.00,VWS V14.01,2013-03-07 22:35:00,
2013-03-07 15:36:00,70.9,21.0,29.87,SE,135,2.9,5.4,15,0.00,,---,0.00,VWS V14.01,2013-03-07 22:36:00,
2013-03-07 15:37:00,70.9,21.0,29.87,SSE,158,4.0,4.0,15,0.00,,---,0.00,VWS V14.01,2013-03-07 22:37:00,
2013-03-07 15:38:00,69.7,20.0,29.89,SSE,158,5.1,5.1,15,0.00,,---,0.00,VWS V14.01,2013-03-07 22:38:00,
2013-03-07 15:39:00,71.1,21.1,29.87,SSE,158,2.5,2.5,15,0.00,,---,0.00,VWS V14.01,2013-03-07 22:39:00,
2013-03-07 15:40:00,71.3,18.0,29.87,SSE,158,3.8,3.8,13,0.00,,---,0.00,VWS V14.01,2013-03-07 22:40:00,
2013-03-07 15:41:00,71.3,18.0,29.87,SE,135,2.5,3.8,13,0.00,,---,0.00,VWS V14.01,2013-03-07 22:41:00,
2013-03-07 15:42:00,71.3,18.0,29.87,South,180,1.8,2.5,13,0.00,,---,0.00,VWS V14.01,2013-03-07 22:42:00,
2013-03-07 15:43:00,69.3,21.2,29.89,SSE,158,2.5,2.5,16,0.00,,---,0.00,VWS V14.01,2013-03-07 22:43:00,
2013-03-07 15:44:00,71.6,18.2,29.87,SSE,158,3.4,3.4,13,0.00,,---,0.00,VWS V14.01,2013-03-07 22:44:00,
2013-03-07 15:45:00,71.6,18.2,29.87,SE,135,3.6,3.6,13,0.00,,---,0.00,VWS V14.01,2013-03-07 22:45:00,
2013-03-07 15:46:00,71.6,18.2,29.87,SSE,158,4.9,4.9,13,0.00,,---,0.00,VWS V14.01,2013-03-07 22:46:00,
2013-03-07 15:47:00,71.5,18.1,29.87,SSE,158,2.5,4.9,13,0.00,,---,0.00,VWS V14.01,2013-03-07 22:47:00,
2013-03-07 15:48:00,69.3,19.7,29.88,SSE,158,2.5,2.5,15,0.00,,---,0.00,VWS V14.01,2013-03-07 22:48:00,
2013-03-07 15:49:00,71.3,18.0,29.87,South,180,2.5,3.1,13,0.00,,---,0.00,VWS V14.01,2013-03-07 22:49:00,
2013-03-07 15:50:00,71.3,18.0,29.87,SSE,158,2.5,2.5,13,0.00,,---,0.00,VWS V14.01,2013-03-07 22:50:00,
2013-03-07 15:51:00,71.3,19.7,29.87,SSE,158,0.7,2.5,14,0.00,,---,0.00,VWS V14.01,2013-03-07 22:51:00,
2013-03-07 15:52:00,71.3,19.7,29.87,SSE,158,1.1,1.1,14,0.00,,---,0.00,VWS V14.01,2013-03-07 22:52:00,
2013-03-07 15:53:00,69.8,20.1,29.88,SSE,158,4.0,4.0,15,0.00,,---,0.00,VWS V14.01,2013-03-07 22:53:00,
2013-03-07 15:54:00,71.3,18.0,29.87,South,180,2.5,2.5,13,0.00,,---,0.00,VWS V14.01,2013-03-07 22:54:00,
2013-03-07 15:55:00,71.1,17.8,29.87,SSW,202,2.7,2.7,13,0.00,,---,0.00,VWS V14.01,2013-03-07 22:55:00,
2013-03-07 15:56:00,70.9,17.6,29.87,SW,225,2.9,2.9,13,0.00,,---,0.00,VWS V14.01,2013-03-07 22:56:00,
2013-03-07 15:57:00,70.9,17.6,29.87,SW,225,3.4,3.4,13,0.00,,---,0.00,VWS V14.01,2013-03-07 22:57:00,
2013-03-07 15:58:00,69.8,20.1,29.88,South,180,1.8,1.8,15,0.00,,---,0.00,VWS V14.01,2013-03-07 22:58:00,
2013-03-07 15:59:00,70.6,20.7,29.87,SW,225,1.8,1.8,15,0.00,,---,0.00,VWS V14.01,2013-03-07 22:59:00,
2013-03-07 16:00:00,70.6,20.7,29.87,SSW,202,2.7,2.7,15,0.00,,---,0.00,VWS V14.01,2013-03-07 23:00:00,
2013-03-07 16:01:00,70.6,19.1,29.87,South,180,3.4,3.4,14,0.00,,---,0.00,VWS V14.01,2013-03-07 23:01:00,
2013-03-07 16:02:00,70.4,19.0,29.87,South,180,1.1,3.4,14,0.00,,---,0.00,VWS V14.01,2013-03-07 23:02:00,
2013-03-07 16:03:00,69.8,20.1,29.88,ESE,112,1.8,1.8,15,0.00,,---,0.00,VWS V14.01,2013-03-07 23:03:00,
2013-03-07 16:04:00,70.6,19.1,29.87,SSE,158,1.1,1.8,14,0.00,,---,0.00,VWS V14.01,2013-03-07 23:04:00,
2013-03-07 16:05:00,70.7,19.2,29.87,SSE,158,1.1,1.1,14,0.00,,---,0.00,VWS V14.01,2013-03-07 23:05:00,
2013-03-07 16:06:00,70.7,19.2,29.87,South,180,1.6,1.6,14,0.00,,---,0.00,VWS V14.01,2013-03-07 23:06:00,
2013-03-07 16:07:00,70.4,19.0,29.86,SSE,158,3.6,3.6,14,0.00,,---,0.00,VWS V14.01,2013-03-07 23:07:00,
2013-03-07 16:08:00,70.2,20.4,29.88,West,270,1.8,1.8,15,0.00,,---,0.00,VWS V14.01,2013-03-07 23:08:00,
2013-03-07 16:09:00,69.5,18.2,29.86,SSW,202,2.5,2.7,14,0.00,,---,0.00,VWS V14.01,2013-03-07 23:09:00,
2013-03-07 16:10:00,68.9,19.4,29.86,SE,135,4.3,4.3,15,0.00,,---,0.00,VWS V14.01,2013-03-07 23:10:00,
2013-03-07 16:11:00,68.8,19.3,29.86,SSW,202,2.5,4.3,15,0.00,,---,0.00,VWS V14.01,2013-03-07 23:11:00,
2013-03-07 16:12:00,68.4,19.0,29.87,SSW,202,3.4,3.4,15,0.00,,---,0.00,VWS V14.01,2013-03-07 23:12:00,
2013-03-07 16:13:00,70.7,20.8,29.88,SW,225,3.4,3.4,15,0.00,,---,0.00,VWS V14.01,2013-03-07 23:13:00,
2013-03-07 16:14:00,68.0,18.7,29.86,South,180,1.8,2.5,15,0.00,,---,0.00,VWS V14.01,2013-03-07 23:14:00,
2013-03-07 16:15:00,67.7,18.4,29.86,South,180,2.5,2.5,15,0.00,,---,0.00,VWS V14.01,2013-03-07 23:15:00,
2013-03-07 16:16:00,67.7,18.4,29.86,South,180,1.6,2.5,15,0.00,,---,0.00,VWS V14.01,2013-03-07 23:16:00,
2013-03-07 16:17:00,67.5,18.3,29.86,SSE,158,1.8,1.8,15,0.00,,---,0.00,VWS V14.01,2013-03-07 23:17:00,
2013-03-07 16:18:00,70.2,20.4,29.88,SSE,158,3.4,3.4,15,0.00,,---,0.00,VWS V14.01,2013-03-07 23:18:00,
2013-03-07 16:19:00,67.7,19.9,29.86,South,180,1.3,1.3,16,0.00,,---,0.00,VWS V14.01,2013-03-07 23:19:00,
2013-03-07 16:20:00,67.7,18.4,29.86,South,180,1.1,1.3,15,0.00,,---,0.00,VWS V14.01,2013-03-07 23:20:00,
2013-03-07 16:21:00,67.9,18.6,29.86,SE,135,3.4,3.4,15,0.00,,---,0.00,VWS V14.01,2013-03-07 23:21:00,
2013-03-07 16:22:00,68.0,18.7,29.86,SE,135,1.1,3.4,15,0.00,,---,0.00,VWS V14.01,2013-03-07 23:22:00,
2013-03-07 16:23:00,69.8,20.1,29.88,SW,225,4.0,4.0,15,0.00,,---,0.00,VWS V14.01,2013-03-07 23:23:00,
2013-03-07 16:24:00,68.4,19.0,29.86,SE,135,1.1,1.3,15,0.00,,---,0.00,VWS V14.01,2013-03-07 23:24:00,
2013-03-07 16:25:00,68.4,19.0,29.86,SSE,158,0.7,1.1,15,0.00,,---,0.00,VWS V14.01,2013-03-07 23:25:00,
2013-03-07 16:26:00,68.4,19.0,29.86,SSE,158,1.1,1.1,15,0.00,,---,0.00,VWS V14.01,2013-03-07 23:26:00,
2013-03-07 16:27:00,68.4,19.0,29.86,ESE,112,0.9,1.1,15,0.00,,---,0.00,VWS V14.01,2013-03-07 23:27:00,
2013-03-07 16:28:00,70.4,20.6,29.88,SSW,202,4.9,4.9,15,0.00,,---,0.00,VWS V14.01,2013-03-07 23:28:00,
2013-03-07 16:29:00,68.4,19.0,29.86,SE,135,1.3,2.9,15,0.00,,---,0.00,VWS V14.01,2013-03-07 23:29:00,
2013-03-07 16:30:00,68.6,19.1,29.86,SSE,158,1.3,1.3,15,0.00,,---,0.00,VWS V14.01,2013-03-07 23:30:00,
2013-03-07 16:31:00,68.8,19.3,29.86,SSE,158,1.3,1.3,15,0.00,,---,0.00,VWS V14.01,2013-03-07 23:31:00,
2013-03-07 16:32:00,68.6,15.8,29.86,SSE,158,3.1,3.1,13,0.00,,---,0.00,VWS V14.01,2013-03-07 23:32:00,
2013-03-07 16:33:00,70.6,20.7,29.87,SSW,202,3.4,3.4,15,0.00,,---,0.00,VWS V14.01,2013-03-07 23:33:00,
2013-03-07 16:34:00,68.4,19.0,29.86,SSE,158,2.5,4.9,15,0.00,,---,0.00,VWS V14.01,2013-03-07 23:34:00,
2013-03-07 16:35:00,68.0,17.1,29.86,SSW,202,3.6,3.6,14,0.00,,---,0.00,VWS V14.01,2013-03-07 23:35:00,
2013-03-07 16:36:00,67.9,18.6,29.86,SSW,202,4.5,4.5,15,0.00,,---,0.00,VWS V14.01,2013-03-07 23:36:00,
2013-03-07 16:37:00,67.7,18.4,29.86,SE,135,1.8,4.5,15,0.00,,---,0.00,VWS V14.01,2013-03-07 23:37:00,
2013-03-07 16:38:00,70.9,21.0,29.87,SSE,158,4.0,4.0,15,0.00,,---,0.00,VWS V14.01,2013-03-07 23:38:00,
2013-03-07 16:39:00,67.5,18.3,29.86,SSE,158,3.6,3.6,15,0.00,,---,0.00,VWS V14.01,2013-03-07 23:39:00,
2013-03-07 16:40:00,67.3,18.1,29.86,SSE,158,4.0,4.0,15,0.00,,---,0.00,VWS V14.01,2013-03-07 23:40:00,
2013-03-07 16:41:00,67.3,18.1,29.86,SSE,158,1.8,4.0,15,0.00,,---,0.00,VWS V14.01,2013-03-07 23:41:00,
2013-03-07 16:42:00,67.3,18.1,29.86,SSE,158,2.7,2.7,15,0.00,,---,0.00,VWS V14.01,2013-03-07 23:42:00,
2013-03-07 16:43:00,71.3,18.0,29.87,South,180,1.8,1.8,13,0.00,,---,0.00,VWS V14.01,2013-03-07 23:43:00,
2013-03-07 16:44:00,67.1,17.9,29.86,SSE,158,4.9,4.9,15,0.00,,---,0.00,VWS V14.01,2013-03-07 23:44:00,
2013-03-07 16:45:00,67.0,17.9,29.86,SSE,158,3.4,4.9,15,0.00,,---,0.00,VWS V14.01,2013-03-07 23:45:00,
2013-03-07 16:46:00,67.0,17.9,29.86,SSE,158,2.0,3.4,15,0.00,,---,0.00,VWS V14.01,2013-03-07 23:46:00,
2013-03-07 16:47:00,67.0,17.9,29.86,SSE,158,1.1,2.0,15,0.00,,---,0.00,VWS V14.01,2013-03-07 23:47:00,
2013-03-07 16:48:00,71.5,18.1,29.87,SSE,158,2.5,2.5,13,0.00,,---,0.00,VWS V14.01,2013-03-07 23:48:00,
2013-03-07 16:49:00,67.0,17.9,29.86,SSE,158,3.1,3.1,15,0.00,,---,0.00,VWS V14.01,2013-03-07 23:49:00,
2013-03-07 16:50:00,67.0,17.9,29.86,SSE,158,2.2,3.1,15,0.00,,---,0.00,VWS V14.01,2013-03-07 23:50:00,
2013-03-07 16:51:00,67.0,17.9,29.86,SSE,158,1.3,2.2,15,0.00,,---,0.00,VWS V14.01,2013-03-07 23:51:00,
2013-03-07 16:52:00,67.0,17.9,29.86,SSE,158,1.8,1.8,15,0.00,,---,0.00,VWS V14.01,2013-03-07 23:52:00,
2013-03-07 16:53:00,71.3,19.7,29.87,SSE,158,1.1,1.1,14,0.00,,---,0.00,VWS V14.01,2013-03-07 23:53:00,
2013-03-07 16:54:00,66.8,17.7,29.86,SSE,158,0.9,1.3,15,0.00,,---,0.00,VWS V14.01,2013-03-07 23:54:00,
2013-03-07 16:55:00,66.8,17.7,29.86,South,180,1.8,1.8,15,0.00,,---,0.00,VWS V14.01,2013-03-07 23:55:00,
2013-03-07 16:56:00,66.6,17.5,29.86,SSE,158,0.9,1.8,15,0.00,,---,0.00,VWS V14.01,2013-03-07 23:56:00,
2013-03-07 16:57:00,66.6,17.5,29.86,SE,135,1.6,1.6,15,0.00,,---,0.00,VWS V14.01,2013-03-07 23:57:00,
2013-03-07 16:58:00,70.9,17.6,29.87,SW,225,3.4,3.4,13,0.00,,---,0.00,VWS V14.01,2013-03-07 23:58:00,
2013-03-07 16:59:00,66.2,17.2,29.86,SSE,158,1.1,2.2,15,0.00,,---,0.00,VWS V14.01,2013-03-07 23:59:00,
2013-03-07 17:00:00,66.2,17.2,29.86,SSE,158,1.1,1.1,15,0.00,,---,0.00,VWS V14.01,2013-03-08 00:00:00,
2013-03-07 17:01:00,66.2,17.2,29.86,SSE,158,0.4,1.1,15,0.00,,---,0.00,VWS V14.01,2013-03-08 00:01:00,
2013-03-07 17:02:00,66.1,17.1,29.86,SE,135,0.4,0.4,15,0.00,,---,0.00,VWS V14.01,2013-03-08 00:02:00,
2013-03-07 17:03:00,70.6,19.1,29.87,SSE,158,1.8,1.8,14,0.00,,---,0.00,VWS V14.01,2013-03-08 00:03:00,
2013-03-07 17:04:00,65.9,17.0,29.86,SE,135,0.0,0.4,15,0.00,,---,0.00,VWS V14.01,2013-03-08 00:04:00,
2013-03-07 17:05:00,65.9,17.0,29.86,SSE,158,0.4,0.4,15,0.00,,---,0.00,VWS V14.01,2013-03-08 00:05:00,
2013-03-07 17:06:00,65.9,17.0,29.86,SE,135,1.8,1.8,15,0.00,,---,0.00,VWS V14.01,2013-03-08 00:06:00,
2013-03-07 17:07:00,65.7,16.8,29.86,SE,135,0.4,1.8,15,0.00,,---,0.00,VWS V14.01,2013-03-08 00:07:00,
2013-03-07 17:08:00,70.4,19.0,29.86,SSE,158,3.6,3.6,14,0.00,,---,0.00,VWS V14.01,2013-03-08 00:08:00,
2013-03-07 17:09:00,65.5,16.7,29.86,SSE,158,1.8,1.8,15,0.00,,---,0.00,VWS V14.01,2013-03-08 00:09:00,
2013-03-07 17:10:00,65.3,16.5,29.86,SSE,158,3.8,3.8,15,0.00,,---,0.00,VWS V14.01,2013-03-08 00:10:00,
2013-03-07 17:11:00,65.3,16.5,29.86,South,180,1.8,3.8,15,0.00,,---,0.00,VWS V14.01,2013-03-08 00:11:00,
2013-03-07 17:12:00,65.3,16.5,29.86,SSE,158,1.8,1.8,15,0.00,,---,0.00,VWS V14.01,2013-03-08 00:12:00,
2013-03-07 17:13:00,68.4,19.0,29.87,SSW,202,3.4,3.4,15,0.00,,---,0.00,VWS V14.01,2013-03-08 00:13:00,
2013-03-07 17:14:00,65.2,16.4,29.86,SSE,158,2.7,4.0,15,0.00,,---,0.00,VWS V14.01,2013-03-08 00:14:00,
2013-03-07 17:15:00,65.2,16.4,29.86,SSE,158,2.0,2.7,15,0.00,,---,0.00,VWS V14.01,2013-03-08 00:15:00,
2013-03-07 17:16:00,65.2,16.4,29.86,SSE,158,1.8,2.0,15,0.00,,---,0.00,VWS V14.01,2013-03-08 00:16:00,
2013-03-07 17:17:00,65.2,16.4,29.86,SSE,158,1.6,1.8,15,0.00,,---,0.00,VWS V14.01,2013-03-08 00:17:00,
2013-03-07 17:18:00,67.5,18.3,29.86,SSE,158,1.8,1.8,15,0.00,,---,0.00,VWS V14.01,2013-03-08 00:18:00,
2013-03-07 17:19:00,65.0,16.3,29.86,SSE,158,1.6,1.8,15,0.00,,---,0.00,VWS V14.01,2013-03-08 00:19:00,
2013-03-07 17:20:00,64.8,16.1,29.86,SSE,158,0.9,1.6,15,0.00,,---,0.00,VWS V14.01,2013-03-08 00:20:00,
2013-03-07 17:21:00,64.8,16.1,29.86,SE,135,1.8,1.8,15,0.00,,---,0.00,VWS V14.01,2013-03-08 00:21:00,
2013-03-07 17:22:00,64.6,15.9,29.86,SSE,158,2.0,2.0,15,0.00,,---,0.00,VWS V14.01,2013-03-08 00:22:00,
2013-03-07 17:23:00,68.0,18.7,29.86,SE,135,1.1,1.1,15,0.00,,---,0.00,VWS V14.01,2013-03-08 00:23:00,
2013-03-07 17:24:00,64.6,15.9,29.86,SE,135,1.3,2.5,15,0.00,,---,0.00,VWS V14.01,2013-03-08 00:24:00,
2013-03-07 17:25:00,64.4,15.8,29.86,SE,135,2.2,2.2,15,0.00,,---,0.00,VWS V14.01,2013-03-08 00:25:00,
2013-03-07 17:26:00,64.4,15.8,29.86,South,180,1.8,2.2,15,0.00,,---,0.00,VWS V14.01,2013-03-08 00:26:00,
2013-03-07 17:27:00,64.4,15.8,29.86,SSE,158,1.6,1.8,15,0.00,,---,0.00,VWS V14.01,2013-03-08 00:27:00,
2013-03-07 17:28:00,68.4,19.0,29.86,ESE,112,0.9,0.9,15,0.00,,---,0.00,VWS V14.01,2013-03-08 00:28:00,
2013-03-07 17:29:00,64.3,15.7,29.86,SSE,158,1.6,3.4,15,0.00,,---,0.00,VWS V14.01,2013-03-08 00:29:00,
2013-03-07 17:30:00,64.1,15.5,29.86,SSE,158,2.0,2.0,15,0.00,,---,0.00,VWS V14.01,2013-03-08 00:30:00,
2013-03-07 17:31:00,64.1,15.5,29.86,SE,135,2.7,2.7,15,0.00,,---,0.00,VWS V14.01,2013-03-08 00:31:00,
2013-03-07 17:32:00,64.1,17.0,29.86,SE,135,1.1,2.7,16,0.00,,---,0.00,VWS V14.01,2013-03-08 00:32:00,
2013-03-07 17:33:00,68.6,15.8,29.86,SSE,158,3.1,3.1,13,0.00,,---,0.00,VWS V14.01,2013-03-08 00:33:00,
2013-03-07 17:34:00,63.9,16.9,29.87,SSE,158,2.2,2.2,16,0.00,,---,0.00,VWS V14.01,2013-03-08 00:34:00,
2013-03-07 17:35:00,63.9,16.9,29.87,South,180,1.6,2.2,16,0.00,,---,0.00,VWS V14.01,2013-03-08 00:35:00,
2013-03-07 17:36:00,63.7,16.7,29.87,SE,135,1.8,1.8,16,0.00,,---,0.00,VWS V14.01,2013-03-08 00:36:00,
2013-03-07 17:37:00,63.7,16.7,29.87,SSE,158,1.1,1.8,16,0.00,,---,0.00,VWS V14.01,2013-03-08 00:37:00,
2013-03-07 17:38:00,67.7,18.4,29.86,SE,135,1.8,1.8,15,0.00,,---,0.00,VWS V14.01,2013-03-08 00:38:00,
2013-03-07 17:39:00,63.7,16.7,29.87,SE,135,1.1,1.1,16,0.00,,---,0.00,VWS V14.01,2013-03-08 00:39:00,
2013-03-07 17:40:00,63.5,16.5,29.87,SSE,158,2.5,2.5,16,0.00,,---,0.00,VWS V14.01,2013-03-08 00:40:00,
2013-03-07 17:41:00,63.5,16.5,29.87,SSE,158,2.0,2.5,16,0.00,,---,0.00,VWS V14.01,2013-03-08 00:41:00,
2013-03-07 17:42:00,63.5,16.5,29.87,SSE,158,2.2,2.2,16,0.00,,---,0.00,VWS V14.01,2013-03-08 00:42:00,
2013-03-07 17:43:00,67.3,18.1,29.86,SSE,158,2.7,2.7,15,0.00,,---,0.00,VWS V14.01,2013-03-08 00:43:00,
2013-03-07 17:44:00,63.4,16.5,29.87,SSE,158,1.8,3.4,16,0.00,,---,0.00,VWS V14.01,2013-03-08 00:44:00,
2013-03-07 17:45:00,63.4,16.5,29.87,SSE,158,1.1,1.8,16,0.00,,---,0.00,VWS V14.01,2013-03-08 00:45:00,
2013-03-07 17:46:00,63.2,16.3,29.87,SSE,158,2.5,2.5,16,0.00,,---,0.00,VWS V14.01,2013-03-08 00:46:00,
2013-03-07 17:47:00,63.2,16.3,29.87,SE,135,2.0,2.5,16,0.00,,---,0.00,VWS V14.01,2013-03-08 00:47:00,
2013-03-07 17:48:00,67.0,17.9,29.86,SSE,158,1.1,1.1,15,0.00,,---,0.00,VWS V14.01,2013-03-08 00:48:00,
2013-03-07 17:49:00,63.0,16.1,29.87,SSE,158,1.6,1.8,16,0.00,,---,0.00,VWS V14.01,2013-03-08 00:49:00,
2013-03-07 17:50:00,63.0,16.1,29.87,SE,135,1.3,1.6,16,0.00,,---,0.00,VWS V14.01,2013-03-08 00:50:00,
2013-03-07 17:51:00,63.0,16.1,29.87,SSE,158,1.1,1.3,16,0.00,,---,0.00,VWS V14.01,2013-03-08 00:51:00,
2013-03-07 17:52:00,62.8,16.0,29.87,SSE,158,2.5,2.5,16,0.00,,---,0.00,VWS V14.01,2013-03-08 00:52:00,
2013-03-07 17:53:00,67.0,17.9,29.86,SSE,158,1.8,1.8,15,0.00,,---,0.00,VWS V14.01,2013-03-08 00:53:00,
2013-03-07 17:54:00,62.8,16.0,29.87,SSE,158,0.4,1.1,16,0.00,,---,0.00,VWS V14.01,2013-03-08 00:54:00,
2013-03-07 17:55:00,62.8,16.0,29.87,SSE,158,1.3,1.3,16,0.00,,---,0.00,VWS V14.01,2013-03-08 00:55:00,
2013-03-07 17:56:00,62.6,15.8,29.87,SSE,158,2.2,2.2,16,0.00,,---,0.00,VWS V14.01,2013-03-08 00:56:00,
2013-03-07 17:57:00,62.6,17.2,29.87,SSE,158,2.0,2.2,17,0.00,,---,0.00,VWS V14.01,2013-03-08 00:57:00,
2013-03-07 17:58:00,66.6,17.5,29.86,SE,135,1.6,1.6,15,0.00,,---,0.00,VWS V14.01,2013-03-08 00:58:00,
2013-03-07 17:59:00,62.6,17.2,29.87,SSE,158,2.5,2.5,17,0.00,,---,0.00,VWS V14.01,2013-03-08 00:59:00,
2013-03-07 18:00:00,62.6,17.2,29.87,SSE,158,1.8,2.5,17,0.00,,---,0.00,VWS V14.01,2013-03-08 01:00:00,
2013-03-07 18:01:00,62.6,17.2,29.87,South,180,1.8,1.8,17,0.00,,---,0.00,VWS V14.01,2013-03-08 01:01:00,
2013-03-07 18:02:00,62.5,17.1,29.87,SE,135,1.8,1.8,17,0.00,,---,0.00,VWS V14.01,2013-03-08 01:02:00,
2013-03-07 18:03:00,66.1,17.1,29.86,SE,135,0.4,0.4,15,0.00,,---,0.00,VWS V14.01,2013-03-08 01:03:00,
2013-03-07 18:04:00,62.5,17.1,29.87,SSE,158,2.5,2.5,17,0.00,,---,0.00,VWS V14.01,2013-03-08 01:04:00,
2013-03-07 18:05:00,62.5,17.1,29.87,SE,135,2.5,2.5,17,0.00,,---,0.00,VWS V14.01,2013-03-08 01:05:00,
2013-03-07 18:06:00,62.5,17.1,29.87,SSE,158,3.6,3.6,17,0.00,,---,0.00,VWS V14.01,2013-03-08 01:06:00,
2013-03-07 18:07:00,62.5,17.1,29.87,SSE,158,2.2,3.6,17,0.00,,---,0.00,VWS V14.01,2013-03-08 01:07:00,
2013-03-07 18:08:00,65.5,16.7,29.86,SSE,158,1.3,1.3,15,0.00,,---,0.00,VWS V14.01,2013-03-08 01:08:00,
2013-03-07 18:09:00,62.6,17.2,29.87,SSE,158,5.4,5.4,17,0.00,,---,0.00,VWS V14.01,2013-03-08 01:09:00,
2013-03-07 18:10:00,62.6,17.2,29.87,ENE,68,4.7,5.4,17,0.00,,---,0.00,VWS V14.01,2013-03-08 01:10:00,
2013-03-07 18:11:00,62.6,17.2,29.87,SE,135,3.1,4.7,17,0.00,,---,0.00,VWS V14.01,2013-03-08 01:11:00,
2013-03-07 18:12:00,62.6,17.2,29.87,SE,135,4.3,4.3,17,0.00,,---,0.00,VWS V14.01,2013-03-08 01:12:00,
2013-03-07 18:13:00,65.2,16.4,29.86,South,180,4.0,4.0,15,0.00,,---,0.00,VWS V14.01,2013-03-08 01:13:00,
2013-03-07 18:14:00,62.6,17.2,29.87,SE,135,2.7,3.1,17,0.00,,---,0.00,VWS V14.01,2013-03-08 01:14:00,
2013-03-07 18:15:00,62.5,17.1,29.87,SSE,158,3.1,3.1,17,0.00,,---,0.00,VWS V14.01,2013-03-08 01:15:00,
2013-03-07 18:16:00,62.5,17.1,29.87,SSE,158,3.4,3.4,17,0.00,,---,0.00,VWS V14.01,2013-03-08 01:16:00,
2013-03-07 18:17:00,62.3,17.0,29.87,SSW,202,1.8,3.4,17,0.00,,---,0.00,VWS V14.01,2013-03-08 01:17:00,
2013-03-07 18:18:00,65.0,16.3,29.86,SSE,158,1.8,1.8,15,0.00,,---,0.00,VWS V14.01,2013-03-08 01:18:00,
2013-03-07 18:19:00,62.3,17.0,29.87,ESE,112,2.5,2.9,17,0.00,,---,0.00,VWS V14.01,2013-03-08 01:19:00,
2013-03-07 18:20:00,62.3,17.0,29.87,SE,135,2.7,2.7,17,0.00,,---,0.00,VWS V14.01,2013-03-08 01:20:00,
2013-03-07 18:21:00,62.1,16.8,29.87,SE,135,2.2,2.7,17,0.00,,---,0.00,VWS V14.01,2013-03-08 01:21:00,
2013-03-07 18:22:00,62.1,16.8,29.87,SSE,158,4.9,4.9,17,0.00,,---,0.00,VWS V14.01,2013-03-08 01:22:00,
2013-03-07 18:23:00,64.6,15.9,29.86,SSE,158,2.0,2.0,15,0.00,,---,0.00,VWS V14.01,2013-03-08 01:23:00,
2013-03-07 18:24:00,61.9,16.6,29.87,SSE,158,3.1,5.4,17,0.00,,---,0.00,VWS V14.01,2013-03-08 01:24:00,
2013-03-07 18:25:00,61.9,16.6,29.87,SSE,158,2.5,3.1,17,0.00,,---,0.00,VWS V14.01,2013-03-08 01:25:00,
2013-03-07 18:26:00,61.9,16.6,29.87,SE,135,2.7,2.7,17,0.00,,---,0.00,VWS V14.01,2013-03-08 01:26:00,
2013-03-07 18:27:00,61.7,16.5,29.87,SSE,158,3.8,3.8,17,0.00,,---,0.00,VWS V14.01,2013-03-08 01:27:00,
2013-03-07 18:28:00,64.4,15.8,29.86,SSE,158,1.6,1.6,15,0.00,,---,0.00,VWS V14.01,2013-03-08 01:28:00,
2013-03-07 18:29:00,61.7,16.5,29.87,SSE,158,3.4,4.5,17,0.00,,---,0.00,VWS V14.01,2013-03-08 01:29:00,
2013-03-07 18:30:00,61.7,16.5,29.87,SE,135,3.8,3.8,17,0.00,,---,0.00,VWS V14.01,2013-03-08 01:30:00,
2013-03-07 18:31:00,61.7,16.5,29.87,SSE,158,2.9,3.8,17,0.00,,---,0.00,VWS V14.01,2013-03-08 01:31:00,
2013-03-07 18:32:00,61.7,16.5,29.87,SSE,158,1.8,2.9,17,0.00,,---,0.00,VWS V14.01,2013-03-08 01:32:00,
2013-03-07 18:33:00,64.1,17.0,29.86,SE,135,1.1,1.1,16,0.00,,---,0.00,VWS V14.01,2013-03-08 01:33:00,
2013-03-07 18:34:00,61.7,16.5,29.87,NE,45,4.5,4.5,17,0.00,,---,0.00,VWS V14.01,2013-03-08 01:34:00,
2013-03-07 18:35:00,61.7,16.5,29.87,SSE,158,2.5,4.5,17,0.00,,---,0.00,VWS V14.01,2013-03-08 01:35:00,
2013-03-07 18:36:00,61.7,16.5,29.87,SSE,158,2.9,2.9,17,0.00,,---,0.00,VWS V14.01,2013-03-08 01:36:00,
2013-03-07 18:37:00,61.9,16.6,29.87,SSE,158,3.1,3.1,17,0.00,,---,0.00,VWS V14.01,2013-03-08 01:37:00,
2013-03-07 18:38:00,63.7,16.7,29.87,SSE,158,1.1,1.1,16,0.00,,---,0.00,VWS V14.01,2013-03-08 01:38:00,
2013-03-07 18:39:00,62.1,16.8,29.87,SSE,158,4.3,4.3,17,0.00,,---,0.00,VWS V14.01,2013-03-08 01:39:00,
2013-03-07 18:40:00,62.1,16.8,29.87,SSE,158,4.3,4.3,17,0.00,,---,0.00,VWS V14.01,2013-03-08 01:40:00,
2013-03-07 18:41:00,62.3,17.0,29.87,SSE,158,2.0,4.3,17,0.00,,---,0.00,VWS V14.01,2013-03-08 01:41:00,
2013-03-07 18:42:00,62.3,17.0,29.87,SSE,158,4.3,4.3,17,0.00,,---,0.00,VWS V14.01,2013-03-08 01:42:00,
2013-03-07 18:43:00,63.5,16.5,29.87,SSE,158,2.2,2.2,16,0.00,,---,0.00,VWS V14.01,2013-03-08 01:43:00,
2013-03-07 18:44:00,62.5,17.1,29.87,SE,135,3.6,3.6,17,0.00,,---,0.00,VWS V14.01,2013-03-08 01:44:00,
2013-03-07 18:45:00,62.5,17.1,29.87,SSE,158,6.0,6.0,17,0.00,,---,0.00,VWS V14.01,2013-03-08 01:45:00,
2013-03-07 18:46:00,62.5,17.1,29.87,SSE,158,3.1,6.0,17,0.00,,---,0.00,VWS V14.01,2013-03-08 01:46:00,
2013-03-07 18:47:00,62.6,17.2,29.87,SE,135,1.8,3.1,17,0.00,,---,0.00,VWS V14.01,2013-03-08 01:47:00,
2013-03-07 18:48:00,63.2,16.3,29.87,SE,135,2.0,2.0,16,0.00,,---,0.00,VWS V14.01,2013-03-08 01:48:00,
2013-03-07 18:49:00,62.6,17.2,29.87,SSE,158,1.8,3.8,17,0.00,,---,0.00,VWS V14.01,2013-03-08 01:49:00,
2013-03-07 18:50:00,62.6,17.2,29.87,SE,135,4.9,4.9,17,0.00,,---,0.00,VWS V14.01,2013-03-08 01:50:00,
2013-03-07 18:51:00,62.6,17.2,29.87,SSE,158,3.4,4.9,17,0.00,,---,0.00,VWS V14.01,2013-03-08 01:51:00,
2013-03-07 18:52:00,62.6,17.2,29.88,SSE,158,4.0,4.0,17,0.00,,---,0.00,VWS V14.01,2013-03-08 01:52:00,
2013-03-07 18:53:00,62.8,16.0,29.87,SSE,158,2.5,2.5,16,0.00,,---,0.00,VWS V14.01,2013-03-08 01:53:00,
2013-03-07 18:54:00,62.6,17.2,29.87,SSE,158,5.4,5.4,17,0.00,,---,0.00,VWS V14.01,2013-03-08 01:54:00,
2013-03-07 18:55:00,62.6,15.8,29.88,SSE,158,6.0,6.0,16,0.00,,---,0.00,VWS V14.01,2013-03-08 01:55:00,
2013-03-07 18:56:00,62.6,15.8,29.88,SSE,158,7.6,7.6,16,0.00,,---,0.00,VWS V14.01,2013-03-08 01:56:00,
2013-03-07 18:57:00,62.6,15.8,29.88,SSE,158,7.6,7.6,16,0.00,,---,0.00,VWS V14.01,2013-03-08 01:57:00,
2013-03-07 18:58:00,62.6,17.2,29.87,SSE,158,2.0,2.0,17,0.00,,---,0.00,VWS V14.01,2013-03-08 01:58:00,
2013-03-07 18:59:00,62.8,16.0,29.88,SE,135,2.9,6.3,16,0.00,,---,0.00,VWS V14.01,2013-03-08 01:59:00,
2013-03-07 19:00:00,62.8,16.0,29.88,SSE,158,4.0,4.0,16,0.00,,---,0.00,VWS V14.01,2013-03-08 02:00:00,
2013-03-07 19:01:00,62.8,16.0,29.88,SE,135,3.4,4.0,16,0.00,,---,0.00,VWS V14.01,2013-03-08 02:01:00,
2013-03-07 19:02:00,62.6,17.2,29.88,SSE,158,4.0,4.0,17,0.00,,---,0.00,VWS V14.01,2013-03-08 02:02:00,
2013-03-07 19:03:00,62.6,17.2,29.87,SSE,158,2.2,2.2,17,0.00,,---,0.00,VWS V14.01,2013-03-08 02:03:00,
2013-03-07 19:04:00,62.6,15.8,29.88,SE,135,3.1,7.4,16,0.00,,---,0.00,VWS V14.01,2013-03-08 02:04:00,
2013-03-07 19:05:00,62.5,17.1,29.88,SE,135,3.1,3.1,17,0.00,,---,0.00,VWS V14.01,2013-03-08 02:05:00,
2013-03-07 19:06:00,62.5,17.1,29.88,SSE,158,4.9,4.9,17,0.00,,---,0.00,VWS V14.01,2013-03-08 02:06:00,
2013-03-07 19:07:00,62.3,17.0,29.88,South,180,6.5,6.5,17,0.00,,---,0.00,VWS V14.01,2013-03-08 02:07:00,
2013-03-07 19:08:00,62.6,17.2,29.87,SSE,158,2.9,2.9,17,0.00,,---,0.00,VWS V14.01,2013-03-08 02:08:00,
2013-03-07 19:09:00,62.3,17.0,29.88,South,180,2.7,4.0,17,0.00,,---,0.00,VWS V14.01,2013-03-08 02:09:00,
2013-03-07 19:10:00,62.3,17.0,29.88,ESE,112,4.0,4.0,17,0.00,,---,0.00,VWS V14.01,2013-03-08 02:10:00,
2013-03-07 19:11:00,62.3,17.0,29.88,ESE,112,4.7,4.7,17,0.00,,---,0.00,VWS V14.01,2013-03-08 02:11:00,
2013-03-07 19:12:00,62.3,17.0,29.88,ESE,112,4.0,4.7,17,0.00,,---,0.00,VWS V14.01,2013-03-08 02:12:00,
2013-03-07 19:13:00,62.6,17.2,29.87,SE,135,4.3,4.3,17,0.00,,---,0.00,VWS V14.01,2013-03-08 02:13:00,
2013-03-07 19:14:00,62.3,17.0,29.87,SE,135,2.5,3.1,17,0.00,,---,0.00,VWS V14.01,2013-03-08 02:14:00,
2013-03-07 19:15:00,62.3,17.0,29.88,SSE,158,3.4,3.4,17,0.00,,---,0.00,VWS V14.01,2013-03-08 02:15:00,
2013-03-07 19:16:00,62.1,16.8,29.87,SE,135,3.8,3.8,17,0.00,,---,0.00,VWS V14.01,2013-03-08 02:16:00,
2013-03-07 19:17:00,62.1,16.8,29.87,SE,135,3.1,3.8,17,0.00,,---,0.00,VWS V14.01,2013-03-08 02:17:00,
2013-03-07 19:18:00,62.3,17.0,29.87,SSW,202,1.8,1.8,17,0.00,,---,0.00,VWS V14.01,2013-03-08 02:18:00,
2013-03-07 19:19:00,62.1,16.8,29.88,SE,135,5.4,5.4,17,0.00,,---,0.00,VWS V14.01,2013-03-08 02:19:00,
2013-03-07 19:20:00,62.1,16.8,29.87,SSE,158,3.4,5.4,17,0.00,,---,0.00,VWS V14.01,2013-03-08 02:20:00,
2013-03-07 19:21:00,62.1,16.8,29.88,SE,135,2.5,3.4,17,0.00,,---,0.00,VWS V14.01,2013-03-08 02:21:00,
2013-03-07 19:22:00,61.9,16.6,29.87,SSE,158,2.9,2.9,17,0.00,,---,0.00,VWS V14.01,2013-03-08 02:22:00,
2013-03-07 19:23:00,62.1,16.8,29.87,SSE,158,4.9,4.9,17,0.00,,---,0.00,VWS V14.01,2013-03-08 02:23:00,
2013-03-07 19:24:00,61.9,16.6,29.88,SSE,158,2.0,4.0,17,0.00,,---,0.00,VWS V14.01,2013-03-08 02:24:00,
2013-03-07 19:25:00,61.9,16.6,29.88,SE,135,4.0,4.0,17,0.00,,---,0.00,VWS V14.01,2013-03-08 02:25:00,
2013-03-07 19:26:00,61.9,16.6,29.88,SSE,158,3.4,4.0,17,0.00,,---,0.00,VWS V14.01,2013-03-08 02:26:00,
2013-03-07 19:27:00,61.9,16.6,29.88,SE,135,2.7,3.4,17,0.00,,---,0.00,VWS V14.01,2013-03-08 02:27:00,
2013-03-07 19:28:00,61.7,16.5,29.87,SSE,158,3.8,3.8,17,0.00,,---,0.00,VWS V14.01,2013-03-08 02:28:00,
2013-03-07 19:29:00,61.7,17.8,29.88,SE,135,4.7,4.7,18,0.00,,---,0.00,VWS V14.01,2013-03-08 02:29:00,
2013-03-07 19:30:00,61.7,17.8,29.88,SE,135,5.4,5.4,18,0.00,,---,0.00,VWS V14.01,2013-03-08 02:30:00,
2013-03-07 19:31:00,61.7,17.8,29.88,SSW,202,4.7,5.4,18,0.00,,---,0.00,VWS V14.01,2013-03-08 02:31:00,
2013-03-07 19:32:00,61.7,17.8,29.88,SSE,158,4.5,4.7,18,0.00,,---,0.00,VWS V14.01,2013-03-08 02:32:00,
2013-03-07 19:33:00,61.7,16.5,29.87,SSE,158,1.8,1.8,17,0.00,,---,0.00,VWS V14.01,2013-03-08 02:33:00,
2013-03-07 19:34:00,61.7,17.8,29.88,SSE,158,4.7,4.7,18,0.00,,---,0.00,VWS V14.01,2013-03-08 02:34:00,
2013-03-07 19:35:00,61.7,17.8,29.88,ESE,112,4.5,4.7,18,0.00,,---,0.00,VWS V14.01,2013-03-08 02:35:00,
2013-03-07 19:36:00,61.6,17.7,29.88,SE,135,2.5,4.5,18,0.00,,---,0.00,VWS V14.01,2013-03-08 02:36:00,
2013-03-07 19:37:00,61.6,17.7,29.88,South,180,3.6,3.6,18,0.00,,---,0.00,VWS V14.01,2013-03-08 02:37:00,
2013-03-07 19:38:00,61.9,16.6,29.87,SSE,158,3.1,3.1,17,0.00,,---,0.00,VWS V14.01,2013-03-08 02:38:00,
2013-03-07 19:39:00,61.6,17.7,29.88,SSE,158,3.4,3.4,18,0.00,,---,0.00,VWS V14.01,2013-03-08 02:39:00,
2013-03-07 19:40:00,61.6,17.7,29.88,SE,135,3.4,3.4,18,0.00,,---,0.00,VWS V14.01,2013-03-08 02:40:00,
2013-03-07 19:41:00,61.6,17.7,29.88,SE,135,2.5,3.4,18,0.00,,---,0.00,VWS V14.01,2013-03-08 02:41:00,
2013-03-07 19:42:00,61.4,17.5,29.88,ESE,112,2.5,2.5,18,0.00,,---,0.00,VWS V14.01,2013-03-08 02:42:00,
2013-03-07 19:43:00,62.3,17.0,29.87,SSE,158,4.3,4.3,17,0.00,,---,0.00,VWS V14.01,2013-03-08 02:43:00,
2013-03-07 19:44:00,61.4,17.5,29.88,SSE,158,6.0,6.0,18,0.00,,---,0.00,VWS V14.01,2013-03-08 02:44:00,
2013-03-07 19:45:00,61.2,17.4,29.88,SE,135,4.5,6.0,18,0.00,,---,0.00,VWS V14.01,2013-03-08 02:45:00,
2013-03-07 19:46:00,61.2,17.4,29.88,SSE,158,4.0,4.5,18,0.00,,---,0.00,VWS V14.01,2013-03-08 02:46:00,
2013-03-07 19:47:00,61.2,17.4,29.88,SSE,158,7.6,7.6,18,0.00,,---,0.00,VWS V14.01,2013-03-08 02:47:00,
2013-03-07 19:48:00,62.6,17.2,29.87,SE,135,1.8,1.8,17,0.00,,---,0.00,VWS V14.01,2013-03-08 02:48:00,
2013-03-07 19:49:00,61.2,17.4,29.88,SSE,158,3.6,3.6,18,0.00,,---,0.00,VWS V14.01,2013-03-08 02:49:00,
2013-03-07 19:50:00,61.2,17.4,29.88,SE,135,4.3,4.3,18,0.00,,---,0.00,VWS V14.01,2013-03-08 02:50:00,
2013-03-07 19:51:00,61.2,17.4,29.88,SSE,158,5.4,5.4,18,0.00,,---,0.00,VWS V14.01,2013-03-08 02:51:00,
2013-03-07 19:52:00,61.2,17.4,29.88,SSE,158,3.4,5.4,18,0.00,,---,0.00,VWS V14.01,2013-03-08 02:52:00,
2013-03-07 19:53:00,62.6,17.2,29.88,SSE,158,4.0,4.0,17,0.00,,---,0.00,VWS V14.01,2013-03-08 02:53:00,
2013-03-07 19:54:00,61.0,17.2,29.88,SE,135,4.7,4.7,18,0.00,,---,0.00,VWS V14.01,2013-03-08 02:54:00,
2013-03-07 19:55:00,61.0,17.2,29.88,SE,135,4.7,4.7,18,0.00,,---,0.00,VWS V14.01,2013-03-08 02:55:00,
2013-03-07 19:56:00,61.0,17.2,29.88,SE,135,3.1,4.7,18,0.00,,---,0.00,VWS V14.01,2013-03-08 02:56:00,
2013-03-07 19:57:00,61.0,17.2,29.88,SSE,158,2.2,3.1,18,0.00,,---,0.00,VWS V14.01,2013-03-08 02:57:00,
2013-03-07 19:58:00,62.6,15.8,29.88,SSE,158,7.6,7.6,16,0.00,,---,0.00,VWS V14.01,2013-03-08 02:58:00,
2013-03-07 19:59:00,60.8,18.3,29.88,South,180,4.0,5.4,19,0.00,,---,0.00,VWS V14.01,2013-03-08 02:59:00,
2013-03-07 20:00:00,60.8,18.3,29.88,SSE,158,2.7,4.0,19,0.00,,---,0.00,VWS V14.01,2013-03-08 03:00:00,
2013-03-07 20:01:00,60.8,18.3,29.88,South,180,8.9,8.9,19,0.00,,---,0.00,VWS V14.01,2013-03-08 03:01:00,
2013-03-07 20:02:00,60.8,18.3,29.88,SE,135,3.8,8.9,19,0.00,,---,0.00,VWS V14.01,2013-03-08 03:02:00,
2013-03-07 20:03:00,62.6,17.2,29.88,SSE,158,4.0,4.0,17,0.00,,---,0.00,VWS V14.01,2013-03-08 03:03:00,
2013-03-07 20:04:00,60.7,18.2,29.88,SSE,158,6.5,6.5,19,0.00,,---,0.00,VWS V14.01,2013-03-08 03:04:00,
2013-03-07 20:05:00,60.7,18.2,29.88,SSE,158,6.5,6.5,19,0.00,,---,0.00,VWS V14.01,2013-03-08 03:05:00,
2013-03-07 20:06:00,60.5,18.1,29.88,SSE,158,4.0,6.5,19,0.00,,---,0.00,VWS V14.01,2013-03-08 03:06:00,
2013-03-07 20:07:00,60.5,18.1,29.88,SSE,158,5.8,5.8,19,0.00,,---,0.00,VWS V14.01,2013-03-08 03:07:00,
2013-03-07 20:08:00,62.3,17.0,29.88,South,180,6.5,6.5,17,0.00,,---,0.00,VWS V14.01,2013-03-08 03:08:00,
2013-03-07 20:09:00,60.3,17.9,29.88,SE,135,4.7,4.7,19,0.00,,---,0.00,VWS V14.01,2013-03-08 03:09:00,
2013-03-07 20:10:00,60.3,17.9,29.88,SSE,158,4.7,4.7,19,0.00,,---,0.00,VWS V14.01,2013-03-08 03:10:00,
2013-03-07 20:11:00,60.3,17.9,29.88,SE,135,6.0,6.0,19,0.00,,---,0.00,VWS V14.01,2013-03-08 03:11:00,
2013-03-07 20:12:00,60.1,17.7,29.88,SSE,158,3.6,6.0,19,0.00,,---,0.00,VWS V14.01,2013-03-08 03:12:00,
2013-03-07 20:13:00,62.3,17.0,29.88,ESE,112,4.0,4.0,17,0.00,,---,0.00,VWS V14.01,2013-03-08 03:13:00,
2013-03-07 20:14:00,60.1,17.7,29.88,South,180,4.0,4.7,19,0.00,,---,0.00,VWS V14.01,2013-03-08 03:14:00,
2013-03-07 20:15:00,60.1,18.9,29.88,South,180,4.7,4.7,20,0.00,,---,0.00,VWS V14.01,2013-03-08 03:15:00,
2013-03-07 20:16:00,59.9,18.8,29.88,SSE,158,5.6,5.6,20,0.00,,---,0.00,VWS V14.01,2013-03-08 03:16:00,
2013-03-07 20:17:00,59.8,18.7,29.88,ESE,112,2.7,5.6,20,0.00,,---,0.00,VWS V14.01,2013-03-08 03:17:00,
2013-03-07 20:18:00,62.1,16.8,29.87,SE,135,3.1,3.1,17,0.00,,---,0.00,VWS V14.01,2013-03-08 03:18:00,
2013-03-07 20:19:00,59.8,19.8,29.88,SE,135,3.4,4.9,21,0.00,,---,0.00,VWS V14.01,2013-03-08 03:19:00,
2013-03-07 20:20:00,59.6,19.6,29.88,ESE,112,5.4,5.4,21,0.00,,---,0.00,VWS V14.01,2013-03-08 03:20:00,
2013-03-07 20:21:00,59.6,19.6,29.88,South,180,4.5,5.4,21,0.00,,---,0.00,VWS V14.01,2013-03-08 03:21:00,
2013-03-07 20:22:00,59.6,19.6,29.88,SSE,158,3.4,4.5,21,0.00,,---,0.00,VWS V14.01,2013-03-08 03:22:00,
2013-03-07 20:23:00,61.9,16.6,29.87,SSE,158,2.9,2.9,17,0.00,,---,0.00,VWS V14.01,2013-03-08 03:23:00,
2013-03-07 20:24:00,59.4,19.5,29.88,SSE,158,2.9,3.4,21,0.00,,---,0.00,VWS V14.01,2013-03-08 03:24:00,
2013-03-07 20:25:00,59.4,19.5,29.88,SE,135,4.0,4.0,21,0.00,,---,0.00,VWS V14.01,2013-03-08 03:25:00,
2013-03-07 20:26:00,59.4,19.5,29.88,SSE,158,3.4,4.0,21,0.00,,---,0.00,VWS V14.01,2013-03-08 03:26:00,
2013-03-07 20:27:00,59.4,19.5,29.88,SE,135,5.1,5.1,21,0.00,,---,0.00,VWS V14.01,2013-03-08 03:27:00,
2013-03-07 20:28:00,61.9,16.6,29.88,SE,135,2.7,2.7,17,0.00,,---,0.00,VWS V14.01,2013-03-08 03:28:00,
2013-03-07 20:29:00,59.4,19.5,29.88,SE,135,4.9,6.7,21,0.00,,---,0.00,VWS V14.01,2013-03-08 03:29:00,
2013-03-07 20:30:00,59.4,19.5,29.88,ESE,112,3.1,4.9,21,0.00,,---,0.00,VWS V14.01,2013-03-08 03:30:00,
2013-03-07 20:31:00,59.2,19.3,29.88,SSE,158,3.6,3.6,21,0.00,,---,0.00,VWS V14.01,2013-03-08 03:31:00,
2013-03-07 20:32:00,59.2,19.3,29.88,SSE,158,8.7,8.7,21,0.00,,---,0.00,VWS V14.01,2013-03-08 03:32:00,
2013-03-07 20:33:00,61.7,17.8,29.88,SSE,158,4.5,4.5,18,0.00,,---,0.00,VWS V14.01,2013-03-08 03:33:00,
2013-03-07 20:34:00,59.0,19.1,29.88,South,180,2.9,3.1,21,0.00,,---,0.00,VWS V14.01,2013-03-08 03:34:00,
2013-03-07 20:35:00,59.0,19.1,29.88,SSE,158,7.6,7.6,21,0.00,,---,0.00,VWS V14.01,2013-03-08 03:35:00,
2013-03-07 20:36:00,59.0,19.1,29.88,SSE,158,7.6,7.6,21,0.00,,---,0.00,VWS V14.01,2013-03-08 03:36:00,
2013-03-07 20:37:00,58.9,17.9,29.88,SE,135,3.4,7.6,20,0.00,,---,0.00,VWS V14.01,2013-03-08 03:37:00,
2013-03-07 20:38:00,61.6,17.7,29.88,South,180,3.6,3.6,18,0.00,,---,0.00,VWS V14.01,2013-03-08 03:38:00,
2013-03-07 20:39:00,58.9,17.9,29.88,South,180,5.6,5.6,20,0.00,,---,0.00,VWS V14.01,2013-03-08 03:39:00,
2013-03-07 20:40:00,58.9,17.9,29.89,South,180,3.4,5.6,20,0.00,,---,0.00,VWS V14.01,2013-03-08 03:40:00,
2013-03-07 20:41:00,58.9,19.1,29.89,SSE,158,4.0,4.0,21,0.00,,---,0.00,VWS V14.01,2013-03-08 03:41:00,
2013-03-07 20:42:00,58.7,18.9,29.89,SE,135,6.5,6.5,21,0.00,,---,0.00,VWS V14.01,2013-03-08 03:42:00,
2013-03-07 20:43:00,61.4,17.5,29.88,ESE,112,2.5,2.5,18,0.00,,---,0.00,VWS V14.01,2013-03-08 03:43:00,
2013-03-07 20:44:00,58.7,18.9,29.89,SSW,202,6.9,6.9,21,0.00,,---,0.00,VWS V14.01,2013-03-08 03:44:00,
2013-03-07 20:45:00,58.7,18.9,29.89,SE,135,4.0,6.9,21,0.00,,---,0.00,VWS V14.01,2013-03-08 03:45:00,
2013-03-07 20:46:00,58.5,18.7,29.89,SSE,158,2.7,4.0,21,0.00,,---,0.00,VWS V14.01,2013-03-08 03:46:00,
2013-03-07 20:47:00,61.2,17.4,29.88,SSE,158,7.6,7.6,18,0.00,,---,0.00,VWS V14.01,2013-03-08 03:47:00,
2013-03-07 20:48:00,58.3,18.6,29.89,SE,135,1.8,2.5,21,0.00,,---,0.00,VWS V14.01,2013-03-08 03:48:00,
2013-03-07 20:49:00,58.3,18.6,29.89,South,180,5.6,5.6,21,0.00,,---,0.00,VWS V14.01,2013-03-08 03:49:00,
2013-03-07 20:50:00,58.3,18.6,29.89,SSE,158,4.9,5.6,21,0.00,,---,0.00,VWS V14.01,2013-03-08 03:50:00,
2013-03-07 20:51:00,58.1,18.4,29.90,SSE,158,3.4,4.9,21,0.00,,---,0.00,VWS V14.01,2013-03-08 03:51:00,
2013-03-07 20:52:00,58.1,18.4,29.89,SSE,158,2.5,3.4,21,0.00,,---,0.00,VWS V14.01,2013-03-08 03:52:00,
2013-03-07 20:53:00,61.2,17.4,29.88,SSE,158,3.4,3.4,18,0.00,,---,0.00,VWS V14.01,2013-03-08 03:53:00,
2013-03-07 20:54:00,58.0,18.3,29.90,SSE,158,6.3,6.3,21,0.00,,---,0.00,VWS V14.01,2013-03-08 03:54:00,
2013-03-07 20:55:00,58.0,18.3,29.89,South,180,1.8,6.3,21,0.00,,---,0.00,VWS V14.01,2013-03-08 03:55:00,
2013-03-07 20:56:00,58.0,18.3,29.90,SSE,158,2.5,2.5,21,0.00,,---,0.00,VWS V14.01,2013-03-08 03:56:00,
2013-03-07 20:57:00,58.0,18.3,29.90,South,180,1.8,2.5,21,0.00,,---,0.00,VWS V14.01,2013-03-08 03:57:00,
2013-03-07 20:58:00,61.0,17.2,29.88,SSE,158,2.2,2.2,18,0.00,,---,0.00,VWS V14.01,2013-03-08 03:58:00,
2013-03-07 20:59:00,57.8,18.1,29.90,SSE,158,3.4,5.1,21,0.00,,---,0.00,VWS V14.01,2013-03-08 03:59:00,
2013-03-07 21:00:00,57.8,18.1,29.90,SSE,158,3.4,3.4,21,0.00,,---,0.00,VWS V14.01,2013-03-08 04:00:00,
2013-03-07 21:01:00,57.8,18.1,29.90,SSE,158,4.7,4.7,21,0.00,,---,0.00,VWS V14.01,2013-03-08 04:01:00,
2013-03-07 21:02:00,57.8,18.1,29.90,South,180,2.9,4.7,21,0.00,,---,0.00,VWS V14.01,2013-03-08 04:02:00,
2013-03-07 21:03:00,60.8,18.3,29.88,SE,135,3.8,3.8,19,0.00,,---,0.00,VWS V14.01,2013-03-08 04:03:00,
2013-03-07 21:04:00,57.6,18.0,29.90,South,180,3.4,3.4,21,0.00,,---,0.00,VWS V14.01,2013-03-08 04:04:00,
2013-03-07 21:05:00,57.6,18.0,29.90,SSE,158,3.4,3.4,21,0.00,,---,0.00,VWS V14.01,2013-03-08 04:05:00,
2013-03-07 21:06:00,57.6,18.0,29.90,SSE,158,4.0,4.0,21,0.00,,---,0.00,VWS V14.01,2013-03-08 04:06:00,
2013-03-07 21:07:00,57.4,17.8,29.90,SSE,158,5.8,5.8,21,0.00,,---,0.00,VWS V14.01,2013-03-08 04:07:00,
2013-03-07 21:08:00,60.5,18.1,29.88,SSE,158,5.8,5.8,19,0.00,,---,0.00,VWS V14.01,2013-03-08 04:08:00,
2013-03-07 21:09:00,57.2,17.6,29.90,South,180,4.3,4.3,21,0.00,,---,0.00,VWS V14.01,2013-03-08 04:09:00,
2013-03-07 21:10:00,57.2,17.6,29.90,SSE,158,2.7,4.3,21,0.00,,---,0.00,VWS V14.01,2013-03-08 04:10:00,
2013-03-07 21:11:00,57.2,17.6,29.90,South,180,4.0,4.0,21,0.00,,---,0.00,VWS V14.01,2013-03-08 04:11:00,
2013-03-07 21:12:00,57.1,17.6,29.90,SE,135,1.3,4.0,21,0.00,,---,0.00,VWS V14.01,2013-03-08 04:12:00,
2013-03-07 21:13:00,60.1,17.7,29.88,SSE,158,3.6,3.6,19,0.00,,---,0.00,VWS V14.01,2013-03-08 04:13:00,
2013-03-07 21:14:00,56.9,17.4,29.90,SE,135,5.4,5.4,21,0.00,,---,0.00,VWS V14.01,2013-03-08 04:14:00,
2013-03-07 21:15:00,56.9,17.4,29.90,South,180,6.9,6.9,21,0.00,,---,0.00,VWS V14.01,2013-03-08 04:15:00,
2013-03-07 21:16:00,56.9,17.4,29.90,SSE,158,3.4,6.9,21,0.00,,---,0.00,VWS V14.01,2013-03-08 04:16:00,
2013-03-07 21:17:00,57.1,17.6,29.90,South,180,3.4,3.4,21,0.00,,---,0.00,VWS V14.01,2013-03-08 04:17:00,
2013-03-07 21:18:00,59.8,18.7,29.88,ESE,112,2.7,2.7,20,0.00,,---,0.00,VWS V14.01,2013-03-08 04:18:00,
2013-03-07 21:19:00,56.9,17.4,29.90,SSE,158,4.0,4.7,21,0.00,,---,0.00,VWS V14.01,2013-03-08 04:19:00,
2013-03-07 21:20:00,56.9,17.4,29.91,South,180,2.5,4.0,21,0.00,,---,0.00,VWS V14.01,2013-03-08 04:20:00,
2013-03-07 21:21:00,56.9,17.4,29.91,SSE,158,6.3,6.3,21,0.00,,---,0.00,VWS V14.01,2013-03-08 04:21:00,
2013-03-07 21:22:00,56.9,18.5,29.91,SSE,158,4.0,6.3,22,0.00,,---,0.00,VWS V14.01,2013-03-08 04:22:00,
2013-03-07 21:23:00,59.6,19.6,29.88,SSE,158,3.4,3.4,21,0.00,,---,0.00,VWS V14.01,2013-03-08 04:23:00,
2013-03-07 21:24:00,56.7,18.3,29.91,South,180,4.7,4.7,22,0.00,,---,0.00,VWS V14.01,2013-03-08 04:24:00,
2013-03-07 21:25:00,56.5,18.1,29.91,SSE,158,2.2,4.7,22,0.00,,---,0.00,VWS V14.01,2013-03-08 04:25:00,
2013-03-07 21:26:00,56.5,18.1,29.91,South,180,3.6,3.6,22,0.00,,---,0.00,VWS V14.01,2013-03-08 04:26:00,
2013-03-07 21:27:00,56.5,18.1,29.91,SSE,158,5.4,5.4,22,0.00,,---,0.00,VWS V14.01,2013-03-08 04:27:00,
2013-03-07 21:28:00,59.4,19.5,29.88,SE,135,5.1,5.1,21,0.00,,---,0.00,VWS V14.01,2013-03-08 04:28:00,
2013-03-07 21:29:00,56.3,18.0,29.91,South,180,2.5,6.3,22,0.00,,---,0.00,VWS V14.01,2013-03-08 04:29:00,
2013-03-07 21:30:00,56.3,18.0,29.91,SSE,158,5.4,5.4,22,0.00,,---,0.00,VWS V14.01,2013-03-08 04:30:00,
2013-03-07 21:31:00,56.3,18.0,29.91,SSE,158,4.5,5.4,22,0.00,,---,0.00,VWS V14.01,2013-03-08 04:31:00,
2013-03-07 21:32:00,56.2,17.9,29.91,SSE,158,5.4,5.4,22,0.00,,---,0.00,VWS V14.01,2013-03-08 04:32:00,
2013-03-07 21:33:00,59.2,19.3,29.88,SSE,158,8.7,8.7,21,0.00,,---,0.00,VWS V14.01,2013-03-08 04:33:00,
2013-03-07 21:34:00,56.2,17.9,29.91,SSE,158,5.8,5.8,22,0.00,,---,0.00,VWS V14.01,2013-03-08 04:34:00,
2013-03-07 21:35:00,56.0,17.7,29.91,South,180,3.4,5.8,22,0.00,,---,0.00,VWS V14.01,2013-03-08 04:35:00,
2013-03-07 21:36:00,56.0,17.7,29.91,SSE,158,4.7,4.7,22,0.00,,---,0.00,VWS V14.01,2013-03-08 04:36:00,
2013-03-07 21:37:00,55.8,17.5,29.91,SE,135,4.0,4.7,22,0.00,,---,0.00,VWS V14.01,2013-03-08 04:37:00,
2013-03-07 21:38:00,58.9,17.9,29.88,SE,135,3.4,3.4,20,0.00,,---,0.00,VWS V14.01,2013-03-08 04:38:00,
2013-03-07 21:39:00,55.8,17.5,29.91,SSE,158,1.6,2.5,22,0.00,,---,0.00,VWS V14.01,2013-03-08 04:39:00,
2013-03-07 21:40:00,55.6,17.4,29.91,SE,135,2.2,2.2,22,0.00,,---,0.00,VWS V14.01,2013-03-08 04:40:00,
2013-03-07 21:41:00,55.6,17.4,29.91,SSE,158,1.8,2.2,22,0.00,,---,0.00,VWS V14.01,2013-03-08 04:41:00,
2013-03-07 21:42:00,55.4,17.2,29.91,SSE,158,3.4,3.4,22,0.00,,---,0.00,VWS V14.01,2013-03-08 04:42:00,
2013-03-07 21:43:00,58.7,18.9,29.89,SE,135,6.5,6.5,21,0.00,,---,0.00,VWS V14.01,2013-03-08 04:43:00,
2013-03-07 21:44:00,55.3,17.1,29.91,ESE,112,2.0,4.7,22,0.00,,---,0.00,VWS V14.01,2013-03-08 04:44:00,
2013-03-07 21:45:00,55.3,17.1,29.91,SSE,158,3.6,3.6,22,0.00,,---,0.00,VWS V14.01,2013-03-08 04:45:00,
2013-03-07 21:46:00,55.1,18.0,29.91,SE,135,1.8,3.6,23,0.00,,---,0.00,VWS V14.01,2013-03-08 04:46:00,
2013-03-07 21:47:00,55.1,18.0,29.91,SSE,158,2.5,2.5,23,0.00,,---,0.00,VWS V14.01,2013-03-08 04:47:00,
2013-03-07 21:48:00,58.5,18.7,29.89,SSE,158,2.5,2.5,21,0.00,,---,0.00,VWS V14.01,2013-03-08 04:48:00,
2013-03-07 21:49:00,54.9,17.8,29.92,SE,135,1.3,2.5,23,0.00,,---,0.00,VWS V14.01,2013-03-08 04:49:00,
2013-03-07 21:50:00,54.9,17.8,29.92,SE,135,3.8,3.8,23,0.00,,---,0.00,VWS V14.01,2013-03-08 04:50:00,
2013-03-07 21:51:00,54.7,17.6,29.91,SSE,158,3.6,3.8,23,0.00,,---,0.00,VWS V14.01,2013-03-08 04:51:00,
2013-03-07 21:52:00,54.7,17.6,29.92,SSE,158,1.6,3.6,23,0.00,,---,0.00,VWS V14.01,2013-03-08 04:52:00,
2013-03-07 21:53:00,58.1,18.4,29.89,SSE,158,2.5,2.5,21,0.00,,---,0.00,VWS V14.01,2013-03-08 04:53:00,
2013-03-07 21:54:00,54.5,17.5,29.92,SE,135,1.8,3.8,23,0.00,,---,0.00,VWS V14.01,2013-03-08 04:54:00,
2013-03-07 21:55:00,54.5,17.5,29.91,SE,135,6.9,6.9,23,0.00,,---,0.00,VWS V14.01,2013-03-08 04:55:00,
2013-03-07 21:56:00,54.5,17.5,29.91,South,180,2.0,6.9,23,0.00,,---,0.00,VWS V14.01,2013-03-08 04:56:00,
2013-03-07 21:57:00,54.4,17.4,29.91,SSE,158,1.8,2.0,23,0.00,,---,0.00,VWS V14.01,2013-03-08 04:57:00,
2013-03-07 21:58:00,58.0,18.3,29.90,South,180,1.8,1.8,21,0.00,,---,0.00,VWS V14.01,2013-03-08 04:58:00,
2013-03-07 21:59:00,54.4,17.4,29.92,SSE,158,0.9,1.6,23,0.00,,---,0.00,VWS V14.01,2013-03-08 04:59:00,
2013-03-07 22:00:00,57.8,18.1,29.90,SSE,158,3.4,3.4,21,0.00,,---,0.00,VWS V14.01,2013-03-08 05:00:00,
2013-03-07 22:01:00,57.8,18.1,29.90,SSE,158,4.7,4.7,21,0.00,,---,0.00,VWS V14.01,2013-03-08 05:01:00,
2013-03-07 22:02:00,54.2,17.2,29.92,SE,135,1.6,1.8,23,0.00,,---,0.00,VWS V14.01,2013-03-08 05:02:00,
2013-03-07 22:03:00,54.0,17.1,29.92,SSE,158,1.1,1.6,23,0.00,,---,0.00,VWS V14.01,2013-03-08 05:03:00,
2013-03-07 22:04:00,54.0,17.1,29.92,SSE,158,1.6,1.6,23,0.00,,---,0.00,VWS V14.01,2013-03-08 05:04:00,
2013-03-07 22:05:00,53.8,16.9,29.92,ESE,112,2.0,2.0,23,0.00,,---,0.00,VWS V14.01,2013-03-08 05:05:00,
2013-03-07 22:06:00,57.6,18.0,29.90,SSE,158,4.0,4.0,21,0.00,,---,0.00,VWS V14.01,2013-03-08 05:06:00,
2013-03-07 22:07:00,53.8,17.9,29.92,SE,135,2.2,2.9,24,0.00,,---,0.00,VWS V14.01,2013-03-08 05:07:00,
2013-03-07 22:08:00,53.6,16.7,29.92,ESE,112,2.7,2.7,23,0.00,,---,0.00,VWS V14.01,2013-03-08 05:08:00,
2013-03-07 22:09:00,53.6,16.7,29.92,SE,135,1.6,2.7,23,0.00,,---,0.00,VWS V14.01,2013-03-08 05:09:00,
2013-03-07 22:10:00,53.6,16.7,29.92,SE,135,1.8,1.8,23,0.00,,---,0.00,VWS V14.01,2013-03-08 05:10:00,
2013-03-07 22:11:00,57.2,17.6,29.90,South,180,4.0,4.0,21,0.00,,---,0.00,VWS V14.01,2013-03-08 05:11:00,
2013-03-07 22:12:00,53.6,16.7,29.93,SE,135,2.7,2.7,23,0.00,,---,0.00,VWS V14.01,2013-03-08 05:12:00,
2013-03-07 22:13:00,53.6,16.7,29.93,SE,135,3.1,3.1,23,0.00,,---,0.00,VWS V14.01,2013-03-08 05:13:00,
2013-03-07 22:14:00,53.6,16.7,29.92,ESE,112,2.2,3.1,23,0.00,,---,0.00,VWS V14.01,2013-03-08 05:14:00,
2013-03-07 22:15:00,53.6,16.7,29.93,ESE,112,2.0,2.2,23,0.00,,---,0.00,VWS V14.01,2013-03-08 05:15:00,
2013-03-07 22:16:00,56.9,17.4,29.90,SSE,158,3.4,3.4,21,0.00,,---,0.00,VWS V14.01,2013-03-08 05:16:00,
2013-03-07 22:17:00,53.6,16.7,29.93,SE,135,1.3,3.4,23,0.00,,---,0.00,VWS V14.01,2013-03-08 05:17:00,
2013-03-07 22:18:00,53.6,16.7,29.93,SE,135,2.5,2.5,23,0.00,,---,0.00,VWS V14.01,2013-03-08 05:18:00,
2013-03-07 22:19:00,53.6,16.7,29.93,ESE,112,2.7,2.7,23,0.00,,---,0.00,VWS V14.01,2013-03-08 05:19:00,
2013-03-07 22:20:00,53.6,16.7,29.93,SE,135,2.5,2.7,23,0.00,,---,0.00,VWS V14.01,2013-03-08 05:20:00,
2013-03-07 22:21:00,56.9,17.4,29.91,SSE,158,6.3,6.3,21,0.00,,---,0.00,VWS V14.01,2013-03-08 05:21:00,
2013-03-07 22:22:00,53.6,16.7,29.93,ESE,112,1.8,1.8,23,0.00,,---,0.00,VWS V14.01,2013-03-08 05:22:00,
2013-03-07 22:23:00,53.6,16.7,29.93,ESE,112,0.9,1.8,23,0.00,,---,0.00,VWS V14.01,2013-03-08 05:23:00,
2013-03-07 22:24:00,53.6,16.7,29.93,SE,135,1.1,1.1,23,0.00,,---,0.00,VWS V14.01,2013-03-08 05:24:00,
2013-03-07 22:25:00,53.6,16.7,29.93,SE,135,2.5,2.5,23,0.00,,---,0.00,VWS V14.01,2013-03-08 05:25:00,
2013-03-07 22:26:00,56.5,18.1,29.91,South,180,3.6,3.6,22,0.00,,---,0.00,VWS V14.01,2013-03-08 05:26:00,
2013-03-07 22:27:00,53.6,16.7,29.93,ESE,112,0.7,0.9,23,0.00,,---,0.00,VWS V14.01,2013-03-08 05:27:00,
2013-03-07 22:28:00,53.5,16.6,29.93,SSE,158,2.2,2.2,23,0.00,,---,0.00,VWS V14.01,2013-03-08 05:28:00,
2013-03-07 22:29:00,53.6,16.7,29.93,SE,135,3.4,3.4,23,0.00,,---,0.00,VWS V14.01,2013-03-08 05:29:00,
2013-03-07 22:30:00,53.6,16.7,29.93,SE,135,0.4,3.4,23,0.00,,---,0.00,VWS V14.01,2013-03-08 05:30:00,
2013-03-07 22:31:00,56.3,18.0,29.91,SSE,158,4.5,4.5,22,0.00,,---,0.00,VWS V14.01,2013-03-08 05:31:00,
2013-03-07 22:32:00,53.6,16.7,29.93,SSE,158,1.1,1.1,23,0.00,,---,0.00,VWS V14.01,2013-03-08 05:32:00,
2013-03-07 22:33:00,53.6,16.7,29.93,SSE,158,0.4,1.1,23,0.00,,---,0.00,VWS V14.01,2013-03-08 05:33:00,
2013-03-07 22:34:00,53.6,16.7,29.93,SSE,158,0.9,0.9,23,0.00,,---,0.00,VWS V14.01,2013-03-08 05:34:00,
2013-03-07 22:35:00,53.6,16.7,29.93,SE,135,1.8,1.8,23,0.00,,---,0.00,VWS V14.01,2013-03-08 05:35:00,
2013-03-07 22:36:00,56.0,17.7,29.91,SSE,158,4.7,4.7,22,0.00,,---,0.00,VWS V14.01,2013-03-08 05:36:00,
2013-03-07 22:37:00,53.6,16.7,29.93,SSE,158,1.8,2.5,23,0.00,,---,0.00,VWS V14.01,2013-03-08 05:37:00,
2013-03-07 22:38:00,53.6,16.7,29.93,SE,135,1.8,1.8,23,0.00,,---,0.00,VWS V14.01,2013-03-08 05:38:00,
2013-03-07 22:39:00,53.6,16.7,29.93,SE,135,1.1,1.8,23,0.00,,---,0.00,VWS V14.01,2013-03-08 05:39:00,
2013-03-07 22:40:00,53.6,16.7,29.93,SSE,158,0.7,1.1,23,0.00,,---,0.00,VWS V14.01,2013-03-08 05:40:00,
2013-03-07 22:41:00,55.6,17.4,29.91,SSE,158,1.8,1.8,22,0.00,,---,0.00,VWS V14.01,2013-03-08 05:41:00,
2013-03-07 22:42:00,53.6,16.7,29.93,SSE,158,1.6,1.6,23,0.00,,---,0.00,VWS V14.01,2013-03-08 05:42:00,
2013-03-07 22:43:00,53.6,16.7,29.93,SSE,158,0.9,1.6,23,0.00,,---,0.00,VWS V14.01,2013-03-08 05:43:00,
2013-03-07 22:44:00,53.6,16.7,29.93,SSE,158,0.4,0.9,23,0.00,,---,0.00,VWS V14.01,2013-03-08 05:44:00,
2013-03-07 22:45:00,53.6,16.7,29.93,SSE,158,2.2,2.2,23,0.00,,---,0.00,VWS V14.01,2013-03-08 05:45:00,
2013-03-07 22:46:00,55.1,18.0,29.91,SE,135,1.8,1.8,23,0.00,,---,0.00,VWS V14.01,2013-03-08 05:46:00,
2013-03-07 22:47:00,53.6,16.7,29.93,SE,135,0.9,1.8,23,0.00,,---,0.00,VWS V14.01,2013-03-08 05:47:00,
2013-03-07 22:48:00,53.6,16.7,29.93,ESE,112,1.8,1.8,23,0.00,,---,0.00,VWS V14.01,2013-03-08 05:48:00,
2013-03-07 22:49:00,53.6,16.7,29.93,SE,135,1.1,1.8,23,0.00,,---,0.00,VWS V14.01,2013-03-08 05:49:00,
2013-03-07 22:50:00,53.6,16.7,29.93,South,180,2.0,2.0,23,0.00,,---,0.00,VWS V14.01,2013-03-08 05:50:00,
2013-03-07 22:51:00,54.7,17.6,29.91,SSE,158,3.6,3.6,23,0.00,,---,0.00,VWS V14.01,2013-03-08 05:51:00,
2013-03-07 22:52:00,53.6,16.7,29.93,SSE,158,0.9,1.3,23,0.00,,---,0.00,VWS V14.01,2013-03-08 05:52:00,
2013-03-07 22:53:00,53.6,16.7,29.93,SSE,158,0.7,0.9,23,0.00,,---,0.00,VWS V14.01,2013-03-08 05:53:00,
2013-03-07 22:54:00,53.6,16.7,29.93,SSE,158,1.1,1.1,23,0.00,,---,0.00,VWS V14.01,2013-03-08 05:54:00,
2013-03-07 22:55:00,53.5,16.6,29.93,SSE,158,1.3,1.3,23,0.00,,---,0.00,VWS V14.01,2013-03-08 05:55:00,
2013-03-07 22:56:00,54.5,17.5,29.91,SE,135,6.9,6.9,23,0.00,,---,0.00,VWS V14.01,2013-03-08 05:56:00,
2013-03-07 22:57:00,53.5,15.6,29.93,SE,135,1.1,1.8,22,0.00,,---,0.00,VWS V14.01,2013-03-08 05:57:00,
2013-03-07 22:58:00,53.5,16.6,29.93,SE,135,2.2,2.2,23,0.00,,---,0.00,VWS V14.01,2013-03-08 05:58:00,
2013-03-07 22:59:00,53.5,15.6,29.93,SE,135,1.6,2.2,22,0.00,,---,0.00,VWS V14.01,2013-03-08 05:59:00,
2013-03-07 23:00:00,53.5,15.6,29.93,SE,135,1.6,1.6,22,0.00,,---,0.00,VWS V14.01,2013-03-08 06:00:00,
2013-03-07 23:01:00,54.2,17.2,29.92,SSE,158,1.8,1.8,23,0.00,,---,0.00,VWS V14.01,2013-03-08 06:01:00,
2013-03-07 23:02:00,53.5,15.6,29.93,SSE,158,2.5,2.9,22,0.00,,---,0.00,VWS V14.01,2013-03-08 06:02:00,
2013-03-07 23:03:00,53.5,15.6,29.93,SE,135,1.1,2.5,22,0.00,,---,0.00,VWS V14.01,2013-03-08 06:03:00,
2013-03-07 23:04:00,53.5,15.6,29.93,SSE,158,4.0,4.0,22,0.00,,---,0.00,VWS V14.01,2013-03-08 06:04:00,
2013-03-07 23:05:00,53.3,15.4,29.93,SE,135,1.8,4.0,22,0.00,,---,0.00,VWS V14.01,2013-03-08 06:05:00,
2013-03-07 23:06:00,53.8,16.9,29.92,ESE,112,2.9,2.9,23,0.00,,---,0.00,VWS V14.01,2013-03-08 06:06:00,
2013-03-07 23:07:00,53.3,15.4,29.93,ESE,112,2.7,2.7,22,0.00,,---,0.00,VWS V14.01,2013-03-08 06:07:00,
2013-03-07 23:08:00,53.3,15.4,29.93,ESE,112,2.0,2.7,22,0.00,,---,0.00,VWS V14.01,2013-03-08 06:08:00,
2013-03-07 23:09:00,53.3,15.4,29.93,SE,135,1.8,2.0,22,0.00,,---,0.00,VWS V14.01,2013-03-08 06:09:00,
2013-03-07 23:10:00,53.3,15.4,29.93,SE,135,2.2,2.2,22,0.00,,---,0.00,VWS V14.01,2013-03-08 06:10:00,
2013-03-07 23:11:00,53.6,16.7,29.92,SSE,158,2.7,2.7,23,0.00,,---,0.00,VWS V14.01,2013-03-08 06:11:00,
2013-03-07 23:12:00,53.1,15.3,29.93,SE,135,1.1,1.1,22,0.00,,---,0.00,VWS V14.01,2013-03-08 06:12:00,
2013-03-07 23:13:00,52.9,15.1,29.93,SE,135,2.2,2.2,22,0.00,,---,0.00,VWS V14.01,2013-03-08 06:13:00,
2013-03-07 23:14:00,52.9,15.1,29.93,SE,135,2.0,2.2,22,0.00,,---,0.00,VWS V14.01,2013-03-08 06:14:00,
2013-03-07 23:15:00,52.9,15.1,29.93,SE,135,1.1,2.0,22,0.00,,---,0.00,VWS V14.01,2013-03-08 06:15:00,
2013-03-07 23:16:00,53.6,16.7,29.93,ESE,112,3.4,3.4,23,0.00,,---,0.00,VWS V14.01,2013-03-08 06:16:00,
2013-03-07 23:17:00,52.7,14.9,29.93,ESE,112,1.8,2.2,22,0.00,,---,0.00,VWS V14.01,2013-03-08 06:17:00,
2013-03-07 23:18:00,52.7,14.9,29.93,SE,135,1.1,1.8,22,0.00,,---,0.00,VWS V14.01,2013-03-08 06:18:00,
2013-03-07 23:19:00,52.6,14.9,29.93,ESE,112,1.1,1.1,22,0.00,,---,0.00,VWS V14.01,2013-03-08 06:19:00,
2013-03-07 23:20:00,52.6,14.9,29.93,SE,135,1.6,1.6,22,0.00,,---,0.00,VWS V14.01,2013-03-08 06:20:00,
2013-03-07 23:21:00,53.6,16.7,29.93,SE,135,1.8,1.8,23,0.00,,---,0.00,VWS V14.01,2013-03-08 06:21:00,
2013-03-07 23:22:00,52.6,14.9,29.93,ESE,112,1.1,1.1,22,0.00,,---,0.00,VWS V14.01,2013-03-08 06:22:00,
2013-03-07 23:23:00,52.6,14.9,29.93,ESE,112,1.8,1.8,22,0.00,,---,0.00,VWS V14.01,2013-03-08 06:23:00,
2013-03-07 23:24:00,52.4,14.7,29.93,SE,135,1.3,1.8,22,0.00,,---,0.00,VWS V14.01,2013-03-08 06:24:00,
2013-03-07 23:25:00,52.4,14.7,29.93,SE,135,0.9,1.3,22,0.00,,---,0.00,VWS V14.01,2013-03-08 06:25:00,
2013-03-07 23:26:00,53.6,16.7,29.93,ESE,112,0.9,0.9,23,0.00,,---,0.00,VWS V14.01,2013-03-08 06:26:00,
2013-03-07 23:27:00,52.4,14.7,29.93,SE,135,1.1,1.3,22,0.00,,---,0.00,VWS V14.01,2013-03-08 06:27:00,
2013-03-07 23:28:00,52.4,14.7,29.93,ESE,112,1.8,1.8,22,0.00,,---,0.00,VWS V14.01,2013-03-08 06:28:00,
2013-03-07 23:29:00,52.2,14.5,29.93,ESE,112,1.3,1.8,22,0.00,,---,0.00,VWS V14.01,2013-03-08 06:29:00,
2013-03-07 23:30:00,52.2,14.5,29.93,ESE,112,1.8,1.8,22,0.00,,---,0.00,VWS V14.01,2013-03-08 06:30:00,
2013-03-07 23:31:00,53.6,16.7,29.93,SE,135,1.1,1.1,23,0.00,,---,0.00,VWS V14.01,2013-03-08 06:31:00,
2013-03-07 23:32:00,52.2,14.5,29.93,ESE,112,1.1,1.8,22,0.00,,---,0.00,VWS V14.01,2013-03-08 06:32:00,
2013-03-07 23:33:00,52.2,14.5,29.93,SE,135,1.8,1.8,22,0.00,,---,0.00,VWS V14.01,2013-03-08 06:33:00,
2013-03-07 23:34:00,52.2,14.5,29.93,ESE,112,0.9,1.8,22,0.00,,---,0.00,VWS V14.01,2013-03-08 06:34:00,
2013-03-07 23:35:00,52.2,14.5,29.93,ESE,112,1.8,1.8,22,0.00,,---,0.00,VWS V14.01,2013-03-08 06:35:00,
2013-03-07 23:36:00,53.5,16.6,29.93,SE,135,2.5,2.5,23,0.00,,---,0.00,VWS V14.01,2013-03-08 06:36:00,
2013-03-07 23:37:00,52.0,14.4,29.92,East,90,1.8,1.8,22,0.00,,---,0.00,VWS V14.01,2013-03-08 06:37:00,
2013-03-07 23:38:00,52.0,14.4,29.92,ESE,112,1.8,1.8,22,0.00,,---,0.00,VWS V14.01,2013-03-08 06:38:00,
2013-03-07 23:39:00,52.0,14.4,29.92,ESE,112,1.3,1.8,22,0.00,,---,0.00,VWS V14.01,2013-03-08 06:39:00,
2013-03-07 23:40:00,52.0,14.4,29.92,ESE,112,0.9,1.3,22,0.00,,---,0.00,VWS V14.01,2013-03-08 06:40:00,
2013-03-07 23:41:00,53.6,16.7,29.93,SSE,158,1.6,1.6,23,0.00,,---,0.00,VWS V14.01,2013-03-08 06:41:00,
2013-03-07 23:42:00,52.0,14.4,29.92,ESE,112,1.3,1.3,22,0.00,,---,0.00,VWS V14.01,2013-03-08 06:42:00,
2013-03-07 23:43:00,52.0,14.4,29.92,East,90,1.1,1.3,22,0.00,,---,0.00,VWS V14.01,2013-03-08 06:43:00,
2013-03-07 23:44:00,52.0,14.4,29.92,ESE,112,1.3,1.3,22,0.00,,---,0.00,VWS V14.01,2013-03-08 06:44:00,
2013-03-07 23:45:00,52.0,14.4,29.92,ESE,112,1.6,1.6,22,0.00,,---,0.00,VWS V14.01,2013-03-08 06:45:00,
2013-03-07 23:46:00,53.6,16.7,29.93,SE,135,1.8,2.2,23,0.00,,---,0.00,VWS V14.01,2013-03-08 06:46:00,
2013-03-07 23:47:00,51.8,14.2,29.92,East,90,2.9,2.9,22,0.00,,---,0.00,VWS V14.01,2013-03-08 06:47:00,
2013-03-07 23:48:00,51.8,14.2,29.92,East,90,0.4,2.9,22,0.00,,---,0.00,VWS V14.01,2013-03-08 06:48:00,
2013-03-07 23:49:00,51.8,14.2,29.92,East,90,0.2,0.4,22,0.00,,---,0.00,VWS V14.01,2013-03-08 06:49:00,
2013-03-07 23:50:00,51.8,14.2,29.92,ESE,112,0.4,0.4,22,0.00,,---,0.00,VWS V14.01,2013-03-08 06:50:00,
2013-03-07 23:51:00,53.6,16.7,29.93,South,180,2.0,2.0,23,0.00,,---,0.00,VWS V14.01,2013-03-08 06:51:00,
2013-03-07 23:52:00,51.5,13.9,29.92,ESE,112,0.9,0.9,22,0.00,,---,0.00,VWS V14.01,2013-03-08 06:52:00,
2013-03-07 23:53:00,51.5,13.9,29.92,ESE,112,0.9,0.9,22,0.00,,---,0.00,VWS V14.01,2013-03-08 06:53:00,
2013-03-07 23:54:00,51.5,13.9,29.92,ESE,112,1.1,1.1,22,0.00,,---,0.00,VWS V14.01,2013-03-08 06:54:00,
2013-03-07 23:55:00,51.3,13.8,29.92,ESE,112,1.6,1.6,22,0.00,,---,0.00,VWS V14.01,2013-03-08 06:55:00,
2013-03-07 23:56:00,53.5,16.6,29.93,SSE,158,1.3,1.3,23,0.00,,---,0.00,VWS V14.01,2013-03-08 06:56:00,
2013-03-07 23:57:00,51.3,13.8,29.92,ESE,112,0.4,0.9,22,0.00,,---,0.00,VWS V14.01,2013-03-08 06:57:00,
2013-03-07 23:59:00,51.3,13.8,29.92,ESE,112,0.4,0.4,22,0.00,,---,0.00,VWS V14.01,2013-03-08 06:59:00,